Provisional Data: Lackawanna River near Forest City, PA


Please select a monitoring station.
Please select start date.
Please select start date.

Toggle Unit: C/F Toggle Unit: C/F
Sample Time Temperature (C) Temperature (F) Specific Conductivity (mS/cm) pH   Turbidity (NTU+) DO (mg/L)
12/4/2020 12:00:00 AM 3.49 38.282 0.072 6.65 6.8 12.49
12/4/2020 12:15:00 AM 3.48 38.264 0.072 6.64 7.33 12.48
12/4/2020 12:30:00 AM 3.46 38.228 0.072 6.64 6.24 12.46
12/4/2020 12:45:00 AM 3.44 38.192 0.072 6.64 6.87 12.46
12/4/2020 1:00:00 AM 3.42 38.156 0.072 6.64 6.67 12.46
12/4/2020 1:15:00 AM 3.4 38.12 0.072 6.64 6.33 12.45
12/4/2020 1:30:00 AM 3.38 38.084 0.072 6.64 6.63 12.45
12/4/2020 1:45:00 AM 3.36 38.048 0.072 6.64 6.28 12.44
12/4/2020 2:00:00 AM 3.35 38.03 0.072 6.63 6.68 12.42
12/4/2020 2:15:00 AM 3.33 37.994 0.072 6.64 6.6 12.42
12/4/2020 2:30:00 AM 3.33 37.994 0.072 6.63 6.49 12.42
12/4/2020 2:45:00 AM 3.32 37.976 0.072 6.63 6.99 12.41
12/4/2020 3:00:00 AM 3.31 37.958 0.072 6.63 6.26 12.39
12/4/2020 3:15:00 AM 3.3 37.94 0.072 6.63 6.5 12.39
12/4/2020 3:30:00 AM 3.28 37.904 0.072 6.63 6.52 12.39
12/4/2020 3:45:00 AM 3.27 37.886 0.072 6.62 6.71 12.37
12/4/2020 4:00:00 AM 3.25 37.85 0.072 6.62 6.74 12.38
12/4/2020 4:15:00 AM 3.24 37.832 0.072 6.62 6.59 12.38
12/4/2020 4:30:00 AM 3.23 37.814 0.072 6.62 6.92 12.37
12/4/2020 4:45:00 AM 3.22 37.796 0.072 6.61 6.4 12.36
12/4/2020 5:00:00 AM 3.2 37.76 0.072 6.62 6.62 12.36
12/4/2020 5:15:00 AM 3.19 37.742 0.072 6.61 6.94 12.35
12/4/2020 5:30:00 AM 3.18 37.724 0.072 6.61 6.57 12.35
12/4/2020 5:45:00 AM 3.17 37.706 0.072 6.62 6.5 12.36
12/4/2020 6:00:00 AM 3.17 37.706 0.072 6.62 6.55 12.35
12/4/2020 6:15:00 AM 3.16 37.688 0.072 6.62 6.35 12.35
12/4/2020 6:30:00 AM 3.16 37.688 0.072 6.62 6.08 12.35
12/4/2020 6:45:00 AM 3.14 37.652 0.072 6.62 6.5 12.35
12/4/2020 7:00:00 AM 3.13 37.634 0.072 6.62 6.23 12.36
12/4/2020 7:15:00 AM 3.13 37.634 0.072 6.61 6.15 12.34
12/4/2020 7:30:00 AM 3.12 37.616 0.072 6.61 5.92 12.34
12/4/2020 7:45:00 AM 3.11 37.598 0.072 6.61 6.02 12.34
12/4/2020 8:00:00 AM 3.11 37.598 0.072 6.61 5.6 12.34
12/4/2020 8:15:00 AM 3.11 37.598 0.072 6.62 5.58 12.36
12/4/2020 8:30:00 AM 3.11 37.598 0.072 6.62 5.69 12.37
12/4/2020 8:45:00 AM 3.11 37.598 0.072 6.62 5.47 12.36
12/4/2020 9:00:00 AM 3.11 37.598 0.072 6.63 5.48 12.41
12/4/2020 9:15:00 AM 3.12 37.616 0.072 6.63 5.61 12.42
12/4/2020 9:30:00 AM 3.13 37.634 0.072 6.63 5.82 12.44
12/4/2020 9:45:00 AM 3.14 37.652 0.072 6.63 5.62 12.45
12/4/2020 10:00:00 AM 3.16 37.688 0.072 6.63 5.36 12.46
12/4/2020 10:15:00 AM 3.19 37.742 0.072 6.64 5.55 12.48
12/4/2020 10:30:00 AM 3.22 37.796 0.072 6.64 5.64 12.5
12/4/2020 10:45:00 AM 3.26 37.868 0.072 6.64 5.59 12.52
12/4/2020 11:00:00 AM 3.31 37.958 0.072 6.65 5.6 12.55
12/4/2020 11:15:00 AM 3.36 38.048 0.072 6.66 5.52 12.58
12/4/2020 11:30:00 AM 3.42 38.156 0.072 6.66 5.47 12.6
12/4/2020 11:45:00 AM 3.47 38.246 0.072 6.66 5.69 12.61
12/4/2020 12:00:00 PM 3.53 38.354 0.072 6.67 5.63 12.66
12/4/2020 12:15:00 PM 3.58 38.444 0.072 6.68 5.5 12.72
12/4/2020 12:30:00 PM 3.63 38.534 0.072 6.69 5.6 12.76
12/4/2020 12:45:00 PM 3.68 38.624 0.072 6.69 5.53 12.77
12/4/2020 1:00:00 PM 3.73 38.714 0.072 6.69 5.56 12.8
12/4/2020 1:15:00 PM 3.78 38.804 0.072 6.7 5.72 12.84
12/4/2020 1:30:00 PM 3.83 38.894 0.072 6.71 5.44 12.85
12/4/2020 1:45:00 PM 3.87 38.966 0.072 6.71 5.59 12.86
12/4/2020 2:00:00 PM 3.91 39.038 0.072 6.71 5.54 12.9
12/4/2020 2:15:00 PM 3.96 39.128 0.072 6.73 5.29 12.95
12/4/2020 2:30:00 PM 4 39.2 0.072 6.72 5.37 12.97
12/4/2020 2:45:00 PM 4.03 39.254 0.072 6.73 5.44 12.97
12/4/2020 3:00:00 PM 4.08 39.344 0.072 6.72 5.35 12.97
12/4/2020 3:15:00 PM 4.09 39.362 0.072 6.73 5.39 13.01
12/4/2020 3:30:00 PM 4.1 39.38 0.072 6.74 5.13 13.06
12/4/2020 3:45:00 PM 4.11 39.398 0.072 6.75 5.35 13.1
12/4/2020 4:00:00 PM 4.12 39.416 0.072 6.75 5.18 13.1
12/4/2020 4:15:00 PM 4.11 39.398 0.072 6.76 5.26 13.13
12/4/2020 4:30:00 PM 4.1 39.38 0.072 6.76 5.14 13.13
12/4/2020 4:45:00 PM 4.09 39.362 0.072 6.76 5.5 13.14
12/4/2020 5:00:00 PM 4.09 39.362 0.072 6.76 5.26 13.14
12/4/2020 5:15:00 PM 4.07 39.326 0.072 6.76 5.36 13.16
12/4/2020 5:30:00 PM 4.04 39.272 0.072 6.76 5.63 13.17
12/4/2020 5:45:00 PM 4.03 39.254 0.072 6.77 5.58 13.17
12/4/2020 6:00:00 PM 4.02 39.236 0.072 6.77 5.66 13.15
12/4/2020 6:15:00 PM 4 39.2 0.072 6.76 5.33 13.14
12/4/2020 6:30:00 PM 3.98 39.164 0.072 6.76 5.54 13.13
12/4/2020 6:45:00 PM 3.97 39.146 0.072 6.76 5.74 13.12
12/4/2020 7:00:00 PM 3.95 39.11 0.072 6.76 5.54 13.11
12/4/2020 7:15:00 PM 3.92 39.056 0.072 6.76 5.83 13.09
12/4/2020 7:30:00 PM 3.92 39.056 0.072 6.76 5.45 13.06
12/4/2020 7:45:00 PM 3.89 39.002 0.072 6.75 5.51 13.05
12/4/2020 8:00:00 PM 3.86 38.948 0.072 6.75 5.63 13.02
12/4/2020 8:15:00 PM 3.84 38.912 0.072 6.74 5.49 13.01
12/4/2020 8:30:00 PM 3.81 38.858 0.072 6.73 5.58 12.98
12/4/2020 8:45:00 PM 3.79 38.822 0.072 6.73 5.24 12.95
12/4/2020 9:00:00 PM 3.78 38.804 0.072 6.73 5.58 12.93
12/4/2020 9:15:00 PM 3.74 38.732 0.072 6.73 5.24 12.91
12/4/2020 9:30:00 PM 3.73 38.714 0.072 6.73 5.48 12.88
12/4/2020 9:45:00 PM 3.7 38.66 0.072 6.72 5.54 12.87
12/4/2020 10:00:00 PM 3.68 38.624 0.072 6.71 5.3 12.84
12/4/2020 10:15:00 PM 3.67 38.606 0.072 6.71 5.26 12.82
12/4/2020 10:30:00 PM 3.64 38.552 0.072 6.71 5.27 12.79
12/4/2020 10:45:00 PM 3.64 38.552 0.072 6.71 5.4 12.77
12/4/2020 11:00:00 PM 3.61 38.498 0.072 6.7 5.07 12.75
12/4/2020 11:15:00 PM 3.61 38.498 0.072 6.7 5.25 12.73
12/4/2020 11:30:00 PM 3.59 38.462 0.072 6.69 5.52 12.71
12/4/2020 11:45:00 PM 3.58 38.444 0.072 6.69 5.33 12.69
12/5/2020 12:00:00 AM 3.57 38.426 0.072 6.69 5.49 12.68
12/5/2020 12:15:00 AM 3.56 38.408 0.072 6.68 5.38 12.65
12/5/2020 12:30:00 AM 3.54 38.372 0.072 6.68 5.14 12.64
12/5/2020 12:45:00 AM 3.53 38.354 0.072 6.68 5.25 12.63
12/5/2020 1:00:00 AM 3.51 38.318 0.072 6.66 5.01 12.61
12/5/2020 1:15:00 AM 3.51 38.318 0.072 6.67 5.34 12.6
12/5/2020 1:30:00 AM 3.5 38.3 0.072 6.67 5.18 12.59
12/5/2020 1:45:00 AM 3.49 38.282 0.072 6.67 5.29 12.58
12/5/2020 2:00:00 AM 3.48 38.264 0.072 6.66 5.31 12.56
12/5/2020 2:15:00 AM 3.47 38.246 0.072 6.66 5.4 12.56
12/5/2020 2:30:00 AM 3.46 38.228 0.072 6.66 5.45 12.56
12/5/2020 2:45:00 AM 3.45 38.21 0.072 6.66 5.5 12.54
12/5/2020 3:00:00 AM 3.45 38.21 0.072 6.65 5.64 12.53
12/5/2020 3:15:00 AM 3.44 38.192 0.072 6.65 5.44 12.52
12/5/2020 3:30:00 AM 3.44 38.192 0.072 6.64 5.41 12.51
12/5/2020 3:45:00 AM 3.43 38.174 0.072 6.65 5.6 12.5
12/5/2020 4:00:00 AM 3.43 38.174 0.072 6.64 5.3 12.48
12/5/2020 4:15:00 AM 3.42 38.156 0.072 6.64 5.18 12.48
12/5/2020 4:30:00 AM 3.41 38.138 0.072 6.65 5.47 12.48
12/5/2020 4:45:00 AM 3.4 38.12 0.072 6.64 5.25 12.47
12/5/2020 5:00:00 AM 3.39 38.102 0.073 6.64 5.34 12.46
12/5/2020 5:15:00 AM 3.39 38.102 0.073 6.64 5.66 12.45
12/5/2020 5:30:00 AM 3.39 38.102 0.073 6.63 5.47 12.44
12/5/2020 5:45:00 AM 3.38 38.084 0.073 6.64 5.76 12.43
12/5/2020 6:00:00 AM 3.37 38.066 0.072 6.63 5.58 12.42
12/5/2020 6:15:00 AM 3.37 38.066 0.073 6.63 5.75 12.41
12/5/2020 6:30:00 AM 3.36 38.048 0.073 6.62 5.44 12.4
12/5/2020 6:45:00 AM 3.36 38.048 0.073 6.62 5.27 12.38
12/5/2020 7:00:00 AM 3.36 38.048 0.073 6.62 5.09 12.38
12/5/2020 7:15:00 AM 3.35 38.03 0.073 6.62 5.42 12.37
12/5/2020 7:30:00 AM 3.35 38.03 0.073 6.62 5.43 12.35
12/5/2020 7:45:00 AM 3.34 38.012 0.073 6.61 5.23 12.36
12/5/2020 8:00:00 AM 3.33 37.994 0.073 6.62 5.19 12.35
12/5/2020 8:15:00 AM 3.33 37.994 0.073 6.61 5.15 12.35
12/5/2020 8:30:00 AM 3.32 37.976 0.073 6.62 5.13 12.35
12/5/2020 8:45:00 AM 3.32 37.976 0.073 6.62 5.12 12.35
12/5/2020 9:00:00 AM 3.32 37.976 0.073 6.62 5.32 12.35
12/5/2020 9:15:00 AM 3.32 37.976 0.073 6.62 5.08 12.35
12/5/2020 9:30:00 AM 3.32 37.976 0.073 6.62 5.27 12.35
12/5/2020 9:45:00 AM 3.32 37.976 0.073 6.62 5.35 12.36
12/5/2020 10:00:00 AM 3.32 37.976 0.073 6.63 5.31 12.38
12/5/2020 10:15:00 AM 3.32 37.976 0.073 6.63 5.16 12.39
12/5/2020 10:30:00 AM 3.33 37.994 0.073 6.63 5.2 12.38
12/5/2020 10:45:00 AM 3.33 37.994 0.073 6.63 5.42 12.39
12/5/2020 11:00:00 AM 3.34 38.012 0.073 6.63 5.04 12.4
12/5/2020 11:15:00 AM 3.35 38.03 0.073 6.63 4.72 12.41
12/5/2020 11:30:00 AM 3.35 38.03 0.073 6.64 5.16 12.43
12/5/2020 11:45:00 AM 3.36 38.048 0.073 6.65 5.04 12.46
12/5/2020 12:00:00 PM 3.37 38.066 0.073 6.66 5.36 12.49
12/5/2020 12:15:00 PM 3.39 38.102 0.073 6.66 5.09 12.52
12/5/2020 12:30:00 PM 3.4 38.12 0.073 6.67 5.18 12.55
12/5/2020 12:45:00 PM 3.42 38.156 0.073 6.68 5.3 12.57
12/5/2020 1:00:00 PM 3.44 38.192 0.073 6.68 5.28 12.59
12/5/2020 1:15:00 PM 3.44 38.192 0.073 6.69 5.15 12.62
12/5/2020 1:30:00 PM 3.45 38.21 0.073 6.69 4.89 12.63
12/5/2020 1:45:00 PM 3.46 38.228 0.073 6.7 4.93 12.66
12/5/2020 2:00:00 PM 3.45 38.21 0.073 6.7 4.97 12.69
12/5/2020 2:15:00 PM 3.45 38.21 0.073 6.71 5.28 12.73
12/5/2020 2:30:00 PM 3.46 38.228 0.073 6.72 5.1 12.75
12/5/2020 2:45:00 PM 3.46 38.228 0.073 6.72 5.06 12.77
12/5/2020 3:00:00 PM 3.46 38.228 0.073 6.73 4.87 12.78
12/5/2020 3:15:00 PM 3.46 38.228 0.073 6.73 4.92 12.81
12/5/2020 3:30:00 PM 3.44 38.192 0.073 6.74 4.84 12.82
12/5/2020 3:45:00 PM 3.43 38.174 0.073 6.74 5.09 12.84
12/5/2020 4:00:00 PM 3.42 38.156 0.073 6.74 4.78 12.84
12/5/2020 4:15:00 PM 3.41 38.138 0.073 6.75 4.8 12.85
12/5/2020 4:30:00 PM 3.39 38.102 0.073 6.75 4.85 12.85
12/5/2020 4:45:00 PM 3.37 38.066 0.073 6.76 4.78 12.85
12/5/2020 5:00:00 PM 3.36 38.048 0.073 6.76 4.65 12.84
12/5/2020 5:15:00 PM 3.35 38.03 0.073 6.76 5.27 12.85
12/5/2020 5:30:00 PM 3.33 37.994 0.073 6.76 5.11 12.84
12/5/2020 5:45:00 PM 3.32 37.976 0.073 6.76 6.54 12.82
12/5/2020 6:00:00 PM 3.3 37.94 0.073 6.75 5.52 12.81
12/5/2020 6:15:00 PM 3.28 37.904 0.073 6.74 6.78 12.78
12/5/2020 6:30:00 PM 3.26 37.868 0.073 6.73 6.45 12.77
12/5/2020 6:45:00 PM 3.24 37.832 0.072 6.73 6.34 12.76
12/5/2020 7:00:00 PM 3.24 37.832 0.072 6.74 5.52 12.75
12/5/2020 7:15:00 PM 3.23 37.814 0.072 6.74 4.67 12.74
12/5/2020 7:30:00 PM 3.21 37.778 0.072 6.73 4.76 12.73
12/5/2020 7:45:00 PM 3.19 37.742 0.072 6.74 4.68 12.72
12/5/2020 8:00:00 PM 3.18 37.724 0.072 6.73 5.28 12.71
12/5/2020 8:15:00 PM 3.17 37.706 0.072 6.73 6.41 12.7
12/5/2020 8:30:00 PM 3.16 37.688 0.072 6.73 4.77 12.69
12/5/2020 8:45:00 PM 3.15 37.67 0.072 6.73 5.54 12.67
12/5/2020 9:00:00 PM 3.14 37.652 0.072 6.73 5.78 12.65
12/5/2020 9:15:00 PM 3.13 37.634 0.072 6.72 5.02 12.63
12/5/2020 9:30:00 PM 3.13 37.634 0.072 6.72 4.98 12.61
12/5/2020 9:45:00 PM 3.12 37.616 0.072 6.71 6.63 12.6
12/5/2020 10:00:00 PM 3.11 37.598 0.072 6.72 5.41 12.59
12/5/2020 10:15:00 PM 3.1 37.58 0.072 6.71 5.57 12.57
12/5/2020 10:30:00 PM 3.09 37.562 0.072 6.71 6.15 12.56
12/5/2020 10:45:00 PM 3.07 37.526 0.072 6.71 5.77 12.56
12/5/2020 11:00:00 PM 3.06 37.508 0.072 6.71 5.53 12.55
12/5/2020 11:15:00 PM 3.05 37.49 0.072 6.71 5.49 12.54
12/5/2020 11:30:00 PM 3.03 37.454 0.072 6.71 5.06 12.53
12/5/2020 11:45:00 PM 3.01 37.418 0.072 6.7 5.07 12.52
12/6/2020 12:00:00 AM 2.99 37.382 0.072 6.7 5.69 12.52
12/6/2020 12:15:00 AM 2.98 37.364 0.072 6.69 5.14 12.51
12/6/2020 12:30:00 AM 2.96 37.328 0.072 6.69 5.22 12.51
12/6/2020 12:45:00 AM 2.95 37.31 0.072 6.69 5.05 12.5
12/6/2020 1:00:00 AM 2.94 37.292 0.072 6.69 5 12.49
12/6/2020 1:15:00 AM 2.91 37.238 0.072 6.69 4.56 12.49
12/6/2020 1:30:00 AM 2.88 37.184 0.072 6.68 5.78 12.48
12/6/2020 1:45:00 AM 2.86 37.148 0.072 6.68 4.3 12.48
12/6/2020 2:00:00 AM 2.84 37.112 0.072 6.68 4.54 12.48
12/6/2020 2:15:00 AM 2.81 37.058 0.072 6.68 4.37 12.48
12/6/2020 2:30:00 AM 2.79 37.022 0.072 6.68 4.17 12.48
12/6/2020 2:45:00 AM 2.77 36.986 0.072 6.68 4.56 12.48
12/6/2020 3:00:00 AM 2.74 36.932 0.072 6.67 4.25 12.48
12/6/2020 3:15:00 AM 2.72 36.896 0.072 6.68 4.28 12.48
12/6/2020 3:30:00 AM 2.69 36.842 0.072 6.68 4.39 12.49
12/6/2020 3:45:00 AM 2.66 36.788 0.072 6.68 4.37 12.49
12/6/2020 4:00:00 AM 2.63 36.734 0.072 6.68 4.87 12.5
12/6/2020 4:15:00 AM 2.6 36.68 0.072 6.68 4.79 12.5
12/6/2020 4:30:00 AM 2.57 36.626 0.072 6.68 4.57 12.5
12/6/2020 4:45:00 AM 2.53 36.554 0.072 6.68 4.73 12.51
12/6/2020 5:00:00 AM 2.5 36.5 0.072 6.69 4.28 12.51
12/6/2020 5:15:00 AM 2.48 36.464 0.072 6.69 4.34 12.52
12/6/2020 5:30:00 AM 2.45 36.41 0.073 6.7 4.4 12.53
12/6/2020 5:45:00 AM 2.43 36.374 0.073 6.69 4.38 12.53
12/6/2020 6:00:00 AM 2.41 36.338 0.073 6.69 5.07 12.53
12/6/2020 6:15:00 AM 2.38 36.284 0.073 6.7 4.37 12.54
12/6/2020 6:30:00 AM 2.35 36.23 0.073 6.7 4.13 12.55
12/6/2020 6:45:00 AM 2.32 36.176 0.073 6.69 4.25 12.55
12/6/2020 7:00:00 AM 2.28 36.104 0.073 6.69 4.74 12.55
12/6/2020 7:15:00 AM 2.26 36.068 0.073 6.69 3.93 12.56
12/6/2020 7:30:00 AM 2.23 36.014 0.073 6.7 3.73 12.55
12/6/2020 7:45:00 AM 2.2 35.96 0.073 6.69 7.3 12.56
12/6/2020 8:00:00 AM 2.16 35.888 0.073 6.68 13.95 12.57
12/6/2020 8:15:00 AM 2.13 35.834 0.073 6.69 5.39 12.58
12/6/2020 8:30:00 AM 2.1 35.78 0.073 6.68 4.39 12.59
12/6/2020 8:45:00 AM 2.08 35.744 0.073 6.67 3.83 12.6
12/6/2020 9:00:00 AM 2.06 35.708 0.073 6.68 3.83 12.62
12/6/2020 9:15:00 AM 2.04 35.672 0.073 6.68 3.55 12.64
12/6/2020 9:30:00 AM 2.01 35.618 0.074 6.68 3.5 12.65
12/6/2020 9:45:00 AM 2 35.6 0.074 6.69 3.81 12.67
12/6/2020 10:00:00 AM 1.98 35.564 0.074 6.68 3.51 12.68
12/6/2020 10:15:00 AM 1.97 35.546 0.074 6.69 3.62 12.71
12/6/2020 10:30:00 AM 1.95 35.51 0.074 6.68 3.87 12.74
12/6/2020 10:45:00 AM 1.93 35.474 0.074 6.69 4.13 12.75
12/6/2020 11:00:00 AM 1.92 35.456 0.074 6.7 3.48 12.77
12/6/2020 11:15:00 AM 1.92 35.456 0.074 6.7 3.69 12.81
12/6/2020 11:30:00 AM 1.9 35.42 0.074 6.71 3.73 12.83
12/6/2020 11:45:00 AM 1.9 35.42 0.074 6.72 3.66 12.85
12/6/2020 12:00:00 PM 1.9 35.42 0.074 6.72 3.79 12.88
12/6/2020 12:15:00 PM 1.9 35.42 0.074 6.71 3.73 12.91
12/6/2020 12:30:00 PM 1.89 35.402 0.074 6.71 3.48 12.94
12/6/2020 12:45:00 PM 1.9 35.42 0.074 6.74 3.56 12.97
12/6/2020 1:00:00 PM 1.9 35.42 0.074 6.75 3.64 13.01
12/6/2020 1:15:00 PM 1.9 35.42 0.074 6.73 3.75 13.04
12/6/2020 1:30:00 PM 1.91 35.438 0.074 6.74 3.39 13.06
12/6/2020 1:45:00 PM 1.92 35.456 0.074 6.73 3.59 13.09
12/6/2020 2:00:00 PM 1.91 35.438 0.074 6.75 3.58 13.13
12/6/2020 2:15:00 PM 1.91 35.438 0.074 6.77 3.66 13.15
12/6/2020 2:30:00 PM 1.91 35.438 0.074 6.75 3.4 13.18
12/6/2020 2:45:00 PM 1.9 35.42 0.074 6.76 3.48 13.22
12/6/2020 3:00:00 PM 1.88 35.384 0.074 6.77 3.45 13.24
12/6/2020 3:15:00 PM 1.89 35.402 0.074 6.79 3.48 13.26
12/6/2020 3:30:00 PM 1.88 35.384 0.074 6.79 3.39 13.29
12/6/2020 3:45:00 PM 1.87 35.366 0.074 6.79 3.37 13.31
12/6/2020 4:00:00 PM 1.86 35.348 0.074 6.8 3.28 13.33
12/6/2020 4:15:00 PM 1.85 35.33 0.074 6.81 3.25 13.35
12/6/2020 4:30:00 PM 1.83 35.294 0.074 6.81 3.49 13.37
12/6/2020 4:45:00 PM 1.8 35.24 0.074 6.81 3.35 13.39
12/6/2020 5:00:00 PM 1.78 35.204 0.074 6.81 3.22 13.4
12/6/2020 5:15:00 PM 1.76 35.168 0.074 6.82 3.45 13.42
12/6/2020 5:30:00 PM 1.73 35.114 0.074 6.81 3.33 13.42
12/6/2020 5:45:00 PM 1.71 35.078 0.074 6.83 3.15 13.43
12/6/2020 6:00:00 PM 1.67 35.006 0.074 6.8 3.57 13.45
12/6/2020 6:15:00 PM 1.65 34.97 0.074 6.8 3.68 13.44
12/6/2020 6:30:00 PM 1.63 34.934 0.074 6.8 3.66 13.45
12/6/2020 6:45:00 PM 1.6 34.88 0.074 6.8 3.65 13.45
12/6/2020 7:00:00 PM 1.58 34.844 0.074 6.8 3.3 13.45
12/6/2020 7:15:00 PM 1.55 34.79 0.074 6.8 3.84 13.45
12/6/2020 7:30:00 PM 1.52 34.736 0.074 6.8 3.47 13.45
12/6/2020 7:45:00 PM 1.5 34.7 0.074 6.8 3.57 13.45
12/6/2020 8:00:00 PM 1.48 34.664 0.074 6.8 3.52 13.45
12/6/2020 8:15:00 PM 1.46 34.628 0.074 6.8 3.55 13.45
12/6/2020 8:30:00 PM 1.44 34.592 0.074 6.8 3.34 13.44
12/6/2020 8:45:00 PM 1.41 34.538 0.074 6.8 3.58 13.44
12/6/2020 9:00:00 PM 1.37 34.466 0.075 6.79 3.67 13.44
12/6/2020 9:15:00 PM 1.35 34.43 0.075 6.79 3.55 13.45
12/6/2020 9:30:00 PM 1.35 34.43 0.075 6.79 3.43 13.44
12/6/2020 9:45:00 PM 1.33 34.394 0.075 6.79 3.55 13.43
12/6/2020 10:00:00 PM 1.31 34.358 0.075 6.79 3.58 13.42
12/6/2020 10:15:00 PM 1.29 34.322 0.075 6.79 3.42 13.42
12/6/2020 10:30:00 PM 1.28 34.304 0.075 6.78 3.57 13.41
12/6/2020 10:45:00 PM 1.25 34.25 0.075 6.79 3.56 13.41
12/6/2020 11:00:00 PM 1.24 34.232 0.075 6.79 3.43 13.4
12/6/2020 11:15:00 PM 1.23 34.214 0.075 6.78 3.79 13.39
12/6/2020 11:30:00 PM 1.22 34.196 0.075 6.78 3.42 13.38
12/6/2020 11:45:00 PM 1.2 34.16 0.075 6.78 3.34 13.38
12/7/2020 12:00:00 AM 1.18 34.124 0.075 6.78 3.47 13.37
12/7/2020 12:15:00 AM 1.17 34.106 0.075 6.78 3.45 13.36
12/7/2020 12:30:00 AM 1.15 34.07 0.075 6.78 3.59 13.36
12/7/2020 12:45:00 AM 1.13 34.034 0.075 6.78 3.54 13.35
12/7/2020 1:00:00 AM 1.13 34.034 0.075 6.78 3.61 13.34
12/7/2020 1:15:00 AM 1.12 34.016 0.075 6.78 3.51 13.33
12/7/2020 1:30:00 AM 1.11 33.998 0.075 6.78 3.4 13.32
12/7/2020 1:45:00 AM 1.1 33.98 0.075 6.78 3.47 13.32
12/7/2020 2:00:00 AM 1.09 33.962 0.075 6.77 3.26 13.31
12/7/2020 2:15:00 AM 1.08 33.944 0.075 6.77 3.61 13.3
12/7/2020 2:30:00 AM 1.07 33.926 0.075 6.76 3.5 13.29
12/7/2020 2:45:00 AM 1.04 33.872 0.075 6.76 3.94 13.29
12/7/2020 3:00:00 AM 1.02 33.836 0.075 6.75 3.48 13.28
12/7/2020 3:15:00 AM 1.01 33.818 0.075 6.76 3.54 13.28
12/7/2020 3:30:00 AM 1 33.8 0.075 6.76 3.39 13.27
12/7/2020 3:45:00 AM 0.99 33.782 0.075 6.76 3.77 13.27
12/7/2020 4:00:00 AM 0.98 33.764 0.075 6.74 3.58 13.27
12/7/2020 4:15:00 AM 0.97 33.746 0.075 6.76 3.74 13.26
12/7/2020 4:30:00 AM 0.96 33.728 0.075 6.75 3.54 13.26
12/7/2020 4:45:00 AM 0.95 33.71 0.075 6.75 3.71 13.25
12/7/2020 5:00:00 AM 0.93 33.674 0.075 6.75 3.57 13.24
12/7/2020 5:15:00 AM 0.91 33.638 0.075 6.74 3.77 13.24
12/7/2020 5:30:00 AM 0.89 33.602 0.075 6.74 3.78 13.24
12/7/2020 5:45:00 AM 0.87 33.566 0.075 6.73 3.69 13.23
12/7/2020 6:00:00 AM 0.86 33.548 0.075 6.74 3.6 13.23
12/7/2020 6:15:00 AM 0.85 33.53 0.075 6.73 3.85 13.22
12/7/2020 6:30:00 AM 0.85 33.53 0.075 6.73 3.54 13.22
12/7/2020 6:45:00 AM 0.83 33.494 0.075 6.73 3.5 13.22
12/7/2020 7:00:00 AM 0.82 33.476 0.075 6.73 3.52 13.21
12/7/2020 7:15:00 AM 0.8 33.44 0.075 6.72 3.66 13.21
12/7/2020 7:30:00 AM 0.78 33.404 0.075 6.71 3.46 13.21
12/7/2020 7:45:00 AM 0.77 33.386 0.075 6.72 3.73 13.21
12/7/2020 8:00:00 AM 0.78 33.404 0.075 6.72 3.59 13.21
12/7/2020 8:15:00 AM 0.78 33.404 0.075 6.72 4.02 13.2
12/7/2020 8:30:00 AM 0.76 33.368 0.075 6.72 3.59 13.21
12/7/2020 8:45:00 AM 0.76 33.368 0.075 6.72 3.66 13.21
12/7/2020 9:00:00 AM 0.74 33.332 0.075 6.71 3.92 13.22
12/7/2020 9:15:00 AM 0.74 33.332 0.075 6.72 3.55 13.22
12/7/2020 9:30:00 AM 0.73 33.314 0.075 6.72 3.51 13.23
12/7/2020 9:45:00 AM 0.74 33.332 0.075 6.72 3.73 13.24
12/7/2020 10:00:00 AM 0.75 33.35 0.075 6.72 3.45 13.25
12/7/2020 10:15:00 AM 0.76 33.368 0.075 6.72 3.55 13.27
12/7/2020 10:30:00 AM 0.77 33.386 0.075 6.72 3.55 13.28
12/7/2020 10:45:00 AM 0.78 33.404 0.075 6.72 3.74 13.3
12/7/2020 11:00:00 AM 0.8 33.44 0.075 6.72 3.75 13.31
12/7/2020 11:15:00 AM 0.81 33.458 0.075 6.72 3.58 13.32
12/7/2020 11:30:00 AM 0.83 33.494 0.075 6.72 3.61 13.35
12/7/2020 11:45:00 AM 0.85 33.53 0.075 6.73 3.42 13.36
12/7/2020 12:00:00 PM 0.87 33.566 0.075 6.73 3.81 13.39
12/7/2020 12:15:00 PM 0.9 33.62 0.075 6.73 3.78 13.41
12/7/2020 12:30:00 PM 0.93 33.674 0.075 6.73 3.69 13.44
12/7/2020 12:45:00 PM 0.97 33.746 0.075 6.74 3.5 13.46
12/7/2020 1:00:00 PM 0.99 33.782 0.075 6.73 3.75 13.48
12/7/2020 1:15:00 PM 1.01 33.818 0.075 6.7 4.05 13.5
12/7/2020 1:30:00 PM 1.04 33.872 0.075 6.73 3.73 13.53
12/7/2020 1:45:00 PM 1.07 33.926 0.075 6.74 3.67 13.55
12/7/2020 2:00:00 PM 1.1 33.98 0.075 6.74 3.75 13.57
12/7/2020 2:15:00 PM 1.12 34.016 0.075 6.74 3.71 13.59
12/7/2020 2:30:00 PM 1.14 34.052 0.075 6.75 3.43 13.62
12/7/2020 2:45:00 PM 1.17 34.106 0.075 6.75 3.56 13.64
12/7/2020 3:00:00 PM 1.17 34.106 0.075 6.75 3.64 13.66
12/7/2020 3:15:00 PM 1.19 34.142 0.075 6.76 3.61 13.68
12/7/2020 3:30:00 PM 1.21 34.178 0.075 6.76 3.42 13.71
12/7/2020 3:45:00 PM 1.21 34.178 0.075 6.76 3.65 13.73
12/7/2020 4:00:00 PM 1.21 34.178 0.075 6.76 3.62 13.75
12/7/2020 4:15:00 PM 1.21 34.178 0.075 6.77 3.41 13.77
12/7/2020 4:30:00 PM 1.21 34.178 0.075 6.77 3.56 13.78
12/7/2020 4:45:00 PM 1.2 34.16 0.075 6.77 3.55 13.8
12/7/2020 5:00:00 PM 1.19 34.142 0.075 6.78 3.24 13.81
12/7/2020 5:15:00 PM 1.19 34.142 0.075 6.78 3.48 13.83
12/7/2020 5:30:00 PM 1.17 34.106 0.075 6.79 3.4 13.84
12/7/2020 5:45:00 PM 1.15 34.07 0.075 6.79 3.4 13.85
12/7/2020 6:00:00 PM 1.13 34.034 0.075 6.8 3.89 13.86
12/7/2020 6:15:00 PM 1.1 33.98 0.075 6.79 3.51 13.87
12/7/2020 6:30:00 PM 1.08 33.944 0.075 6.79 3.51 13.87
12/7/2020 6:45:00 PM 1.06 33.908 0.075 6.8 3.66 13.88
12/7/2020 7:00:00 PM 1.03 33.854 0.075 6.8 3.87 13.88
12/7/2020 7:15:00 PM 1.01 33.818 0.075 6.81 3.62 13.88
12/7/2020 7:30:00 PM 0.99 33.782 0.075 6.79 3.45 13.88
12/7/2020 7:45:00 PM 0.96 33.728 0.075 6.81 3.36 13.88
12/7/2020 8:00:00 PM 0.94 33.692 0.075 6.8 3.63 13.87
12/7/2020 8:15:00 PM 0.92 33.656 0.075 6.8 3.7 13.86
12/7/2020 8:30:00 PM 0.9 33.62 0.075 6.81 3.66 13.86
12/7/2020 8:45:00 PM 0.88 33.584 0.075 6.8 3.35 13.85
12/7/2020 9:00:00 PM 0.85 33.53 0.075 6.8 3.51 13.85
12/7/2020 9:15:00 PM 0.83 33.494 0.075 6.8 3.66 13.84
12/7/2020 9:30:00 PM 0.8 33.44 0.075 6.8 3.31 13.83
12/7/2020 9:45:00 PM 0.78 33.404 0.075 6.81 3.52 13.82
12/7/2020 10:00:00 PM 0.76 33.368 0.075 6.8 3.53 13.82
12/7/2020 10:15:00 PM 0.74 33.332 0.075 6.8 3.61 13.82
12/7/2020 10:30:00 PM 0.72 33.296 0.075 6.8 3.64 13.81
12/7/2020 10:45:00 PM 0.71 33.278 0.075 6.81 3.99 13.8
12/7/2020 11:00:00 PM 0.69 33.242 0.075 6.8 3.68 13.79
12/7/2020 11:15:00 PM 0.67 33.206 0.075 6.8 3.57 13.78
12/7/2020 11:30:00 PM 0.66 33.188 0.075 6.8 3.48 13.76
12/7/2020 11:45:00 PM 0.65 33.17 0.075 6.8 3.84 13.75
12/8/2020 12:00:00 AM 0.63 33.134 0.075 6.8 3.58 13.74
12/8/2020 12:15:00 AM 0.61 33.098 0.075 6.79 3.55 13.73
12/8/2020 12:30:00 AM 0.6 33.08 0.075 6.79 3.41 13.72
12/8/2020 12:45:00 AM 0.6 33.08 0.075 6.79 3.53 13.7
12/8/2020 1:00:00 AM 0.59 33.062 0.075 6.79 3.81 13.69
12/8/2020 1:15:00 AM 0.58 33.044 0.075 6.79 3.85 13.68
12/8/2020 1:30:00 AM 0.57 33.026 0.075 6.79 3.64 13.66
12/8/2020 1:45:00 AM 0.56 33.008 0.075 6.78 3.92 13.65
12/8/2020 2:00:00 AM 0.56 33.008 0.075 6.78 4.86 13.64
12/8/2020 2:15:00 AM 0.56 33.008 0.075 6.79 3.93 13.63
12/8/2020 2:30:00 AM 0.54 32.972 0.075 6.79 3.77 13.62
12/8/2020 2:45:00 AM 0.53 32.954 0.075 6.77 4.78 13.61
12/8/2020 3:00:00 AM 0.52 32.936 0.075 6.77 3.76 13.6
12/8/2020 3:15:00 AM 0.5 32.9 0.075 6.77 4.08 13.59
12/8/2020 3:30:00 AM 0.49 32.882 0.075 6.77 4.55 13.58
12/8/2020 3:45:00 AM 0.47 32.846 0.075 6.77 4.22 13.57
12/8/2020 4:00:00 AM 0.45 32.81 0.075 6.76 4.21 13.55
12/8/2020 4:15:00 AM 0.44 32.792 0.075 6.76 4.39 13.55
12/8/2020 4:30:00 AM 0.42 32.756 0.075 6.76 4.39 13.54
12/8/2020 4:45:00 AM 0.41 32.738 0.075 6.77 4.66 13.54
12/8/2020 5:00:00 AM 0.39 32.702 0.075 6.76 4.28 13.53
12/8/2020 5:15:00 AM 0.38 32.684 0.075 6.76 4.53 13.52
12/8/2020 5:30:00 AM 0.36 32.648 0.075 6.76 4.29 13.52
12/8/2020 5:45:00 AM 0.35 32.63 0.075 6.75 4.07 13.52
12/8/2020 6:00:00 AM 0.32 32.576 0.075 6.75 4.35 13.52
12/8/2020 6:15:00 AM 0.3 32.54 0.075 6.75 5.98 13.51
12/8/2020 6:30:00 AM 0.27 32.486 0.075 6.75 4.27 13.51
12/8/2020 6:45:00 AM 0.25 32.45 0.075 6.75 4.22 13.51
12/8/2020 7:00:00 AM 0.23 32.414 0.075 6.74 4.44 13.5
12/8/2020 7:15:00 AM 0.21 32.378 0.075 6.74 4.29 13.5
12/8/2020 7:30:00 AM 0.19 32.342 0.075 6.73 4.19 13.5
12/8/2020 7:45:00 AM 0.18 32.324 0.075 6.74 4.11 13.49
12/8/2020 8:00:00 AM 0.16 32.288 0.075 6.73 4.44 13.5
12/8/2020 8:15:00 AM 0.15 32.27 0.075 6.74 4.15 13.5
12/8/2020 8:30:00 AM 0.14 32.252 0.075 6.73 3.99 13.51
12/8/2020 8:45:00 AM 0.13 32.234 0.075 6.74 4.42 13.51
12/8/2020 9:00:00 AM 0.12 32.216 0.075 6.74 4.1 13.52
12/8/2020 9:15:00 AM 0.12 32.216 0.075 6.73 3.81 13.52
12/8/2020 9:30:00 AM 0.12 32.216 0.075 6.74 4.03 13.52
12/8/2020 9:45:00 AM 0.11 32.198 0.075 6.73 3.88 13.54
12/8/2020 10:00:00 AM 0.11 32.198 0.075 6.74 4.07 13.54
12/8/2020 10:15:00 AM 0.11 32.198 0.075 6.73 3.96 13.55
12/8/2020 10:30:00 AM 0.12 32.216 0.075 6.73 3.98 13.56
12/8/2020 10:45:00 AM 0.13 32.234 0.075 6.73 3.76 13.58
12/8/2020 11:00:00 AM 0.13 32.234 0.075 6.74 3.91 13.6
12/8/2020 11:15:00 AM 0.14 32.252 0.075 6.73 4.01 13.61
12/8/2020 11:30:00 AM 0.16 32.288 0.075 6.74 3.89 13.63
12/8/2020 11:45:00 AM 0.18 32.324 0.075 6.74 4.06 13.65
12/8/2020 12:00:00 PM 0.2 32.36 0.075 6.74 3.93 13.66
12/8/2020 12:15:00 PM 0.22 32.396 0.075 6.75 4.04 13.68
12/8/2020 12:30:00 PM 0.25 32.45 0.075 6.75 3.83 13.7
12/8/2020 12:45:00 PM 0.27 32.486 0.075 6.74 3.64 13.72
12/8/2020 1:00:00 PM 0.28 32.504 0.075 6.75 3.59 13.73
12/8/2020 1:15:00 PM 0.3 32.54 0.075 6.76 3.89 13.76
12/8/2020 1:30:00 PM 0.32 32.576 0.075 6.76 3.97 13.78
12/8/2020 1:45:00 PM 0.34 32.612 0.075 6.75 3.66 13.8
12/8/2020 2:00:00 PM 0.36 32.648 0.075 6.77 3.76 13.82
12/8/2020 2:15:00 PM 0.37 32.666 0.075 6.76 3.51 13.83
12/8/2020 2:30:00 PM 0.38 32.684 0.075 6.77 3.43 13.85
12/8/2020 2:45:00 PM 0.38 32.684 0.075 6.77 4.27 13.87
12/8/2020 3:00:00 PM 0.38 32.684 0.075 6.78 3.59 13.89
12/8/2020 3:15:00 PM 0.39 32.702 0.075 6.75 3.58 13.91
12/8/2020 3:30:00 PM 0.4 32.72 0.075 6.77 3.56 13.92
12/8/2020 3:45:00 PM 0.4 32.72 0.075 6.77 3.52 13.94
12/8/2020 4:00:00 PM 0.4 32.72 0.075 6.79 3.41 13.96
12/8/2020 4:15:00 PM 0.4 32.72 0.075 6.79 3.41 13.97
12/8/2020 4:30:00 PM 0.4 32.72 0.075 6.81 3.44 13.98
12/8/2020 4:45:00 PM 0.4 32.72 0.075 6.78 3.7 13.99
12/8/2020 5:00:00 PM 0.39 32.702 0.075 6.79 3.45 14.01
12/8/2020 5:15:00 PM 0.38 32.684 0.075 6.78 3.39 14.02
12/8/2020 5:30:00 PM 0.38 32.684 0.075 6.8 3.29 14.02
12/8/2020 5:45:00 PM 0.35 32.63 0.075 6.79 3.36 14.03
12/8/2020 6:00:00 PM 0.33 32.594 0.075 6.8 3.58 14.04
12/8/2020 6:15:00 PM 0.3 32.54 0.075 6.79 3.45 14.05
12/8/2020 6:30:00 PM 0.28 32.504 0.075 6.8 3.49 14.06
12/8/2020 6:45:00 PM 0.26 32.468 0.075 6.8 3.31 14.06
12/8/2020 7:00:00 PM 0.23 32.414 0.075 6.8 3.98 14.07
12/8/2020 7:15:00 PM 0.2 32.36 0.075 6.82 3.73 14.08
12/8/2020 7:30:00 PM 0.18 32.324 0.075 6.82 3.53 14.09
12/8/2020 7:45:00 PM 0.16 32.288 0.075 6.82 3.55 14.08
12/8/2020 8:00:00 PM 0.14 32.252 0.075 6.81 3.46 14.09
12/8/2020 8:15:00 PM 0.12 32.216 0.075 6.83 3.67 14.1
12/8/2020 8:30:00 PM 0.1 32.18 0.075 6.82 3.68 14.1
12/8/2020 8:45:00 PM 0.09 32.162 0.075 6.79 3.46 14.1
12/8/2020 9:00:00 PM 0.07 32.126 0.075 6.81 3.91 14.09
12/8/2020 9:15:00 PM 0.06 32.108 0.075 6.78 3.94 14.08
12/8/2020 9:30:00 PM 0.04 32.072 0.075 6.81 3.67 14.09
12/8/2020 9:45:00 PM 0.04 32.072 0.075 6.8 3.97 14.09
12/8/2020 10:00:00 PM 0.03 32.054 0.075 6.8 3.87 14.08
12/8/2020 10:15:00 PM 0.02 32.036 0.075 6.79 3.71 14.08
12/8/2020 10:30:00 PM 0.02 32.036 0.075 6.78 3.65 14.07
12/8/2020 10:45:00 PM 0.01 32.018 0.075 6.78 3.51 14.08
12/8/2020 11:00:00 PM 0 32 0.075 6.77 3.52 14.07
12/8/2020 11:15:00 PM -0.01 31.982 0.075 6.78 3.97 14.07
12/8/2020 11:30:00 PM -0.01 31.982 0.075 6.8 3.44 14.06
12/8/2020 11:45:00 PM -0.02 31.964 0.075 6.8 3.72 14.05
12/9/2020 12:00:00 AM -0.02 31.964 0.075 6.8 3.62 14.05
12/9/2020 12:15:00 AM -0.02 31.964 0.075 6.8 4.68 14.04
12/9/2020 12:30:00 AM -0.03 31.946 0.075 6.79 3.77 14.03
12/9/2020 12:45:00 AM -0.02 31.964 0.075 6.8 4.08 14.01
12/9/2020 1:00:00 AM -0.02 31.964 0.075 6.8 3.84 14
12/9/2020 1:15:00 AM -0.02 31.964 0.075 6.8 4.36 13.99
12/9/2020 1:30:00 AM 0 32 0.075 6.8 4.03 13.98
12/9/2020 1:45:00 AM 0 32 0.075 6.8 3.65 13.96
12/9/2020 2:00:00 AM 0.01 32.018 0.075 6.8 3.96 13.94
12/9/2020 2:15:00 AM 0.02 32.036 0.075 6.8 3.93 13.93
12/9/2020 2:30:00 AM 0.03 32.054 0.075 6.8 4.17 13.93
12/9/2020 2:45:00 AM 0.03 32.054 0.075 6.79 4.14 13.92
12/9/2020 3:00:00 AM 0.04 32.072 0.075 6.79 4.25 13.9
12/9/2020 3:15:00 AM 0.05 32.09 0.075 6.79 4.44 13.89
12/9/2020 3:30:00 AM 0.06 32.108 0.075 6.79 4.29 13.88
12/9/2020 3:45:00 AM 0.07 32.126 0.075 6.79 4.24 13.86
12/9/2020 4:00:00 AM 0.07 32.126 0.076 6.78 4.56 13.85
12/9/2020 4:15:00 AM 0.07 32.126 0.076 6.79 4.39 13.84
12/9/2020 4:30:00 AM 0.07 32.126 0.076 6.79 4.12 13.83
12/9/2020 4:45:00 AM 0.08 32.144 0.076 6.79 4.22 13.82
12/9/2020 5:00:00 AM 0.09 32.162 0.076 6.78 4.02 13.81
12/9/2020 5:15:00 AM 0.09 32.162 0.076 6.78 4.04 13.8
12/9/2020 5:30:00 AM 0.1 32.18 0.076 6.78 3.77 13.79
12/9/2020 5:45:00 AM 0.1 32.18 0.076 6.77 3.92 13.77
12/9/2020 6:00:00 AM 0.11 32.198 0.076 6.77 3.54 13.77
12/9/2020 6:15:00 AM 0.11 32.198 0.076 6.77 3.62 13.76
12/9/2020 6:30:00 AM 0.12 32.216 0.076 6.78 4.01 13.75
12/9/2020 6:45:00 AM 0.12 32.216 0.076 6.77 3.48 13.74
12/9/2020 7:00:00 AM 0.13 32.234 0.076 6.76 3.64 13.72
12/9/2020 7:15:00 AM 0.13 32.234 0.076 6.77 3.62 13.71
12/9/2020 7:30:00 AM 0.14 32.252 0.076 6.76 3.45 13.71
12/9/2020 7:45:00 AM 0.14 32.252 0.076 6.77 3.82 13.69
12/9/2020 8:00:00 AM 0.15 32.27 0.076 6.76 3.92 13.68
12/9/2020 8:15:00 AM 0.15 32.27 0.076 6.76 3.46 13.67
12/9/2020 8:30:00 AM 0.16 32.288 0.076 6.76 3.51 13.66
12/9/2020 8:45:00 AM 0.17 32.306 0.076 6.75 3.48 13.65
12/9/2020 9:00:00 AM 0.18 32.324 0.076 6.76 3.69 13.64
12/9/2020 9:15:00 AM 0.19 32.342 0.076 6.75 3.71 13.63
12/9/2020 9:30:00 AM 0.19 32.342 0.076 6.75 3.57 13.62
12/9/2020 9:45:00 AM 0.2 32.36 0.076 6.75 3.62 13.62
12/9/2020 10:00:00 AM 0.21 32.378 0.076 6.75 3.65 13.61
12/9/2020 10:15:00 AM 0.22 32.396 0.076 6.75 4.26 13.6
12/9/2020 10:30:00 AM 0.23 32.414 0.076 6.74 3.71 13.6
12/9/2020 10:45:00 AM 0.24 32.432 0.076 6.75 3.34 13.6
12/9/2020 11:00:00 AM 0.25 32.45 0.076 6.75 3.62 13.6
12/9/2020 11:15:00 AM 0.26 32.468 0.076 6.74 3.78 13.59
12/9/2020 11:30:00 AM 0.27 32.486 0.076 6.74 3.68 13.59
12/9/2020 11:45:00 AM 0.28 32.504 0.076 6.74 3.67 13.58
12/9/2020 12:00:00 PM 0.29 32.522 0.076 6.74 3.75 13.59
12/9/2020 12:15:00 PM 0.3 32.54 0.076 6.74 3.72 13.59
12/9/2020 12:30:00 PM 0.31 32.558 0.076 6.75 3.52 13.6
12/9/2020 12:45:00 PM 0.32 32.576 0.076 6.75 3.57 13.6
12/9/2020 1:00:00 PM 0.33 32.594 0.076 6.75 3.55 13.61
12/9/2020 1:15:00 PM 0.33 32.594 0.076 6.75 3.8 13.61
12/9/2020 1:30:00 PM 0.34 32.612 0.076 6.75 3.62 13.62
12/9/2020 1:45:00 PM 0.35 32.63 0.076 6.76 3.6 13.63
12/9/2020 2:00:00 PM 0.36 32.648 0.076 6.76 3.84 13.63
12/9/2020 2:15:00 PM 0.36 32.648 0.076 6.76 3.45 13.64
12/9/2020 2:30:00 PM 0.37 32.666 0.076 6.76 3.94 13.66
12/9/2020 2:45:00 PM 0.37 32.666 0.076 6.77 3.61 13.67
12/9/2020 3:00:00 PM 0.38 32.684 0.076 6.76 3.7 13.67
12/9/2020 3:15:00 PM 0.38 32.684 0.076 6.77 4.87 13.67
12/9/2020 3:30:00 PM 0.38 32.684 0.076 6.77 3.39 13.68
12/9/2020 3:45:00 PM 0.38 32.684 0.076 6.78 3.3 13.68
12/9/2020 4:00:00 PM 0.38 32.684 0.076 6.77 3.5 13.69
12/9/2020 4:15:00 PM 0.39 32.702 0.076 6.78 3.47 13.68
12/9/2020 4:30:00 PM 0.39 32.702 0.076 6.77 3.36 13.7
12/9/2020 4:45:00 PM 0.39 32.702 0.076 6.78 3.88 13.71
12/9/2020 5:00:00 PM 0.39 32.702 0.076 6.78 3.61 13.72
12/9/2020 5:15:00 PM 0.39 32.702 0.076 6.78 3.28 13.71
12/9/2020 5:30:00 PM 0.39 32.702 0.076 6.78 3.64 13.73
12/9/2020 5:45:00 PM 0.39 32.702 0.076 6.77 3.59 13.74
12/9/2020 6:00:00 PM 0.39 32.702 0.076 6.79 3.54 13.74
12/9/2020 6:15:00 PM 0.39 32.702 0.076 6.79 3.68 13.73
12/9/2020 6:30:00 PM 0.38 32.684 0.076 6.8 4.13 13.73
12/9/2020 6:45:00 PM 0.38 32.684 0.076 6.79 3.56 13.74
12/9/2020 7:00:00 PM 0.38 32.684 0.076 6.79 3.47 13.73
12/9/2020 7:15:00 PM 0.38 32.684 0.076 6.79 3.41 13.72
12/9/2020 7:30:00 PM 0.37 32.666 0.076 6.79 3.67 13.72
12/9/2020 7:45:00 PM 0.37 32.666 0.076 6.79 3.67 13.72
12/9/2020 8:00:00 PM 0.37 32.666 0.076 6.78 3.77 13.71
12/9/2020 8:15:00 PM 0.36 32.648 0.076 6.79 3.92 13.71
12/9/2020 8:30:00 PM 0.36 32.648 0.076 6.79 4.35 13.7
12/9/2020 8:45:00 PM 0.36 32.648 0.076 6.78 3.94 13.69
12/9/2020 9:00:00 PM 0.36 32.648 0.076 6.78 3.81 13.69
12/9/2020 9:15:00 PM 0.36 32.648 0.076 6.78 3.97 13.69
12/9/2020 9:30:00 PM 0.36 32.648 0.076 6.78 3.78 13.68
12/9/2020 9:45:00 PM 0.35 32.63 0.076 6.79 3.89 13.68
12/9/2020 10:00:00 PM 0.35 32.63 0.076 6.78 4.07 13.67
12/9/2020 10:15:00 PM 0.35 32.63 0.076 6.78 4.35 13.66
12/9/2020 10:30:00 PM 0.35 32.63 0.076 6.78 4.03 13.65
12/9/2020 10:45:00 PM 0.35 32.63 0.076 6.77 4.11 13.64
12/9/2020 11:00:00 PM 0.35 32.63 0.076 6.77 3.7 13.64
12/9/2020 11:15:00 PM 0.35 32.63 0.076 6.77 3.98 13.63
12/9/2020 11:30:00 PM 0.35 32.63 0.076 6.77 4.01 13.61
12/9/2020 11:45:00 PM 0.35 32.63 0.076 6.77 4.03 13.61
12/10/2020 12:00:00 AM 0.36 32.648 0.076 6.77 3.69 13.59
12/10/2020 12:15:00 AM 0.36 32.648 0.077 6.77 4.13 13.58
12/10/2020 12:30:00 AM 0.36 32.648 0.077 6.77 4.26 13.56
12/10/2020 12:45:00 AM 0.36 32.648 0.077 6.76 4.01 13.56
12/10/2020 1:00:00 AM 0.36 32.648 0.077 6.76 4.22 13.54
12/10/2020 1:15:00 AM 0.36 32.648 0.077 6.76 3.85 13.53
12/10/2020 1:30:00 AM 0.36 32.648 0.077 6.76 3.77 13.51
12/10/2020 1:45:00 AM 0.36 32.648 0.077 6.75 3.8 13.5
12/10/2020 2:00:00 AM 0.37 32.666 0.077 6.74 3.76 13.49
12/10/2020 2:15:00 AM 0.37 32.666 0.077 6.75 4.08 13.48
12/10/2020 2:30:00 AM 0.37 32.666 0.077 6.74 4.09 13.47
12/10/2020 2:45:00 AM 0.37 32.666 0.077 6.74 4.19 13.45
12/10/2020 3:00:00 AM 0.37 32.666 0.077 6.74 4.09 13.44
12/10/2020 3:15:00 AM 0.37 32.666 0.077 6.74 5.91 13.43
12/10/2020 3:30:00 AM 0.38 32.684 0.077 6.74 4.13 13.42
12/10/2020 3:45:00 AM 0.38 32.684 0.077 6.73 4.15 13.41
12/10/2020 4:00:00 AM 0.38 32.684 0.077 6.73 4.47 13.4
12/10/2020 4:15:00 AM 0.38 32.684 0.077 6.73 4.08 13.39
12/10/2020 4:30:00 AM 0.39 32.702 0.077 6.72 3.85 13.38
12/10/2020 4:45:00 AM 0.39 32.702 0.077 6.72 4.25 13.37
12/10/2020 5:00:00 AM 0.4 32.72 0.077 6.71 3.92 13.36
12/10/2020 5:15:00 AM 0.4 32.72 0.077 6.72 3.73 13.36
12/10/2020 5:30:00 AM 0.4 32.72 0.077 6.72 3.95 13.36
12/10/2020 5:45:00 AM 0.41 32.738 0.077 6.72 4.24 13.35
12/10/2020 6:00:00 AM 0.41 32.738 0.077 6.71 4.14 13.35
12/10/2020 6:15:00 AM 0.41 32.738 0.077 6.72 3.95 13.35
12/10/2020 6:30:00 AM 0.42 32.756 0.077 6.71 3.89 13.34
12/10/2020 6:45:00 AM 0.42 32.756 0.077 6.71 3.91 13.33
12/10/2020 7:00:00 AM 0.42 32.756 0.077 6.71 4.05 13.32
12/10/2020 7:15:00 AM 0.43 32.774 0.077 6.71 4.09 13.31
12/10/2020 7:30:00 AM 0.43 32.774 0.077 6.68 4.12 13.3
12/10/2020 7:45:00 AM 0.43 32.774 0.077 6.68 4.06 13.3
12/10/2020 8:00:00 AM 0.44 32.792 0.077 6.67 4.05 13.29
12/10/2020 8:15:00 AM 0.44 32.792 0.077 6.67 4.06 13.29
12/10/2020 8:30:00 AM 0.45 32.81 0.077 6.67 4.1 13.29
12/10/2020 8:45:00 AM 0.46 32.828 0.076 6.67 4.07 13.3
12/10/2020 9:00:00 AM 0.46 32.828 0.076 6.67 4.03 13.3
12/10/2020 9:15:00 AM 0.47 32.846 0.076 6.67 4.05 13.31
12/10/2020 9:30:00 AM 0.49 32.882 0.076 6.67 3.86 13.3
12/10/2020 9:45:00 AM 0.5 32.9 0.076 6.67 4.33 13.3
12/10/2020 10:00:00 AM 0.51 32.918 0.076 6.67 3.89 13.31
12/10/2020 10:15:00 AM 0.53 32.954 0.076 6.67 4.08 13.32
12/10/2020 10:30:00 AM 0.56 33.008 0.076 6.66 3.76 13.33
12/10/2020 10:45:00 AM 0.58 33.044 0.076 6.67 3.88 13.33
12/10/2020 11:00:00 AM 0.6 33.08 0.076 6.67 4.19 13.34
12/10/2020 11:15:00 AM 0.63 33.134 0.076 6.67 3.98 13.35
12/10/2020 11:30:00 AM 0.66 33.188 0.076 6.67 3.75 13.36
12/10/2020 11:45:00 AM 0.68 33.224 0.076 6.67 4.1 13.37
12/10/2020 12:00:00 PM 0.71 33.278 0.076 6.68 3.81 13.39
12/10/2020 12:15:00 PM 0.73 33.314 0.076 6.67 3.75 13.41
12/10/2020 12:30:00 PM 0.76 33.368 0.076 6.67 4.01 13.42
12/10/2020 12:45:00 PM 0.78 33.404 0.076 6.67 3.87 13.44
12/10/2020 1:00:00 PM 0.81 33.458 0.076 6.67 4.02 13.44
12/10/2020 1:15:00 PM 0.84 33.512 0.076 6.68 4.01 13.46
12/10/2020 1:30:00 PM 0.88 33.584 0.076 6.69 4.17 13.46
12/10/2020 1:45:00 PM 0.9 33.62 0.076 6.67 4.19 13.47
12/10/2020 2:00:00 PM 0.94 33.692 0.076 6.69 4.18 13.5
12/10/2020 2:15:00 PM 0.97 33.746 0.076 6.7 4.55 13.52
12/10/2020 2:30:00 PM 1 33.8 0.076 6.69 4.73 13.53
12/10/2020 2:45:00 PM 1.02 33.836 0.076 6.69 4.33 13.55
12/10/2020 3:00:00 PM 1.03 33.854 0.076 6.7 4.13 13.56
12/10/2020 3:15:00 PM 1.06 33.908 0.076 6.72 4.57 13.57
12/10/2020 3:30:00 PM 1.08 33.944 0.076 6.72 4.39 13.59
12/10/2020 3:45:00 PM 1.11 33.998 0.076 6.72 4.29 13.61
12/10/2020 4:00:00 PM 1.12 34.016 0.076 6.72 3.82 13.63
12/10/2020 4:15:00 PM 1.13 34.034 0.076 6.71 3.99 13.64
12/10/2020 4:30:00 PM 1.14 34.052 0.076 6.72 3.66 13.65
12/10/2020 4:45:00 PM 1.15 34.07 0.076 6.72 3.79 13.67
12/10/2020 5:00:00 PM 1.16 34.088 0.076 6.71 4.29 13.68
12/10/2020 5:15:00 PM 1.16 34.088 0.076 6.71 3.81 13.68
12/10/2020 5:30:00 PM 1.16 34.088 0.076 6.71 3.51 13.7
12/10/2020 5:45:00 PM 1.17 34.106 0.076 6.71 3.73 13.73
12/10/2020 6:00:00 PM 1.17 34.106 0.076 6.72 3.52 13.75
12/10/2020 6:15:00 PM 1.17 34.106 0.076 6.72 3.64 13.76
12/10/2020 6:30:00 PM 1.17 34.106 0.076 6.72 3.73 13.78
12/10/2020 6:45:00 PM 1.16 34.088 0.076 6.72 3.67 13.78
12/10/2020 7:00:00 PM 1.15 34.07 0.076 6.72 3.75 13.76
12/10/2020 7:15:00 PM 1.14 34.052 0.076 6.72 3.59 13.76
12/10/2020 7:30:00 PM 1.12 34.016 0.076 6.73 3.68 13.75
12/10/2020 7:45:00 PM 1.11 33.998 0.076 6.73 3.6 13.76
12/10/2020 8:00:00 PM 1.09 33.962 0.076 6.73 3.53 13.74
12/10/2020 8:15:00 PM 1.07 33.926 0.076 6.73 3.69 13.75
12/10/2020 8:30:00 PM 1.06 33.908 0.076 6.72 3.8 13.76
12/10/2020 8:45:00 PM 1.04 33.872 0.076 6.73 3.71 13.75
12/10/2020 9:00:00 PM 1.03 33.854 0.076 6.72 3.44 13.75
12/10/2020 9:15:00 PM 1 33.8 0.076 6.72 3.42 13.74
12/10/2020 9:30:00 PM 0.99 33.782 0.076 6.72 3.57 13.77
12/10/2020 9:45:00 PM 0.98 33.764 0.076 6.72 3.46 13.77
12/10/2020 10:00:00 PM 0.96 33.728 0.076 6.72 3.65 13.75
12/10/2020 10:15:00 PM 0.93 33.674 0.076 6.73 3.57 13.74
12/10/2020 10:30:00 PM 0.92 33.656 0.076 6.72 3.71 13.74
12/10/2020 10:45:00 PM 0.91 33.638 0.076 6.72 3.71 13.75
12/10/2020 11:00:00 PM 0.9 33.62 0.076 6.72 4.16 13.75
12/10/2020 11:15:00 PM 0.89 33.602 0.076 6.74 3.98 13.75
12/10/2020 11:30:00 PM 0.87 33.566 0.076 6.72 3.76 13.74
12/10/2020 11:45:00 PM 0.86 33.548 0.076 6.72 3.63 13.72
12/11/2020 12:00:00 AM 0.84 33.512 0.076 6.71 4.09 13.69
12/11/2020 12:15:00 AM 0.82 33.476 0.076 6.71 3.79 13.67
12/11/2020 12:30:00 AM 0.8 33.44 0.076 6.71 3.72 13.66
12/11/2020 12:45:00 AM 0.78 33.404 0.076 6.71 3.92 13.65
12/11/2020 1:00:00 AM 0.76 33.368 0.076 6.7 4.17 13.63
12/11/2020 1:15:00 AM 0.75 33.35 0.076 6.7 3.79 13.64
12/11/2020 1:30:00 AM 0.73 33.314 0.076 6.7 4.09 13.62
12/11/2020 1:45:00 AM 0.71 33.278 0.076 6.7 4.34 13.6
12/11/2020 2:00:00 AM 0.69 33.242 0.076 6.69 4.19 13.56
12/11/2020 2:15:00 AM 0.68 33.224 0.076 6.69 4.06 13.55
12/11/2020 2:30:00 AM 0.66 33.188 0.076 6.7 4.1 13.55
12/11/2020 2:45:00 AM 0.64 33.152 0.076 6.69 4.58 13.53
12/11/2020 3:00:00 AM 0.63 33.134 0.076 6.69 4.57 13.51
12/11/2020 3:15:00 AM 0.62 33.116 0.076 6.68 4.36 13.51
12/11/2020 3:30:00 AM 0.6 33.08 0.076 6.68 4.29 13.49
12/11/2020 3:45:00 AM 0.59 33.062 0.076 6.68 5.01 13.48
12/11/2020 4:00:00 AM 0.57 33.026 0.076 6.67 4.28 13.48
12/11/2020 4:15:00 AM 0.56 33.008 0.076 6.67 4.56 13.45
12/11/2020 4:30:00 AM 0.54 32.972 0.076 6.66 4.61 13.43
12/11/2020 4:45:00 AM 0.53 32.954 0.076 6.67 4.5 13.42
12/11/2020 5:00:00 AM 0.52 32.936 0.077 6.66 4.67 13.4
12/11/2020 5:15:00 AM 0.51 32.918 0.077 6.66 4.61 13.39
12/11/2020 5:30:00 AM 0.5 32.9 0.077 6.66 4.54 13.38
12/11/2020 5:45:00 AM 0.49 32.882 0.077 6.65 5.09 13.33
12/11/2020 6:00:00 AM 0.48 32.864 0.077 6.64 4.61 13.33
12/11/2020 6:15:00 AM 0.47 32.846 0.077 6.66 4.59 13.32
12/11/2020 6:30:00 AM 0.46 32.828 0.077 6.65 4.5 13.33
12/11/2020 6:45:00 AM 0.45 32.81 0.077 6.65 5.07 13.29
12/11/2020 7:00:00 AM 0.44 32.792 0.077 6.64 4.48 13.31
12/11/2020 7:15:00 AM 0.43 32.774 0.077 6.64 4.22 13.28
12/11/2020 7:30:00 AM 0.43 32.774 0.077 6.63 4.06 13.27
12/11/2020 7:45:00 AM 0.43 32.774 0.077 6.63 4.27 13.27
12/11/2020 8:00:00 AM 0.42 32.756 0.077 6.63 4.18 13.27
12/11/2020 8:15:00 AM 0.41 32.738 0.077 6.63 4.31 13.27
12/11/2020 8:30:00 AM 0.41 32.738 0.077 6.63 4.23 13.26
12/11/2020 8:45:00 AM 0.41 32.738 0.077 6.63 3.96 13.25
12/11/2020 9:00:00 AM 0.41 32.738 0.077 6.63 5.95 13.27
12/11/2020 9:15:00 AM 0.43 32.774 0.077 6.62 4.5 13.27
12/11/2020 9:30:00 AM 0.45 32.81 0.077 6.63 4.13 13.27
12/11/2020 9:45:00 AM 0.47 32.846 0.076 6.63 4.03 13.28
12/11/2020 10:00:00 AM 0.5 32.9 0.076 6.63 4.19 13.27
12/11/2020 10:15:00 AM 0.52 32.936 0.076 6.62 4.06 13.28
12/11/2020 10:30:00 AM 0.54 32.972 0.076 6.63 4.1 13.3
12/11/2020 10:45:00 AM 0.57 33.026 0.076 6.63 3.96 13.3
12/11/2020 11:00:00 AM 0.6 33.08 0.076 6.63 4.17 13.31
12/11/2020 11:15:00 AM 0.64 33.152 0.076 6.64 3.9 13.33
12/11/2020 11:30:00 AM 0.67 33.206 0.076 6.63 3.64 13.35
12/11/2020 11:45:00 AM 0.71 33.278 0.076 6.63 3.71 13.37
12/11/2020 12:00:00 PM 0.73 33.314 0.076 6.64 3.71 13.37
12/11/2020 12:15:00 PM 0.76 33.368 0.076 6.64 3.76 13.4
12/11/2020 12:30:00 PM 0.8 33.44 0.076 6.64 3.71 13.42
12/11/2020 12:45:00 PM 0.82 33.476 0.076 6.64 3.91 13.42
12/11/2020 1:00:00 PM 0.85 33.53 0.076 6.64 3.93 13.44
12/11/2020 1:15:00 PM 0.88 33.584 0.076 6.64 3.85 13.43
12/11/2020 1:30:00 PM 0.91 33.638 0.076 6.64 4.35 13.46
12/11/2020 1:45:00 PM 0.95 33.71 0.076 6.64 3.74 13.48
12/11/2020 2:00:00 PM 0.99 33.782 0.076 6.65 3.65 13.5
12/11/2020 2:15:00 PM 1.02 33.836 0.076 6.64 3.75 13.49
12/11/2020 2:30:00 PM 1.06 33.908 0.076 6.64 3.76 13.51
12/11/2020 2:45:00 PM 1.1 33.98 0.076 6.65 3.86 13.53
12/11/2020 3:00:00 PM 1.14 34.052 0.076 6.65 3.91 13.52
12/11/2020 3:15:00 PM 1.18 34.124 0.076 6.66 4.25 13.53
12/11/2020 3:30:00 PM 1.23 34.214 0.076 6.64 4.02 13.55
12/11/2020 3:45:00 PM 1.27 34.286 0.075 6.65 4.33 13.55
12/11/2020 4:00:00 PM 1.31 34.358 0.075 6.66 4.38 13.57
12/11/2020 4:15:00 PM 1.35 34.43 0.075 6.67 4.19 13.59
12/11/2020 4:30:00 PM 1.38 34.484 0.075 6.65 4.65 13.6
12/11/2020 4:45:00 PM 1.41 34.538 0.075 6.66 4.61 13.61
12/11/2020 5:00:00 PM 1.42 34.556 0.075 6.65 4.37 13.63
12/11/2020 5:15:00 PM 1.45 34.61 0.075 6.66 4.7 13.64
12/11/2020 5:30:00 PM 1.47 34.646 0.075 6.67 4.28 13.66
12/11/2020 5:45:00 PM 1.49 34.682 0.075 6.67 4.43 13.67
12/11/2020 6:00:00 PM 1.5 34.7 0.075 6.67 4.38 13.68
12/11/2020 6:15:00 PM 1.5 34.7 0.075 6.66 4.42 13.68
12/11/2020 6:30:00 PM 1.5 34.7 0.075 6.68 4.68 13.7
12/11/2020 6:45:00 PM 1.5 34.7 0.075 6.68 4.52 13.7
12/11/2020 7:00:00 PM 1.5 34.7 0.075 6.68 4.41 13.69
12/11/2020 7:15:00 PM 1.49 34.682 0.075 6.67 4.12 13.71
12/11/2020 7:30:00 PM 1.49 34.682 0.075 6.68 4.3 13.72
12/11/2020 7:45:00 PM 1.47 34.646 0.075 6.68 4.25 13.73
12/11/2020 8:00:00 PM 1.46 34.628 0.075 6.69 4.24 13.72
12/11/2020 8:15:00 PM 1.46 34.628 0.075 6.69 4.01 13.73
12/11/2020 8:30:00 PM 1.45 34.61 0.075 6.68 4.25 13.73
12/11/2020 8:45:00 PM 1.45 34.61 0.075 6.69 3.97 13.73
12/11/2020 9:00:00 PM 1.45 34.61 0.075 6.69 3.88 13.72
12/11/2020 9:15:00 PM 1.44 34.592 0.075 6.7 3.86 13.73
12/11/2020 9:30:00 PM 1.44 34.592 0.075 6.69 4.28 13.72
12/11/2020 9:45:00 PM 1.44 34.592 0.075 6.69 3.77 13.7
12/11/2020 10:00:00 PM 1.44 34.592 0.075 6.69 4.18 13.7
12/11/2020 10:15:00 PM 1.43 34.574 0.075 6.69 3.99 13.67
12/11/2020 10:30:00 PM 1.42 34.556 0.075 6.68 4.16 13.7
12/11/2020 10:45:00 PM 1.42 34.556 0.075 6.69 4.47 13.7
12/11/2020 11:00:00 PM 1.41 34.538 0.075 6.7 4.19 13.69
12/11/2020 11:15:00 PM 1.41 34.538 0.075 6.69 4.2 13.66
12/11/2020 11:30:00 PM 1.41 34.538 0.075 6.67 4.32 13.67
12/11/2020 11:45:00 PM 1.4 34.52 0.075 6.67 4.3 13.65
12/12/2020 12:00:00 AM 1.4 34.52 0.075 6.68 3.89 13.65
12/12/2020 12:15:00 AM 1.39 34.502 0.075 6.67 4.68 13.63
12/12/2020 12:30:00 AM 1.38 34.484 0.075 6.67 4.89 13.62
12/12/2020 12:45:00 AM 1.37 34.466 0.075 6.67 4.23 13.59
12/12/2020 1:00:00 AM 1.36 34.448 0.075 6.66 4.22 13.59
12/12/2020 1:15:00 AM 1.35 34.43 0.075 6.66 4.04 13.58
12/12/2020 1:30:00 AM 1.34 34.412 0.075 6.66 4.35 13.56
12/12/2020 1:45:00 AM 1.32 34.376 0.075 6.67 4.41 13.54
12/12/2020 2:00:00 AM 1.31 34.358 0.075 6.67 4.16 13.52
12/12/2020 2:15:00 AM 1.29 34.322 0.075 6.66 4.25 13.51
12/12/2020 2:30:00 AM 1.27 34.286 0.075 6.65 4.24 13.49
12/12/2020 2:45:00 AM 1.26 34.268 0.075 6.65 4.33 13.47
12/12/2020 3:00:00 AM 1.25 34.25 0.075 6.65 4.4 13.45
12/12/2020 3:15:00 AM 1.24 34.232 0.075 6.65 4.25 13.44
12/12/2020 3:30:00 AM 1.23 34.214 0.075 6.65 4.41 13.41
12/12/2020 3:45:00 AM 1.21 34.178 0.075 6.65 4.31 13.4
12/12/2020 4:00:00 AM 1.2 34.16 0.075 6.64 4.23 13.37
12/12/2020 4:15:00 AM 1.19 34.142 0.075 6.64 4.23 13.36
12/12/2020 4:30:00 AM 1.17 34.106 0.075 6.64 4.21 13.35
12/12/2020 4:45:00 AM 1.16 34.088 0.075 6.63 4.28 13.34
12/12/2020 5:00:00 AM 1.15 34.07 0.075 6.64 4.44 13.32
12/12/2020 5:15:00 AM 1.13 34.034 0.076 6.63 4.44 13.31
12/12/2020 5:30:00 AM 1.12 34.016 0.076 6.63 4.22 13.29
12/12/2020 5:45:00 AM 1.11 33.998 0.076 6.62 4.32 13.27
12/12/2020 6:00:00 AM 1.09 33.962 0.076 6.62 4.59 13.25
12/12/2020 6:15:00 AM 1.09 33.962 0.076 6.62 4.31 13.24
12/12/2020 6:30:00 AM 1.08 33.944 0.076 6.62 4.67 13.23
12/12/2020 6:45:00 AM 1.07 33.926 0.076 6.61 4.1 13.22
12/12/2020 7:00:00 AM 1.06 33.908 0.076 6.61 4.36 13.21
12/12/2020 7:15:00 AM 1.05 33.89 0.076 6.61 4.22 13.2
12/12/2020 7:30:00 AM 1.05 33.89 0.076 6.61 4.3 13.18
12/12/2020 7:45:00 AM 1.03 33.854 0.076 6.6 3.94 13.18
12/12/2020 8:00:00 AM 1.02 33.836 0.076 6.6 4.18 13.17
12/12/2020 8:15:00 AM 1.02 33.836 0.076 6.61 4.13 13.16
12/12/2020 8:30:00 AM 1.01 33.818 0.076 6.6 4.27 13.16
12/12/2020 8:45:00 AM 1.01 33.818 0.076 6.6 4.15 13.16
12/12/2020 9:00:00 AM 1.02 33.836 0.076 6.6 5.31 13.15
12/12/2020 9:15:00 AM 1.02 33.836 0.076 6.6 4.67 13.15
12/12/2020 9:30:00 AM 1.03 33.854 0.076 6.6 4.05 13.15
12/12/2020 9:45:00 AM 1.03 33.854 0.076 6.6 4.18 13.15
12/12/2020 10:00:00 AM 1.04 33.872 0.076 6.59 4.17 13.15
12/12/2020 10:15:00 AM 1.06 33.908 0.076 6.6 4.22 13.15
12/12/2020 10:30:00 AM 1.08 33.944 0.076 6.61 3.98 13.16
12/12/2020 10:45:00 AM 1.09 33.962 0.076 6.6 4.22 13.17
12/12/2020 11:00:00 AM 1.12 34.016 0.076 6.6 4.11 13.18
12/12/2020 11:15:00 AM 1.15 34.07 0.076 6.6 3.92 13.18
12/12/2020 11:30:00 AM 1.18 34.124 0.076 6.61 3.91 13.19
12/12/2020 11:45:00 AM 1.2 34.16 0.076 6.61 4.95 13.19
12/12/2020 12:00:00 PM 1.23 34.214 0.076 6.6 3.77 13.2
12/12/2020 12:15:00 PM 1.26 34.268 0.076 6.61 4.04 13.2
12/12/2020 12:30:00 PM 1.29 34.322 0.076 6.61 3.97 13.2
12/12/2020 12:45:00 PM 1.34 34.412 0.076 6.61 4.05 13.22
12/12/2020 1:00:00 PM 1.37 34.466 0.076 6.61 3.92 13.23
12/12/2020 1:15:00 PM 1.41 34.538 0.076 6.61 3.82 13.25
12/12/2020 1:30:00 PM 1.44 34.592 0.076 6.61 4.06 13.27
12/12/2020 1:45:00 PM 1.47 34.646 0.076 6.62 3.72 13.28
12/12/2020 2:00:00 PM 1.51 34.718 0.076 6.62 3.68 13.29
12/12/2020 2:15:00 PM 1.56 34.808 0.076 6.64 4.48 13.32
12/12/2020 2:30:00 PM 1.61 34.898 0.076 6.63 3.67 13.34
12/12/2020 2:45:00 PM 1.64 34.952 0.076 6.63 3.7 13.36
12/12/2020 3:00:00 PM 1.68 35.024 0.076 6.64 3.62 13.38
12/12/2020 3:15:00 PM 1.72 35.096 0.076 6.66 3.68 13.4
12/12/2020 3:30:00 PM 1.74 35.132 0.076 6.64 3.7 13.39
12/12/2020 3:45:00 PM 1.79 35.222 0.076 6.65 3.67 13.39
12/12/2020 4:00:00 PM 1.81 35.258 0.076 6.65 3.58 13.4
12/12/2020 4:15:00 PM 1.83 35.294 0.076 6.65 3.76 13.4
12/12/2020 4:30:00 PM 1.86 35.348 0.076 6.64 3.59 13.42
12/12/2020 4:45:00 PM 1.88 35.384 0.076 6.63 3.49 13.43
12/12/2020 5:00:00 PM 1.91 35.438 0.076 6.65 3.55 13.45
12/12/2020 5:15:00 PM 1.93 35.474 0.076 6.66 3.4 13.47
12/12/2020 5:30:00 PM 1.95 35.51 0.076 6.65 3.42 13.47
12/12/2020 5:45:00 PM 1.97 35.546 0.076 6.65 3.65 13.49
12/12/2020 6:00:00 PM 1.98 35.564 0.076 6.66 3.46 13.5
12/12/2020 6:15:00 PM 2 35.6 0.076 6.65 3.69 13.52
12/12/2020 6:30:00 PM 2.03 35.654 0.076 6.68 3.71 13.55
12/12/2020 6:45:00 PM 2.03 35.654 0.076 6.66 3.5 13.55
12/12/2020 7:00:00 PM 2.05 35.69 0.076 6.66 3.6 13.56
12/12/2020 7:15:00 PM 2.06 35.708 0.076 6.69 3.37 13.57
12/12/2020 7:30:00 PM 2.07 35.726 0.076 6.68 3.59 13.57
12/12/2020 7:45:00 PM 2.08 35.744 0.076 6.69 3.34 13.59
12/12/2020 8:00:00 PM 2.09 35.762 0.076 6.67 3.25 13.59
12/12/2020 8:15:00 PM 2.09 35.762 0.076 6.68 3.35 13.6
12/12/2020 8:30:00 PM 2.1 35.78 0.076 6.68 3.27 13.6
12/12/2020 8:45:00 PM 2.1 35.78 0.076 6.69 3.35 13.6
12/12/2020 9:00:00 PM 2.11 35.798 0.076 6.68 3.64 13.59
12/12/2020 9:15:00 PM 2.11 35.798 0.076 6.67 3.24 13.59
12/12/2020 9:30:00 PM 2.12 35.816 0.076 6.68 3.55 13.59
12/12/2020 9:45:00 PM 2.13 35.834 0.076 6.68 3.31 13.58
12/12/2020 10:00:00 PM 2.14 35.852 0.076 6.67 3.26 13.59
12/12/2020 10:15:00 PM 2.14 35.852 0.076 6.67 3.3 13.58
12/12/2020 10:30:00 PM 2.15 35.87 0.076 6.68 3.79 13.57
12/12/2020 10:45:00 PM 2.16 35.888 0.076 6.67 3.49 13.56
12/12/2020 11:00:00 PM 2.17 35.906 0.076 6.68 3.44 13.54
12/12/2020 11:15:00 PM 2.17 35.906 0.076 6.67 3.96 13.54
12/12/2020 11:30:00 PM 2.18 35.924 0.076 6.68 3.65 13.52
12/12/2020 11:45:00 PM 2.18 35.924 0.076 6.66 3.78 13.51
12/13/2020 12:00:00 AM 2.19 35.942 0.076 6.67 3.62 13.49
12/13/2020 12:15:00 AM 2.19 35.942 0.076 6.67 4.33 13.48
12/13/2020 12:30:00 AM 2.2 35.96 0.076 6.67 3.55 13.46
12/13/2020 12:45:00 AM 2.2 35.96 0.076 6.66 3.51 13.44
12/13/2020 1:00:00 AM 2.21 35.978 0.076 6.66 3.41 13.42
12/13/2020 1:15:00 AM 2.21 35.978 0.076 6.66 3.6 13.41
12/13/2020 1:30:00 AM 2.22 35.996 0.076 6.65 3.6 13.38
12/13/2020 1:45:00 AM 2.22 35.996 0.076 6.65 3.53 13.36
12/13/2020 2:00:00 AM 2.22 35.996 0.076 6.64 3.59 13.34
12/13/2020 2:15:00 AM 2.22 35.996 0.076 6.64 3.66 13.32
12/13/2020 2:30:00 AM 2.23 36.014 0.076 6.64 3.44 13.3
12/13/2020 2:45:00 AM 2.23 36.014 0.076 6.65 3.55 13.28
12/13/2020 3:00:00 AM 2.22 35.996 0.076 6.64 3.79 13.26
12/13/2020 3:15:00 AM 2.22 35.996 0.076 6.63 3.77 13.23
12/13/2020 3:30:00 AM 2.21 35.978 0.076 6.64 4.06 13.22
12/13/2020 3:45:00 AM 2.2 35.96 0.076 6.63 4.24 13.2
12/13/2020 4:00:00 AM 2.19 35.942 0.076 6.63 3.64 13.19
12/13/2020 4:15:00 AM 2.19 35.942 0.076 6.64 3.73 13.17
12/13/2020 4:30:00 AM 2.18 35.924 0.076 6.63 3.78 13.14
12/13/2020 4:45:00 AM 2.17 35.906 0.076 6.63 3.64 13.12
12/13/2020 5:00:00 AM 2.15 35.87 0.076 6.62 3.91 13.11
12/13/2020 5:15:00 AM 2.14 35.852 0.076 6.62 3.48 13.09
12/13/2020 5:30:00 AM 2.13 35.834 0.076 6.61 3.75 13.07
12/13/2020 5:45:00 AM 2.11 35.798 0.076 6.62 3.7 13.06
12/13/2020 6:00:00 AM 2.1 35.78 0.076 6.62 3.9 13.04
12/13/2020 6:15:00 AM 2.09 35.762 0.076 6.61 3.35 13.04
12/13/2020 6:30:00 AM 2.08 35.744 0.076 6.62 4.71 13.02
12/13/2020 6:45:00 AM 2.07 35.726 0.076 6.61 3.78 13.01
12/13/2020 7:00:00 AM 2.06 35.708 0.077 6.61 3.56 13
12/13/2020 7:15:00 AM 2.05 35.69 0.077 6.61 3.52 12.99
12/13/2020 7:30:00 AM 2.04 35.672 0.077 6.61 3.91 12.98
12/13/2020 7:45:00 AM 2.03 35.654 0.077 6.6 4.69 12.97
12/13/2020 8:00:00 AM 2.03 35.654 0.077 6.61 3.59 12.96
12/13/2020 8:15:00 AM 2.03 35.654 0.077 6.6 3.43 12.95
12/13/2020 8:30:00 AM 2.03 35.654 0.077 6.6 3.39 12.94
12/13/2020 8:45:00 AM 2.03 35.654 0.077 6.59 3.51 12.92
12/13/2020 9:00:00 AM 2.03 35.654 0.077 6.6 3.86 12.93
12/13/2020 9:15:00 AM 2.05 35.69 0.077 6.6 3.38 12.92
12/13/2020 9:30:00 AM 2.08 35.744 0.077 6.61 3.49 12.93
12/13/2020 9:45:00 AM 2.1 35.78 0.077 6.61 3.49 12.93
12/13/2020 10:00:00 AM 2.12 35.816 0.077 6.62 3.4 12.95
12/13/2020 10:15:00 AM 2.13 35.834 0.077 6.61 3.99 12.96
12/13/2020 10:30:00 AM 2.14 35.852 0.077 6.62 3.47 12.97
12/13/2020 10:45:00 AM 2.15 35.87 0.077 6.61 3.53 12.98
12/13/2020 11:00:00 AM 2.17 35.906 0.077 6.63 3.25 12.99
12/13/2020 11:15:00 AM 2.2 35.96 0.077 6.62 3.76 13
12/13/2020 11:30:00 AM 2.23 36.014 0.077 6.63 3.62 13.01
12/13/2020 11:45:00 AM 2.26 36.068 0.077 6.62 3.55 13.02
12/13/2020 12:00:00 PM 2.3 36.14 0.077 6.64 3.82 13.04
12/13/2020 12:15:00 PM 2.34 36.212 0.077 6.64 3.4 13.05
12/13/2020 12:30:00 PM 2.38 36.284 0.077 6.65 3.69 13.08
12/13/2020 12:45:00 PM 2.42 36.356 0.077 6.65 3.48 13.1
12/13/2020 1:00:00 PM 2.45 36.41 0.077 6.65 3.53 13.12
12/13/2020 1:15:00 PM 2.48 36.464 0.077 6.67 3.79 13.13
12/13/2020 1:30:00 PM 2.52 36.536 0.077 6.68 3.83 13.15
12/13/2020 1:45:00 PM 2.56 36.608 0.077 6.68 3.76 13.16
12/13/2020 2:00:00 PM 2.59 36.662 0.077 6.69 3.48 13.19
12/13/2020 2:15:00 PM 2.63 36.734 0.077 6.68 4.13 13.21
12/13/2020 2:30:00 PM 2.65 36.77 0.077 6.7 3.38 13.23
12/13/2020 2:45:00 PM 2.68 36.824 0.077 6.7 3.73 13.24
12/13/2020 3:00:00 PM 2.69 36.842 0.077 6.71 3.55 13.26
12/13/2020 3:15:00 PM 2.71 36.878 0.077 6.68 3.47 13.27
12/13/2020 3:30:00 PM 2.74 36.932 0.077 6.7 3.39 13.28
12/13/2020 3:45:00 PM 2.77 36.986 0.077 6.68 3.39 13.3
12/13/2020 4:00:00 PM 2.77 36.986 0.077 6.72 3.85 13.32
12/13/2020 4:15:00 PM 2.78 37.004 0.077 6.71 3.51 13.33
12/13/2020 4:30:00 PM 2.79 37.022 0.077 6.73 3.58 13.35
12/13/2020 4:45:00 PM 2.8 37.04 0.077 6.72 3.32 13.36
12/13/2020 5:00:00 PM 2.8 37.04 0.077 6.73 3.49 13.37
12/13/2020 5:15:00 PM 2.81 37.058 0.077 6.71 3.31 13.4
12/13/2020 5:30:00 PM 2.81 37.058 0.077 6.73 3.26 13.4
12/13/2020 5:45:00 PM 2.81 37.058 0.077 6.73 3.33 13.42
12/13/2020 6:00:00 PM 2.81 37.058 0.077 6.72 3.63 13.42
12/13/2020 6:15:00 PM 2.8 37.04 0.077 6.73 3.34 13.43
12/13/2020 6:30:00 PM 2.79 37.022 0.077 6.74 3.42 13.44
12/13/2020 6:45:00 PM 2.78 37.004 0.077 6.73 3.65 13.45
12/13/2020 7:00:00 PM 2.77 36.986 0.077 6.73 3.49 13.46
12/13/2020 7:15:00 PM 2.77 36.986 0.077 6.74 3.49 13.46
12/13/2020 7:30:00 PM 2.75 36.95 0.077 6.73 3.63 13.46
12/13/2020 7:45:00 PM 2.74 36.932 0.078 6.72 3.12 13.47
12/13/2020 8:00:00 PM 2.74 36.932 0.078 6.74 3.22 13.47
12/13/2020 8:15:00 PM 2.73 36.914 0.078 6.75 3.49 13.48
12/13/2020 8:30:00 PM 2.72 36.896 0.078 6.75 4.73 13.48
12/13/2020 8:45:00 PM 2.71 36.878 0.078 6.74 3.63 13.47
12/13/2020 9:00:00 PM 2.71 36.878 0.078 6.74 3.38 13.47
12/13/2020 9:15:00 PM 2.69 36.842 0.078 6.74 3.32 13.46
12/13/2020 9:30:00 PM 2.68 36.824 0.078 6.75 3.37 13.45
12/13/2020 9:45:00 PM 2.66 36.788 0.078 6.71 3.73 13.45
12/13/2020 10:00:00 PM 2.64 36.752 0.078 6.73 3.26 13.44
12/13/2020 10:15:00 PM 2.62 36.716 0.078 6.74 3.55 13.43
12/13/2020 10:30:00 PM 2.59 36.662 0.078 6.74 3.28 13.42
12/13/2020 10:45:00 PM 2.57 36.626 0.078 6.73 3.47 13.42
12/13/2020 11:00:00 PM 2.56 36.608 0.078 6.73 3.56 13.4
12/13/2020 11:15:00 PM 2.54 36.572 0.078 6.72 3.59 13.38
12/13/2020 11:30:00 PM 2.52 36.536 0.078 6.73 3.34 13.37
12/13/2020 11:45:00 PM 2.49 36.482 0.078 6.72 3.34 13.35
12/14/2020 12:00:00 AM 2.46 36.428 0.078 6.72 3.51 13.34
12/14/2020 12:15:00 AM 2.44 36.392 0.078 6.71 4.47 13.32
12/14/2020 12:30:00 AM 2.41 36.338 0.078 6.72 3.95 13.3
12/14/2020 12:45:00 AM 2.4 36.32 0.078 6.72 3.59 13.28
12/14/2020 1:00:00 AM 2.39 36.302 0.078 6.7 3.43 13.27
12/14/2020 1:15:00 AM 2.36 36.248 0.078 6.71 3.28 13.24
12/14/2020 1:30:00 AM 2.35 36.23 0.078 6.69 4.27 13.22
12/14/2020 1:45:00 AM 2.33 36.194 0.078 6.7 3.61 13.21
12/14/2020 2:00:00 AM 2.31 36.158 0.078 6.7 3.31 13.19
12/14/2020 2:15:00 AM 2.29 36.122 0.078 6.7 3.62 13.17
12/14/2020 2:30:00 AM 2.27 36.086 0.078 6.7 3.77 13.15
12/14/2020 2:45:00 AM 2.25 36.05 0.078 6.7 3.8 13.12
12/14/2020 3:00:00 AM 2.24 36.032 0.078 6.69 3.53 13.1
12/14/2020 3:15:00 AM 2.23 36.014 0.078 6.68 3.53 13.09
12/14/2020 3:30:00 AM 2.21 35.978 0.078 6.68 3.75 13.08
12/14/2020 3:45:00 AM 2.2 35.96 0.078 6.67 3.67 13.06
12/14/2020 4:00:00 AM 2.18 35.924 0.078 6.67 3.62 13.05
12/14/2020 4:15:00 AM 2.17 35.906 0.078 6.67 3.95 13.03
12/14/2020 4:30:00 AM 2.16 35.888 0.078 6.68 3.75 13.02
12/14/2020 4:45:00 AM 2.15 35.87 0.078 6.67 3.49 13.01
12/14/2020 5:00:00 AM 2.14 35.852 0.078 6.67 3.65 13.01
12/14/2020 5:15:00 AM 2.13 35.834 0.078 6.67 3.54 12.99
12/14/2020 5:30:00 AM 2.12 35.816 0.078 6.67 4.03 12.98
12/14/2020 5:45:00 AM 2.11 35.798 0.078 6.66 3.66 12.97
12/14/2020 6:00:00 AM 2.1 35.78 0.078 6.67 4.29 12.95
12/14/2020 6:15:00 AM 2.09 35.762 0.078 6.66 3.69 12.94
12/14/2020 6:30:00 AM 2.09 35.762 0.078 6.66 3.91 12.93
12/14/2020 6:45:00 AM 2.08 35.744 0.078 6.65 3.66 12.92
12/14/2020 7:00:00 AM 2.07 35.726 0.078 6.65 4.17 12.91
12/14/2020 7:15:00 AM 2.06 35.708 0.078 6.65 3.8 12.89
12/14/2020 7:30:00 AM 2.05 35.69 0.078 6.65 3.7 12.88
12/14/2020 7:45:00 AM 2.03 35.654 0.078 6.65 4.09 12.88
12/14/2020 8:00:00 AM 2.03 35.654 0.079 6.64 3.85 12.87
12/14/2020 8:15:00 AM 2.01 35.618 0.079 6.65 3.74 12.88
12/14/2020 8:30:00 AM 2 35.6 0.078 6.64 3.85 12.87
12/14/2020 8:45:00 AM 1.99 35.582 0.079 6.64 3.98 12.87
12/14/2020 9:00:00 AM 1.99 35.582 0.079 6.64 4.27 12.87
12/14/2020 9:15:00 AM 1.98 35.564 0.078 6.64 3.74 12.87
12/14/2020 9:30:00 AM 1.98 35.564 0.079 6.65 4.03 12.86
12/14/2020 9:45:00 AM 1.98 35.564 0.079 6.64 3.79 12.86
12/14/2020 10:00:00 AM 1.97 35.546 0.079 6.64 3.65 12.87
12/14/2020 10:15:00 AM 1.97 35.546 0.078 6.64 3.73 12.87
12/14/2020 10:30:00 AM 1.97 35.546 0.078 6.65 3.78 12.87
12/14/2020 10:45:00 AM 1.97 35.546 0.078 6.65 3.98 12.88
12/14/2020 11:00:00 AM 1.97 35.546 0.078 6.64 3.58 12.87
12/14/2020 11:15:00 AM 1.96 35.528 0.079 6.66 4.22 12.89
12/14/2020 11:30:00 AM 1.96 35.528 0.079 6.64 3.45 12.89
12/14/2020 11:45:00 AM 1.96 35.528 0.078 6.66 3.64 12.9
12/14/2020 12:00:00 PM 1.96 35.528 0.079 6.65 3.85 12.91
12/14/2020 12:15:00 PM 1.96 35.528 0.079 6.66 3.68 12.91
12/14/2020 12:30:00 PM 1.96 35.528 0.079 6.66 4.55 12.9
12/14/2020 12:45:00 PM 1.97 35.546 0.079 6.66 3.74 12.91
12/14/2020 1:00:00 PM 1.98 35.564 0.079 6.65 3.85 12.92
12/14/2020 1:15:00 PM 1.98 35.564 0.079 6.65 3.69 12.92
12/14/2020 1:30:00 PM 1.99 35.582 0.079 6.65 3.66 12.94
12/14/2020 1:45:00 PM 2 35.6 0.079 6.67 3.92 12.94
12/14/2020 2:00:00 PM 2 35.6 0.079 6.67 3.88 12.95
12/14/2020 2:15:00 PM 2.01 35.618 0.079 6.68 3.45 12.97
12/14/2020 2:30:00 PM 2.02 35.636 0.079 6.68 3.81 12.99
12/14/2020 2:45:00 PM 2.01 35.618 0.079 6.68 3.59 13.01
12/14/2020 3:00:00 PM 2.02 35.636 0.079 6.68 3.53 13.02
12/14/2020 3:15:00 PM 2.03 35.654 0.079 6.68 3.55 13.03
12/14/2020 3:30:00 PM 2.04 35.672 0.079 6.68 3.35 13.04
12/14/2020 3:45:00 PM 2.05 35.69 0.079 6.67 3.63 13.05
12/14/2020 4:00:00 PM 2.06 35.708 0.079 6.7 3.53 13.08
12/14/2020 4:15:00 PM 2.07 35.726 0.079 6.7 3.47 13.09
12/14/2020 4:30:00 PM 2.07 35.726 0.079 6.7 4.77 13.11
12/14/2020 4:45:00 PM 2.08 35.744 0.079 6.71 3.51 13.12
12/14/2020 5:00:00 PM 2.08 35.744 0.079 6.7 3.35 13.14
12/14/2020 5:15:00 PM 2.08 35.744 0.078 6.7 3.6 13.15
12/14/2020 5:30:00 PM 2.08 35.744 0.078 6.73 3.59 13.15
12/14/2020 5:45:00 PM 2.08 35.744 0.078 6.73 3.78 13.16
12/14/2020 6:00:00 PM 2.07 35.726 0.078 6.74 3.82 13.18
12/14/2020 6:15:00 PM 2.07 35.726 0.079 6.73 3.38 13.18
12/14/2020 6:30:00 PM 2.05 35.69 0.079 6.73 3.5 13.2
12/14/2020 6:45:00 PM 2.04 35.672 0.079 6.74 3.62 13.2
12/14/2020 7:00:00 PM 2.03 35.654 0.079 6.74 3.73 13.2
12/14/2020 7:15:00 PM 2.03 35.654 0.079 6.74 3.39 13.2
12/14/2020 7:30:00 PM 2.01 35.618 0.079 6.73 3.39 13.2
12/14/2020 7:45:00 PM 1.99 35.582 0.079 6.74 3.5 13.2
12/14/2020 8:00:00 PM 1.97 35.546 0.079 6.74 3.45 13.21
12/14/2020 8:15:00 PM 1.95 35.51 0.079 6.75 3.57 13.2
12/14/2020 8:30:00 PM 1.92 35.456 0.079 6.75 3.39 13.21
12/14/2020 8:45:00 PM 1.88 35.384 0.079 6.74 3.39 13.21
12/14/2020 9:00:00 PM 1.86 35.348 0.079 6.74 3.73 13.2
12/14/2020 9:15:00 PM 1.83 35.294 0.079 6.74 3.89 13.19
12/14/2020 9:30:00 PM 1.79 35.222 0.079 6.71 3.75 13.19
12/14/2020 9:45:00 PM 1.75 35.15 0.079 6.74 3.44 13.16
12/14/2020 10:00:00 PM 1.71 35.078 0.079 6.74 3.54 13.17
12/14/2020 10:15:00 PM 1.67 35.006 0.079 6.74 3.55 13.16
12/14/2020 10:30:00 PM 1.64 34.952 0.079 6.74 3.45 13.15
12/14/2020 10:45:00 PM 1.59 34.862 0.079 6.74 3.91 13.15
12/14/2020 11:00:00 PM 1.54 34.772 0.079 6.75 3.85 13.15
12/14/2020 11:15:00 PM 1.52 34.736 0.079 6.75 4.26 13.15
12/14/2020 11:30:00 PM 1.48 34.664 0.079 6.75 3.84 13.15
12/14/2020 11:45:00 PM 1.44 34.592 0.079 6.75 3.79 13.15
12/15/2020 12:00:00 AM 1.4 34.52 0.079 6.75 3.65 13.15
12/15/2020 12:15:00 AM 1.36 34.448 0.079 6.75 4.39 13.16
12/15/2020 12:30:00 AM 1.33 34.394 0.079 6.75 3.85 13.16
12/15/2020 12:45:00 AM 1.3 34.34 0.079 6.76 3.8 13.16
12/15/2020 1:00:00 AM 1.27 34.286 0.079 6.75 3.82 13.16
12/15/2020 1:15:00 AM 1.26 34.268 0.079 6.75 3.9 13.15
12/15/2020 1:30:00 AM 1.22 34.196 0.079 6.75 3.84 13.15
12/15/2020 1:45:00 AM 1.18 34.124 0.079 6.76 3.81 13.15
12/15/2020 2:00:00 AM 1.14 34.052 0.079 6.75 4.01 13.14
12/15/2020 2:15:00 AM 1.11 33.998 0.079 6.75 4.09 13.14
12/15/2020 2:30:00 AM 1.08 33.944 0.08 6.75 3.94 13.14
12/15/2020 2:45:00 AM 1.05 33.89 0.08 6.75 3.99 13.13
12/15/2020 3:00:00 AM 1.04 33.872 0.08 6.75 3.67 13.13
12/15/2020 3:15:00 AM 1 33.8 0.08 6.75 3.79 13.12
12/15/2020 3:30:00 AM 0.98 33.764 0.08 6.75 3.85 13.11
12/15/2020 3:45:00 AM 0.96 33.728 0.08 6.75 3.9 13.11
12/15/2020 4:00:00 AM 0.93 33.674 0.08 6.74 3.96 13.11
12/15/2020 4:15:00 AM 0.9 33.62 0.08 6.75 4.07 13.11
12/15/2020 4:30:00 AM 0.88 33.584 0.08 6.75 4.01 13.1
12/15/2020 4:45:00 AM 0.85 33.53 0.08 6.74 4.01 13.1
12/15/2020 5:00:00 AM 0.84 33.512 0.08 6.74 4.02 13.09
12/15/2020 5:15:00 AM 0.83 33.494 0.08 6.74 4.37 13.09
12/15/2020 5:30:00 AM 0.82 33.476 0.08 6.74 4.05 13.07
12/15/2020 5:45:00 AM 0.81 33.458 0.08 6.74 4.01 13.07
12/15/2020 6:00:00 AM 0.79 33.422 0.08 6.73 4.13 13.07
12/15/2020 6:15:00 AM 0.76 33.368 0.08 6.73 4.56 13.07
12/15/2020 6:30:00 AM 0.75 33.35 0.08 6.73 4.15 13.06
12/15/2020 6:45:00 AM 0.74 33.332 0.08 6.72 4.23 13.05
12/15/2020 7:00:00 AM 0.73 33.314 0.079 6.72 4.38 13.05
12/15/2020 7:15:00 AM 0.72 33.296 0.079 6.72 4.06 13.04
12/15/2020 7:30:00 AM 0.71 33.278 0.079 6.72 4.25 13.04
12/15/2020 7:45:00 AM 0.7 33.26 0.079 6.72 3.99 13.03
12/15/2020 8:00:00 AM 0.7 33.26 0.079 6.71 4.29 13.03
12/15/2020 8:15:00 AM 0.7 33.26 0.079 6.71 4.05 13.03
12/15/2020 8:30:00 AM 0.69 33.242 0.079 6.71 4.42 13.03
12/15/2020 8:45:00 AM 0.69 33.242 0.079 6.71 3.73 13.03
12/15/2020 9:00:00 AM 0.7 33.26 0.079 6.72 4.18 13.03
12/15/2020 9:15:00 AM 0.71 33.278 0.079 6.72 4.08 13.03
12/15/2020 9:30:00 AM 0.72 33.296 0.079 6.71 4.12 13.03
12/15/2020 9:45:00 AM 0.74 33.332 0.079 6.71 4.48 13.04
12/15/2020 10:00:00 AM 0.75 33.35 0.079 6.71 4 13.06
12/15/2020 10:15:00 AM 0.76 33.368 0.079 6.72 3.75 13.07
12/15/2020 10:30:00 AM 0.78 33.404 0.079 6.71 3.98 13.08
12/15/2020 10:45:00 AM 0.8 33.44 0.079 6.72 5.18 13.08
12/15/2020 11:00:00 AM 0.82 33.476 0.078 6.71 3.86 13.09
12/15/2020 11:15:00 AM 0.84 33.512 0.078 6.72 3.86 13.1
12/15/2020 11:30:00 AM 0.85 33.53 0.078 6.71 3.95 13.12
12/15/2020 11:45:00 AM 0.88 33.584 0.078 6.72 3.75 13.13
12/15/2020 12:00:00 PM 0.91 33.638 0.078 6.72 3.89 13.15
12/15/2020 12:15:00 PM 0.94 33.692 0.078 6.72 3.78 13.17
12/15/2020 12:30:00 PM 0.97 33.746 0.078 6.72 4.01 13.2
12/15/2020 12:45:00 PM 0.99 33.782 0.078 6.73 3.67 13.22
12/15/2020 1:00:00 PM 1.03 33.854 0.078 6.73 3.96 13.24
12/15/2020 1:15:00 PM 1.08 33.944 0.078 6.74 4.13 13.27
12/15/2020 1:30:00 PM 1.11 33.998 0.078 6.74 3.94 13.29
12/15/2020 1:45:00 PM 1.16 34.088 0.078 6.75 4.18 13.31
12/15/2020 2:00:00 PM 1.19 34.142 0.078 6.75 4.53 13.34
12/15/2020 2:15:00 PM 1.21 34.178 0.078 6.75 3.87 13.36
12/15/2020 2:30:00 PM 1.23 34.214 0.078 6.76 3.8 13.38
12/15/2020 2:45:00 PM 1.25 34.25 0.078 6.76 3.84 13.4
12/15/2020 3:00:00 PM 1.27 34.286 0.078 6.76 3.48 13.42
12/15/2020 3:15:00 PM 1.3 34.34 0.078 6.76 3.59 13.44
12/15/2020 3:30:00 PM 1.33 34.394 0.078 6.77 3.69 13.45
12/15/2020 3:45:00 PM 1.36 34.448 0.078 6.77 3.72 13.47
12/15/2020 4:00:00 PM 1.37 34.466 0.078 6.78 3.74 13.49
12/15/2020 4:15:00 PM 1.38 34.484 0.078 6.78 3.45 13.51
12/15/2020 4:30:00 PM 1.38 34.484 0.078 6.78 3.76 13.53
12/15/2020 4:45:00 PM 1.38 34.484 0.078 6.78 3.55 13.54
12/15/2020 5:00:00 PM 1.38 34.484 0.078 6.78 3.6 13.55
12/15/2020 5:15:00 PM 1.4 34.52 0.078 6.79 3.71 13.56
12/15/2020 5:30:00 PM 1.4 34.52 0.078 6.79 3.69 13.58
12/15/2020 5:45:00 PM 1.4 34.52 0.078 6.79 3.47 13.59
12/15/2020 6:00:00 PM 1.38 34.484 0.078 6.79 4.09 13.59
12/15/2020 6:15:00 PM 1.37 34.466 0.078 6.79 3.51 13.6
12/15/2020 6:30:00 PM 1.34 34.412 0.078 6.79 3.7 13.62
12/15/2020 6:45:00 PM 1.32 34.376 0.078 6.8 3.5 13.62
12/15/2020 7:00:00 PM 1.3 34.34 0.078 6.79 3.58 13.63
12/15/2020 7:15:00 PM 1.28 34.304 0.078 6.79 3.84 13.64
12/15/2020 7:30:00 PM 1.27 34.286 0.078 6.79 3.74 13.64
12/15/2020 7:45:00 PM 1.24 34.232 0.078 6.8 4.22 13.65
12/15/2020 8:00:00 PM 1.23 34.214 0.078 6.79 3.78 13.65
12/15/2020 8:15:00 PM 1.23 34.214 0.078 6.8 3.75 13.64
12/15/2020 8:30:00 PM 1.22 34.196 0.078 6.79 3.6 13.64
12/15/2020 8:45:00 PM 1.22 34.196 0.078 6.79 4.27 13.64
12/15/2020 9:00:00 PM 1.24 34.232 0.078 6.79 3.46 13.63
12/15/2020 9:15:00 PM 1.22 34.196 0.078 6.79 3.44 13.63
12/15/2020 9:30:00 PM 1.22 34.196 0.078 6.78 3.55 13.62
12/15/2020 9:45:00 PM 1.21 34.178 0.078 6.78 4.1 13.61
12/15/2020 10:00:00 PM 1.2 34.16 0.078 6.77 3.53 13.62
12/15/2020 10:15:00 PM 1.2 34.16 0.078 6.77 3.91 13.6
12/15/2020 10:30:00 PM 1.18 34.124 0.078 6.78 3.62 13.6
12/15/2020 10:45:00 PM 1.18 34.124 0.078 6.77 3.66 13.59
12/15/2020 11:00:00 PM 1.17 34.106 0.078 6.78 4.08 13.59
12/15/2020 11:15:00 PM 1.16 34.088 0.078 6.78 3.84 13.58
12/15/2020 11:30:00 PM 1.15 34.07 0.079 6.77 3.62 13.58
12/15/2020 11:45:00 PM 1.13 34.034 0.079 6.77 3.42 13.57
12/16/2020 12:00:00 AM 1.12 34.016 0.079 6.77 3.63 13.56
12/16/2020 12:15:00 AM 1.11 33.998 0.079 6.76 3.85 13.55
12/16/2020 12:30:00 AM 1.11 33.998 0.079 6.75 3.52 13.53
12/16/2020 12:45:00 AM 1.12 34.016 0.079 6.75 4.39 13.53
12/16/2020 1:00:00 AM 1.1 33.98 0.079 6.75 3.6 13.52
12/16/2020 1:15:00 AM 1.1 33.98 0.079 6.75 3.95 13.5
12/16/2020 1:30:00 AM 1.09 33.962 0.079 6.74 4.26 13.49
12/16/2020 1:45:00 AM 1.09 33.962 0.079 6.75 3.88 13.47
12/16/2020 2:00:00 AM 1.09 33.962 0.079 6.75 3.74 13.47
12/16/2020 2:15:00 AM 1.09 33.962 0.079 6.74 3.99 13.45
12/16/2020 2:30:00 AM 1.08 33.944 0.079 6.74 4.12 13.44
12/16/2020 2:45:00 AM 1.09 33.962 0.079 6.73 4.09 13.43
12/16/2020 3:00:00 AM 1.09 33.962 0.079 6.73 3.91 13.41
12/16/2020 3:15:00 AM 1.07 33.926 0.079 6.74 4.03 13.41
12/16/2020 3:30:00 AM 1.07 33.926 0.079 6.73 3.96 13.4
12/16/2020 3:45:00 AM 1.06 33.908 0.079 6.73 3.78 13.39
12/16/2020 4:00:00 AM 1.05 33.89 0.079 6.73 3.76 13.39
12/16/2020 4:15:00 AM 1.04 33.872 0.079 6.72 5.19 13.37
12/16/2020 4:30:00 AM 1.03 33.854 0.079 6.72 3.87 13.36
12/16/2020 4:45:00 AM 1.01 33.818 0.079 6.71 5.08 13.35
12/16/2020 5:00:00 AM 1 33.8 0.079 6.71 3.87 13.35
12/16/2020 5:15:00 AM 1 33.8 0.079 6.72 4.34 13.34
12/16/2020 5:30:00 AM 0.98 33.764 0.079 6.71 4.28 13.33
12/16/2020 5:45:00 AM 0.97 33.746 0.079 6.7 3.86 13.32
12/16/2020 6:00:00 AM 0.96 33.728 0.079 6.71 4.76 13.31
12/16/2020 6:15:00 AM 0.96 33.728 0.079 6.71 4.03 13.3
12/16/2020 6:30:00 AM 0.95 33.71 0.079 6.71 3.85 13.3
12/16/2020 6:45:00 AM 0.94 33.692 0.08 6.7 4.15 13.29
12/16/2020 7:00:00 AM 0.94 33.692 0.08 6.7 4.85 13.27
12/16/2020 7:15:00 AM 0.93 33.674 0.08 6.69 3.72 13.27
12/16/2020 7:30:00 AM 0.92 33.656 0.08 6.69 3.89 13.26
12/16/2020 7:45:00 AM 0.92 33.656 0.08 6.69 3.72 13.25
12/16/2020 8:00:00 AM 0.91 33.638 0.08 6.69 4.24 13.24
12/16/2020 8:15:00 AM 0.9 33.62 0.08 6.69 3.77 13.25
12/16/2020 8:30:00 AM 0.91 33.638 0.08 6.69 3.9 13.24
12/16/2020 8:45:00 AM 0.9 33.62 0.08 6.67 3.82 13.24
12/16/2020 9:00:00 AM 0.91 33.638 0.08 6.69 3.95 13.23
12/16/2020 9:15:00 AM 0.92 33.656 0.08 6.69 3.95 13.22
12/16/2020 9:30:00 AM 0.92 33.656 0.08 6.68 3.69 13.23
12/16/2020 9:45:00 AM 0.92 33.656 0.08 6.69 4.07 13.22
12/16/2020 10:00:00 AM 0.93 33.674 0.08 6.69 4.37 13.22
12/16/2020 10:15:00 AM 0.94 33.692 0.08 6.68 3.8 13.21
12/16/2020 10:30:00 AM 0.94 33.692 0.08 6.68 3.61 13.21
12/16/2020 10:45:00 AM 0.95 33.71 0.08 6.67 3.56 13.21
12/16/2020 11:00:00 AM 0.97 33.746 0.081 6.67 3.78 13.21
12/16/2020 11:15:00 AM 0.98 33.764 0.081 6.67 3.68 13.21
12/16/2020 11:30:00 AM 0.99 33.782 0.081 6.67 4.12 13.22
12/16/2020 11:45:00 AM 0.99 33.782 0.081 6.69 3.82 13.23
12/16/2020 12:00:00 PM 1 33.8 0.081 6.68 3.89 13.25
12/16/2020 12:15:00 PM 1.01 33.818 0.081 6.68 3.55 13.26
12/16/2020 12:30:00 PM 1.02 33.836 0.081 6.69 3.59 13.28
12/16/2020 12:45:00 PM 1.03 33.854 0.081 6.69 3.63 13.28
12/16/2020 1:00:00 PM 1.03 33.854 0.081 6.68 3.86 13.3
12/16/2020 1:15:00 PM 1.03 33.854 0.081 6.69 7.4 13.31
12/16/2020 1:30:00 PM 1.04 33.872 0.081 6.7 3.56 13.32
12/16/2020 1:45:00 PM 1.04 33.872 0.081 6.7 3.71 13.35
12/16/2020 2:00:00 PM 1.06 33.908 0.081 6.7 3.7 13.36
12/16/2020 2:15:00 PM 1.07 33.926 0.081 6.7 3.72 13.37
12/16/2020 2:30:00 PM 1.08 33.944 0.081 6.7 3.59 13.39
12/16/2020 2:45:00 PM 1.08 33.944 0.081 6.71 3.63 13.4
12/16/2020 3:00:00 PM 1.09 33.962 0.081 6.7 3.77 13.41
12/16/2020 3:15:00 PM 1.09 33.962 0.081 6.7 3.81 13.42
12/16/2020 3:30:00 PM 1.08 33.944 0.081 6.71 3.77 13.44
12/16/2020 3:45:00 PM 1.08 33.944 0.081 6.71 3.76 13.46
12/16/2020 4:00:00 PM 1.08 33.944 0.081 6.71 3.79 13.47
12/16/2020 4:15:00 PM 1.08 33.944 0.081 6.71 3.48 13.48
12/16/2020 4:30:00 PM 1.09 33.962 0.081 6.71 3.68 13.49
12/16/2020 4:45:00 PM 1.08 33.944 0.081 6.72 3.78 13.51
12/16/2020 5:00:00 PM 1.07 33.926 0.081 6.71 3.66 13.51
12/16/2020 5:15:00 PM 1.07 33.926 0.081 6.71 3.54 13.51
12/16/2020 5:30:00 PM 1.06 33.908 0.081 6.71 4.65 13.52
12/16/2020 5:45:00 PM 1.05 33.89 0.081 6.7 3.88 13.52
12/16/2020 6:00:00 PM 1.02 33.836 0.081 6.7 3.73 13.53
12/16/2020 6:15:00 PM 1 33.8 0.081 6.7 3.96 13.53
12/16/2020 6:30:00 PM 0.98 33.764 0.081 6.71 3.75 13.54
12/16/2020 6:45:00 PM 0.97 33.746 0.081 6.69 3.93 13.55
12/16/2020 7:00:00 PM 0.95 33.71 0.081 6.71 4.56 13.56
12/16/2020 7:15:00 PM 0.95 33.71 0.081 6.7 3.85 13.56
12/16/2020 7:30:00 PM 0.95 33.71 0.081 6.71 4.61 13.56
12/16/2020 7:45:00 PM 0.93 33.674 0.081 6.71 4.04 13.56
12/16/2020 8:00:00 PM 0.93 33.674 0.081 6.71 4.18 13.56
12/16/2020 8:15:00 PM 0.91 33.638 0.081 6.71 4.17 13.54
12/16/2020 8:30:00 PM 0.89 33.602 0.081 6.71 4.36 13.53
12/16/2020 8:45:00 PM 0.88 33.584 0.081 6.71 4.55 13.52
12/16/2020 9:00:00 PM 0.86 33.548 0.082 6.71 4.18 13.51
12/16/2020 9:15:00 PM 0.84 33.512 0.081 6.71 4.39 13.51
12/16/2020 9:30:00 PM 0.81 33.458 0.081 6.71 4.66 13.5
12/16/2020 9:45:00 PM 0.79 33.422 0.081 6.72 4.44 13.51
12/16/2020 10:00:00 PM 0.78 33.404 0.081 6.71 4.63 13.5
12/16/2020 10:15:00 PM 0.76 33.368 0.081 6.71 5.15 13.49
12/16/2020 10:30:00 PM 0.74 33.332 0.081 6.71 4.39 13.48
12/16/2020 10:45:00 PM 0.72 33.296 0.082 6.71 4.61 13.48
12/16/2020 11:00:00 PM 0.7 33.26 0.082 6.7 4.46 13.47
12/16/2020 11:15:00 PM 0.67 33.206 0.082 6.7 4.51 13.46
12/16/2020 11:30:00 PM 0.65 33.17 0.082 6.7 4.42 13.44
12/16/2020 11:45:00 PM 0.62 33.116 0.082 6.69 4.11 13.44
12/17/2020 12:00:00 AM 0.59 33.062 0.081 6.7 4.13 13.42
12/17/2020 12:15:00 AM 0.57 33.026 0.081 6.69 4.18 13.4
12/17/2020 12:30:00 AM 0.54 32.972 0.081 6.7 4.08 13.39
12/17/2020 12:45:00 AM 0.52 32.936 0.081 6.69 4.33 13.38
12/17/2020 1:00:00 AM 0.5 32.9 0.081 6.7 4.59 13.37
12/17/2020 1:15:00 AM 0.48 32.864 0.081 6.7 4.04 13.36
12/17/2020 1:30:00 AM 0.46 32.828 0.081 6.69 4.45 13.35
12/17/2020 1:45:00 AM 0.44 32.792 0.081 6.7 4.24 13.33
12/17/2020 2:00:00 AM 0.43 32.774 0.081 6.69 4.09 13.32
12/17/2020 2:15:00 AM 0.41 32.738 0.081 6.69 3.98 13.32
12/17/2020 2:30:00 AM 0.41 32.738 0.081 6.69 3.9 13.31
12/17/2020 2:45:00 AM 0.39 32.702 0.081 6.69 4.18 13.29
12/17/2020 3:00:00 AM 0.39 32.702 0.081 6.7 4.02 13.28
12/17/2020 3:15:00 AM 0.38 32.684 0.081 6.7 3.79 13.28
12/17/2020 3:30:00 AM 0.38 32.684 0.081 6.69 3.78 13.26
12/17/2020 3:45:00 AM 0.37 32.666 0.081 6.69 4.02 13.24
12/17/2020 4:00:00 AM 0.37 32.666 0.081 6.68 4.27 13.22
12/17/2020 4:15:00 AM 0.36 32.648 0.081 6.69 3.71 13.2
12/17/2020 4:30:00 AM 0.36 32.648 0.081 6.67 3.76 13.18
12/17/2020 4:45:00 AM 0.36 32.648 0.081 6.69 3.87 13.16
12/17/2020 5:00:00 AM 0.35 32.63 0.081 6.68 3.79 13.14
12/17/2020 5:15:00 AM 0.35 32.63 0.081 6.68 3.8 13.12
12/17/2020 5:30:00 AM 0.34 32.612 0.081 6.67 3.64 13.1
12/17/2020 5:45:00 AM 0.34 32.612 0.081 6.67 3.77 13.07
12/17/2020 6:00:00 AM 0.33 32.594 0.081 6.66 3.7 13.05
12/17/2020 6:15:00 AM 0.33 32.594 0.081 6.66 3.65 13.04
12/17/2020 6:30:00 AM 0.32 32.576 0.081 6.66 3.45 13.02
12/17/2020 6:45:00 AM 0.32 32.576 0.081 6.66 3.65 13
12/17/2020 7:00:00 AM 0.31 32.558 0.081 6.66 3.75 12.98
12/17/2020 7:15:00 AM 0.31 32.558 0.081 6.65 3.55 12.96
12/17/2020 7:30:00 AM 0.31 32.558 0.081 6.66 3.76 12.95
12/17/2020 7:45:00 AM 0.31 32.558 0.081 6.66 4.05 12.94
12/17/2020 8:00:00 AM 0.31 32.558 0.081 6.65 3.54 12.92
12/17/2020 8:15:00 AM 0.31 32.558 0.081 6.65 3.45 12.91
12/17/2020 8:30:00 AM 0.31 32.558 0.081 6.65 3.6 12.9
12/17/2020 8:45:00 AM 0.31 32.558 0.081 6.65 3.54 12.88
12/17/2020 9:00:00 AM 0.31 32.558 0.081 6.64 3.63 12.88
12/17/2020 9:15:00 AM 0.32 32.576 0.081 6.64 3.48 12.86
12/17/2020 9:30:00 AM 0.32 32.576 0.081 6.64 3.47 12.86
12/17/2020 9:45:00 AM 0.33 32.594 0.081 6.64 3.66 12.86
12/17/2020 10:00:00 AM 0.34 32.612 0.081 6.64 3.61 12.85
12/17/2020 10:15:00 AM 0.35 32.63 0.081 6.64 3.77 12.85
12/17/2020 10:30:00 AM 0.36 32.648 0.081 6.64 3.54 12.85
12/17/2020 10:45:00 AM 0.37 32.666 0.081 6.63 3.41 12.84
12/17/2020 11:00:00 AM 0.38 32.684 0.081 6.64 3.3 12.84
12/17/2020 11:15:00 AM 0.38 32.684 0.081 6.64 3.61 12.84
12/17/2020 11:30:00 AM 0.4 32.72 0.081 6.64 3.8 12.84
12/17/2020 11:45:00 AM 0.4 32.72 0.081 6.63 3.35 12.83
12/17/2020 12:00:00 PM 0.41 32.738 0.081 6.64 3.51 12.84
12/17/2020 12:15:00 PM 0.42 32.756 0.081 6.64 3.7 12.85
12/17/2020 12:30:00 PM 0.43 32.774 0.081 6.64 3.43 12.86
12/17/2020 12:45:00 PM 0.44 32.792 0.081 6.65 3.41 12.87
12/17/2020 1:00:00 PM 0.45 32.81 0.081 6.64 3.51 12.88
12/17/2020 1:15:00 PM 0.45 32.81 0.081 6.65 3.58 12.88
12/17/2020 1:30:00 PM 0.46 32.828 0.081 6.65 3.63 12.9
12/17/2020 1:45:00 PM 0.47 32.846 0.081 6.66 3.51 12.9
12/17/2020 2:00:00 PM 0.48 32.864 0.081 6.66 3.45 12.92
12/17/2020 2:15:00 PM 0.49 32.882 0.081 6.66 3.52 12.93
12/17/2020 2:30:00 PM 0.5 32.9 0.081 6.66 3.82 12.94
12/17/2020 2:45:00 PM 0.51 32.918 0.081 6.66 3.4 12.95
12/17/2020 3:00:00 PM 0.53 32.954 0.081 6.66 3.66 12.96
12/17/2020 3:15:00 PM 0.54 32.972 0.081 6.66 3.45 12.97
12/17/2020 3:30:00 PM 0.55 32.99 0.081 6.66 3.44 12.99
12/17/2020 3:45:00 PM 0.56 33.008 0.081 6.67 4.2 12.99
12/17/2020 4:00:00 PM 0.57 33.026 0.081 6.66 3.5 13.01
12/17/2020 4:15:00 PM 0.58 33.044 0.081 6.66 3.54 13.01
12/17/2020 4:30:00 PM 0.59 33.062 0.081 6.67 3.37 13.03
12/17/2020 4:45:00 PM 0.61 33.098 0.081 6.67 3.86 13.03
12/17/2020 5:00:00 PM 0.61 33.098 0.081 6.67 3.35 13.06
12/17/2020 5:15:00 PM 0.62 33.116 0.081 6.67 3.47 13.06
12/17/2020 5:30:00 PM 0.63 33.134 0.081 6.67 3.6 13.07
12/17/2020 5:45:00 PM 0.64 33.152 0.081 6.67 3.56 13.07
12/17/2020 6:00:00 PM 0.65 33.17 0.081 6.67 3.42 13.08
12/17/2020 6:15:00 PM 0.66 33.188 0.081 6.67 3.81 13.08
12/17/2020 6:30:00 PM 0.66 33.188 0.081 6.68 3.79 13.09
12/17/2020 6:45:00 PM 0.67 33.206 0.081 6.68 3.49 13.09
12/17/2020 7:00:00 PM 0.67 33.206 0.081 6.68 3.63 13.1
12/17/2020 7:15:00 PM 0.67 33.206 0.081 6.68 3.58 13.11
12/17/2020 7:30:00 PM 0.68 33.224 0.081 6.68 3.54 13.11
12/17/2020 7:45:00 PM 0.67 33.206 0.081 6.68 3.64 13.1
12/17/2020 8:00:00 PM 0.68 33.224 0.081 6.68 3.53 13.1
12/17/2020 8:15:00 PM 0.68 33.224 0.081 6.68 3.44 13.1
12/17/2020 8:30:00 PM 0.68 33.224 0.081 6.68 5.16 13.11
12/17/2020 8:45:00 PM 0.68 33.224 0.081 6.68 3.44 13.11
12/17/2020 9:00:00 PM 0.68 33.224 0.081 6.68 3.58 13.1
12/17/2020 9:15:00 PM 0.68 33.224 0.081 6.68 3.55 13.11
12/17/2020 9:30:00 PM 0.68 33.224 0.081 6.68 3.55 13.1
12/17/2020 9:45:00 PM 0.68 33.224 0.081 6.68 3.79 13.1
12/17/2020 10:00:00 PM 0.68 33.224 0.081 6.67 4.04 13.1
12/17/2020 10:15:00 PM 0.69 33.242 0.082 6.68 3.61 13.09
12/17/2020 10:30:00 PM 0.69 33.242 0.082 6.67 3.77 13.09
12/17/2020 10:45:00 PM 0.69 33.242 0.082 6.68 3.47 13.09
12/17/2020 11:00:00 PM 0.69 33.242 0.082 6.67 3.45 13.09
12/17/2020 11:15:00 PM 0.7 33.26 0.082 6.67 3.51 13.1
12/17/2020 11:30:00 PM 0.7 33.26 0.082 6.67 3.68 13.09
12/17/2020 11:45:00 PM 0.7 33.26 0.082 6.68 3.44 13.08
12/18/2020 12:00:00 AM 0.7 33.26 0.082 6.67 3.6 13.08
12/18/2020 12:15:00 AM 0.7 33.26 0.082 6.67 3.5 13.08
12/18/2020 12:30:00 AM 0.71 33.278 0.082 6.67 3.62 13.08
12/18/2020 12:45:00 AM 0.71 33.278 0.082 6.67 3.81 13.07
12/18/2020 1:00:00 AM 0.72 33.296 0.082 6.67 3.59 13.07
12/18/2020 1:15:00 AM 0.72 33.296 0.082 6.67 3.54 13.06
12/18/2020 1:30:00 AM 0.72 33.296 0.082 6.67 3.83 13.06
12/18/2020 1:45:00 AM 0.72 33.296 0.082 6.67 4.24 13.05
12/18/2020 2:00:00 AM 0.72 33.296 0.082 6.66 3.48 13.05
12/18/2020 2:15:00 AM 0.72 33.296 0.082 6.66 3.78 13.05
12/18/2020 2:30:00 AM 0.72 33.296 0.082 6.66 3.58 13.04
12/18/2020 2:45:00 AM 0.72 33.296 0.082 6.66 3.49 13.03
12/18/2020 3:00:00 AM 0.72 33.296 0.082 6.66 3.77 13.03
12/18/2020 3:15:00 AM 0.72 33.296 0.082 6.66 3.45 13.01
12/18/2020 3:30:00 AM 0.72 33.296 0.082 6.66 3.58 13
12/18/2020 3:45:00 AM 0.72 33.296 0.083 6.66 4.71 13
12/18/2020 4:00:00 AM 0.71 33.278 0.083 6.65 3.5 12.98
12/18/2020 4:15:00 AM 0.71 33.278 0.083 6.66 3.62 12.97
12/18/2020 4:30:00 AM 0.71 33.278 0.083 6.65 3.46 12.95
12/18/2020 4:45:00 AM 0.71 33.278 0.083 6.65 3.51 12.94
12/18/2020 5:00:00 AM 0.71 33.278 0.083 6.65 3.57 12.92
12/18/2020 5:15:00 AM 0.7 33.26 0.083 6.64 4 12.91
12/18/2020 5:30:00 AM 0.7 33.26 0.083 6.65 3.6 12.89
12/18/2020 5:45:00 AM 0.69 33.242 0.083 6.64 3.61 12.89
12/18/2020 6:00:00 AM 0.69 33.242 0.083 6.63 3.67 12.87
12/18/2020 6:15:00 AM 0.69 33.242 0.083 6.63 4.8 12.86
12/18/2020 6:30:00 AM 0.68 33.224 0.083 6.63 3.7 12.84
12/18/2020 6:45:00 AM 0.68 33.224 0.083 6.63 3.61 12.83
12/18/2020 7:00:00 AM 0.67 33.206 0.083 6.63 3.67 12.82
12/18/2020 7:15:00 AM 0.67 33.206 0.083 6.63 3.45 12.8
12/18/2020 7:30:00 AM 0.67 33.206 0.083 6.62 3.65 12.79
12/18/2020 7:45:00 AM 0.66 33.188 0.083 6.62 3.54 12.78
12/18/2020 8:00:00 AM 0.66 33.188 0.083 6.62 3.97 12.77
12/18/2020 8:15:00 AM 0.66 33.188 0.083 6.62 3.55 12.77
12/18/2020 8:30:00 AM 0.66 33.188 0.083 6.62 3.44 12.76
12/18/2020 8:45:00 AM 0.66 33.188 0.083 6.62 4.12 12.76
12/18/2020 9:00:00 AM 0.66 33.188 0.083 6.62 3.65 12.74
12/18/2020 9:15:00 AM 0.66 33.188 0.083 6.62 3.64 12.76
12/18/2020 9:30:00 AM 0.66 33.188 0.083 6.62 3.46 12.74
12/18/2020 9:45:00 AM 0.66 33.188 0.083 6.61 3.59 12.73
12/18/2020 10:00:00 AM 0.66 33.188 0.083 6.61 3.99 12.74
12/18/2020 10:15:00 AM 0.67 33.206 0.083 6.61 3.72 12.74
12/18/2020 10:30:00 AM 0.67 33.206 0.083 6.61 3.45 12.74
12/18/2020 10:45:00 AM 0.68 33.224 0.083 6.62 3.57 12.75
12/18/2020 11:00:00 AM 0.68 33.224 0.083 6.6 3.8 12.75
12/18/2020 11:15:00 AM 0.69 33.242 0.083 6.61 3.65 12.77
12/18/2020 11:30:00 AM 0.7 33.26 0.083 6.61 3.51 12.76
12/18/2020 11:45:00 AM 0.7 33.26 0.083 6.61 3.5 12.76
12/18/2020 12:00:00 PM 0.71 33.278 0.083 6.61 3.32 12.79
12/18/2020 12:15:00 PM 0.71 33.278 0.083 6.61 3.38 12.79
12/18/2020 12:30:00 PM 0.72 33.296 0.083 6.62 4.28 12.81
12/18/2020 12:45:00 PM 0.73 33.314 0.083 6.62 3.42 12.83
12/18/2020 1:00:00 PM 0.73 33.314 0.083 6.62 3.58 12.85
12/18/2020 1:15:00 PM 0.74 33.332 0.083 6.62 3.38 12.86
12/18/2020 1:30:00 PM 0.74 33.332 0.083 6.63 3.44 12.9
12/18/2020 1:45:00 PM 0.75 33.35 0.083 6.63 6.42 12.91
12/18/2020 2:00:00 PM 0.76 33.368 0.083 6.63 3.41 12.94
12/18/2020 2:15:00 PM 0.77 33.386 0.083 6.64 3.51 12.97
12/18/2020 2:30:00 PM 0.78 33.404 0.083 6.64 3.45 12.99
12/18/2020 2:45:00 PM 0.78 33.404 0.083 6.64 3.4 13.01
12/18/2020 3:00:00 PM 0.8 33.44 0.083 6.64 3.5 13.04
12/18/2020 3:15:00 PM 0.81 33.458 0.083 6.64 3.59 13.03
12/18/2020 3:30:00 PM 0.81 33.458 0.083 6.65 3.49 13.07
12/18/2020 3:45:00 PM 0.82 33.476 0.083 6.65 3.4 13.1
12/18/2020 4:00:00 PM 0.82 33.476 0.083 6.65 3.51 13.11
12/18/2020 4:15:00 PM 0.83 33.494 0.083 6.65 3.48 13.12
12/18/2020 4:30:00 PM 0.83 33.494 0.083 6.65 3.39 13.16
12/18/2020 4:45:00 PM 0.84 33.512 0.083 6.66 3.36 13.18
12/18/2020 5:00:00 PM 0.84 33.512 0.083 6.66 3.51 13.17
12/18/2020 5:15:00 PM 0.84 33.512 0.083 6.66 3.61 13.23
12/18/2020 5:30:00 PM 0.84 33.512 0.083 6.66 3.64 13.23
12/18/2020 5:45:00 PM 0.85 33.53 0.083 6.66 3.58 13.24
12/18/2020 6:00:00 PM 0.85 33.53 0.083 6.67 3.54 13.27
12/18/2020 6:15:00 PM 0.85 33.53 0.083 6.67 3.62 13.28
12/18/2020 6:30:00 PM 0.85 33.53 0.083 6.67 4.19 13.29
12/18/2020 6:45:00 PM 0.84 33.512 0.083 6.67 3.32 13.33
12/18/2020 7:00:00 PM 0.85 33.53 0.083 6.67 3.4 13.33
12/18/2020 7:15:00 PM 0.84 33.512 0.083 6.67 3.69 13.33
12/18/2020 7:30:00 PM 0.84 33.512 0.083 6.67 3.95 13.34
12/18/2020 7:45:00 PM 0.83 33.494 0.083 6.66 3.77 13.35
12/18/2020 8:00:00 PM 0.82 33.476 0.083 6.66 3.71 13.37
12/18/2020 8:15:00 PM 0.81 33.458 0.083 6.67 3.51 13.38
12/18/2020 8:30:00 PM 0.81 33.458 0.083 6.68 3.42 13.39
12/18/2020 8:45:00 PM 0.8 33.44 0.083 6.66 3.83 13.38
12/18/2020 9:00:00 PM 0.79 33.422 0.083 6.68 3.68 13.38
12/18/2020 9:15:00 PM 0.78 33.404 0.083 6.68 3.71 13.4
12/18/2020 9:30:00 PM 0.77 33.386 0.083 6.67 4.12 13.4
12/18/2020 9:45:00 PM 0.76 33.368 0.083 6.67 3.87 13.42
12/18/2020 10:00:00 PM 0.76 33.368 0.083 6.67 3.61 13.41
12/18/2020 10:15:00 PM 0.75 33.35 0.083 6.67 3.75 13.42
12/18/2020 10:30:00 PM 0.75 33.35 0.083 6.66 3.68 13.4
12/18/2020 10:45:00 PM 0.74 33.332 0.083 6.66 4.18 13.41
12/18/2020 11:00:00 PM 0.73 33.314 0.083 6.66 3.81 13.42
12/18/2020 11:15:00 PM 0.72 33.296 0.083 6.66 3.97 13.41
12/18/2020 11:30:00 PM 0.71 33.278 0.083 6.66 4.52 13.4
12/18/2020 11:45:00 PM 0.7 33.26 0.083 6.66 3.98 13.4
12/19/2020 12:00:00 AM 0.69 33.242 0.083 6.65 3.83 13.39
12/19/2020 12:15:00 AM 0.68 33.224 0.083 6.66 3.71 13.38
12/19/2020 12:30:00 AM 0.67 33.206 0.083 6.65 3.53 13.37
12/19/2020 12:45:00 AM 0.66 33.188 0.083 6.65 3.7 13.37
12/19/2020 1:00:00 AM 0.65 33.17 0.083 6.65 3.59 13.35
12/19/2020 1:15:00 AM 0.64 33.152 0.083 6.65 3.62 13.35
12/19/2020 1:30:00 AM 0.62 33.116 0.083 6.64 3.63 13.34
12/19/2020 1:45:00 AM 0.61 33.098 0.083 6.64 3.66 13.34
12/19/2020 2:00:00 AM 0.6 33.08 0.083 6.64 3.61 13.33
12/19/2020 2:15:00 AM 0.59 33.062 0.083 6.64 3.69 13.31
12/19/2020 2:30:00 AM 0.58 33.044 0.083 6.64 3.58 13.32
12/19/2020 2:45:00 AM 0.57 33.026 0.083 6.63 3.51 13.3
12/19/2020 3:00:00 AM 0.56 33.008 0.083 6.63 3.59 13.28
12/19/2020 3:15:00 AM 0.55 32.99 0.083 6.63 3.49 13.27
12/19/2020 3:30:00 AM 0.54 32.972 0.083 6.63 3.8 13.27
12/19/2020 3:45:00 AM 0.53 32.954 0.083 6.63 3.76 13.25
12/19/2020 4:00:00 AM 0.52 32.936 0.084 6.62 3.69 13.23
12/19/2020 4:15:00 AM 0.51 32.918 0.084 6.63 3.39 13.23
12/19/2020 4:30:00 AM 0.5 32.9 0.084 6.62 3.65 13.22
12/19/2020 4:45:00 AM 0.49 32.882 0.084 6.62 3.5 13.2
12/19/2020 5:00:00 AM 0.49 32.882 0.084 6.61 3.47 13.2
12/19/2020 5:15:00 AM 0.48 32.864 0.084 6.61 3.54 13.18
12/19/2020 5:30:00 AM 0.47 32.846 0.084 6.61 3.34 13.18
12/19/2020 5:45:00 AM 0.46 32.828 0.084 6.6 3.41 13.17
12/19/2020 6:00:00 AM 0.46 32.828 0.084 6.61 3.42 13.16
12/19/2020 6:15:00 AM 0.45 32.81 0.084 6.6 3.33 13.14
12/19/2020 6:30:00 AM 0.44 32.792 0.084 6.6 3.45 13.14
12/19/2020 6:45:00 AM 0.44 32.792 0.084 6.6 3.56 13.15
12/19/2020 7:00:00 AM 0.43 32.774 0.084 6.6 3.92 13.13
12/19/2020 7:15:00 AM 0.42 32.756 0.084 6.59 3.4 13.13
12/19/2020 7:30:00 AM 0.42 32.756 0.084 6.59 3.48 13.12
12/19/2020 7:45:00 AM 0.42 32.756 0.084 6.58 3.45 13.12
12/19/2020 8:00:00 AM 0.41 32.738 0.084 6.58 3.45 13.12
12/19/2020 8:15:00 AM 0.41 32.738 0.084 6.59 3.36 13.13
12/19/2020 8:30:00 AM 0.41 32.738 0.084 6.59 3.31 13.12
12/19/2020 8:45:00 AM 0.4 32.72 0.084 6.58 3.61 13.11
12/19/2020 9:00:00 AM 0.4 32.72 0.084 6.58 3.4 13.14
12/19/2020 9:15:00 AM 0.4 32.72 0.084 6.58 3.46 13.12
12/19/2020 9:30:00 AM 0.41 32.738 0.084 6.58 3.88 13.13
12/19/2020 9:45:00 AM 0.41 32.738 0.084 6.57 3.38 13.14
12/19/2020 10:00:00 AM 0.41 32.738 0.084 6.57 3.33 13.15
12/19/2020 10:15:00 AM 0.42 32.756 0.083 6.58 3.84 13.16
12/19/2020 10:30:00 AM 0.42 32.756 0.083 6.57 3.65 13.18
12/19/2020 10:45:00 AM 0.42 32.756 0.083 6.58 3.43 13.18
12/19/2020 11:00:00 AM 0.42 32.756 0.083 6.58 3.31 13.18
12/19/2020 11:15:00 AM 0.43 32.774 0.083 6.58 3.38 13.19
12/19/2020 11:30:00 AM 0.43 32.774 0.083 6.58 3.33 13.21
12/19/2020 11:45:00 AM 0.43 32.774 0.083 6.58 3.41 13.23
12/19/2020 12:00:00 PM 0.44 32.792 0.083 6.58 3.49 13.23
12/19/2020 12:15:00 PM 0.45 32.81 0.083 6.59 3.45 13.25
12/19/2020 12:30:00 PM 0.46 32.828 0.083 6.59 3.33 13.27
12/19/2020 12:45:00 PM 0.46 32.828 0.083 6.59 3.39 13.29
12/19/2020 1:00:00 PM 0.47 32.846 0.083 6.59 3.54 13.33
12/19/2020 1:15:00 PM 0.49 32.882 0.083 6.59 3.44 13.34
12/19/2020 1:30:00 PM 0.5 32.9 0.083 6.58 3.4 13.37
12/19/2020 1:45:00 PM 0.51 32.918 0.083 6.59 3.46 13.39
12/19/2020 2:00:00 PM 0.52 32.936 0.083 6.6 3.37 13.41
12/19/2020 2:15:00 PM 0.54 32.972 0.083 6.6 3.73 13.42
12/19/2020 2:30:00 PM 0.55 32.99 0.083 6.61 3.6 13.43
12/19/2020 2:45:00 PM 0.56 33.008 0.083 6.6 3.68 13.47
12/19/2020 3:00:00 PM 0.57 33.026 0.083 6.61 4.01 13.47
12/19/2020 3:15:00 PM 0.58 33.044 0.083 6.6 3.63 13.47
12/19/2020 3:30:00 PM 0.6 33.08 0.083 6.6 3.69 13.5
12/19/2020 3:45:00 PM 0.61 33.098 0.083 6.61 3.56 13.49
12/19/2020 4:00:00 PM 0.61 33.098 0.083 6.61 3.85 13.53
12/19/2020 4:15:00 PM 0.63 33.134 0.083 6.61 3.89 13.53
12/19/2020 4:30:00 PM 0.63 33.134 0.082 6.61 3.49 13.55
12/19/2020 4:45:00 PM 0.64 33.152 0.082 6.63 3.61 13.56
12/19/2020 5:00:00 PM 0.64 33.152 0.082 6.62 3.72 13.57
12/19/2020 5:15:00 PM 0.64 33.152 0.082 6.62 3.96 13.59
12/19/2020 5:30:00 PM 0.65 33.17 0.082 6.61 3.7 13.59
12/19/2020 5:45:00 PM 0.65 33.17 0.082 6.62 3.59 13.59
12/19/2020 6:00:00 PM 0.65 33.17 0.082 6.62 3.77 13.62
12/19/2020 6:15:00 PM 0.65 33.17 0.082 6.62 4.59 13.63
12/19/2020 6:30:00 PM 0.65 33.17 0.082 6.62 3.57 13.64
12/19/2020 6:45:00 PM 0.65 33.17 0.082 6.62 3.68 13.63
12/19/2020 7:00:00 PM 0.65 33.17 0.082 6.63 3.63 13.64
12/19/2020 7:15:00 PM 0.64 33.152 0.082 6.63 3.87 13.66
12/19/2020 7:30:00 PM 0.64 33.152 0.082 6.62 3.89 13.64
12/19/2020 7:45:00 PM 0.64 33.152 0.082 6.62 4.34 13.65
12/19/2020 8:00:00 PM 0.64 33.152 0.082 6.62 3.75 13.65
12/19/2020 8:15:00 PM 0.63 33.134 0.082 6.63 3.71 13.64
12/19/2020 8:30:00 PM 0.63 33.134 0.082 6.63 3.68 13.66
12/19/2020 8:45:00 PM 0.63 33.134 0.082 6.62 3.88 13.66
12/19/2020 9:00:00 PM 0.63 33.134 0.082 6.63 3.96 13.65
12/19/2020 9:15:00 PM 0.62 33.116 0.082 6.63 3.67 13.65
12/19/2020 9:30:00 PM 0.62 33.116 0.082 6.63 3.81 13.65
12/19/2020 9:45:00 PM 0.62 33.116 0.082 6.63 3.76 13.65
12/19/2020 10:00:00 PM 0.62 33.116 0.082 6.62 3.82 13.65
12/19/2020 10:15:00 PM 0.62 33.116 0.082 6.63 3.74 13.64
12/19/2020 10:30:00 PM 0.62 33.116 0.082 6.62 3.97 13.64
12/19/2020 10:45:00 PM 0.62 33.116 0.082 6.63 3.6 13.63
12/19/2020 11:00:00 PM 0.61 33.098 0.082 6.63 3.74 13.62
12/19/2020 11:15:00 PM 0.61 33.098 0.082 6.63 4.04 13.61
12/19/2020 11:30:00 PM 0.61 33.098 0.082 6.62 3.91 13.6
12/19/2020 11:45:00 PM 0.61 33.098 0.082 6.63 3.65 13.6
12/20/2020 12:00:00 AM 0.6 33.08 0.082 6.63 3.73 13.59
12/20/2020 12:15:00 AM 0.6 33.08 0.082 6.62 3.57 13.57
12/20/2020 12:30:00 AM 0.6 33.08 0.082 6.62 3.71 13.56
12/20/2020 12:45:00 AM 0.6 33.08 0.082 6.61 3.58 13.54
12/20/2020 1:00:00 AM 0.59 33.062 0.083 6.62 3.64 13.55
12/20/2020 1:15:00 AM 0.59 33.062 0.083 6.62 3.73 13.53
12/20/2020 1:30:00 AM 0.58 33.044 0.083 6.62 3.81 13.51
12/20/2020 1:45:00 AM 0.57 33.026 0.083 6.61 3.7 13.5
12/20/2020 2:00:00 AM 0.57 33.026 0.083 6.6 3.66 13.48
12/20/2020 2:15:00 AM 0.56 33.008 0.083 6.61 3.63 13.48
12/20/2020 2:30:00 AM 0.55 32.99 0.083 6.61 3.7 13.47
12/20/2020 2:45:00 AM 0.55 32.99 0.083 6.61 3.64 13.44
12/20/2020 3:00:00 AM 0.54 32.972 0.083 6.61 3.89 13.43
12/20/2020 3:15:00 AM 0.53 32.954 0.083 6.61 3.68 13.43
12/20/2020 3:30:00 AM 0.53 32.954 0.083 6.61 3.86 13.41
12/20/2020 3:45:00 AM 0.52 32.936 0.083 6.61 3.65 13.39
12/20/2020 4:00:00 AM 0.52 32.936 0.083 6.6 3.61 13.37
12/20/2020 4:15:00 AM 0.51 32.918 0.083 6.6 3.84 13.36
12/20/2020 4:30:00 AM 0.51 32.918 0.083 6.59 3.8 13.33
12/20/2020 4:45:00 AM 0.5 32.9 0.083 6.59 4.16 13.32
12/20/2020 5:00:00 AM 0.5 32.9 0.083 6.59 3.59 13.31
12/20/2020 5:15:00 AM 0.5 32.9 0.083 6.59 3.67 13.3
12/20/2020 5:30:00 AM 0.49 32.882 0.083 6.59 3.77 13.28
12/20/2020 5:45:00 AM 0.49 32.882 0.083 6.59 3.87 13.26
12/20/2020 6:00:00 AM 0.49 32.882 0.083 6.59 3.6 13.26
12/20/2020 6:15:00 AM 0.48 32.864 0.083 6.58 3.51 13.25
12/20/2020 6:30:00 AM 0.48 32.864 0.083 6.58 3.45 13.24
12/20/2020 6:45:00 AM 0.48 32.864 0.083 6.58 3.58 13.22
12/20/2020 7:00:00 AM 0.48 32.864 0.083 6.57 3.65 13.22
12/20/2020 7:15:00 AM 0.47 32.846 0.083 6.58 3.67 13.22
12/20/2020 7:30:00 AM 0.47 32.846 0.083 6.58 3.48 13.21
12/20/2020 7:45:00 AM 0.47 32.846 0.083 6.57 3.49 13.2
12/20/2020 8:00:00 AM 0.47 32.846 0.083 6.58 3.41 13.19
12/20/2020 8:15:00 AM 0.47 32.846 0.083 6.57 3.54 13.19
12/20/2020 8:30:00 AM 0.47 32.846 0.083 6.57 3.52 13.19
12/20/2020 8:45:00 AM 0.48 32.864 0.083 6.57 3.51 13.18
12/20/2020 9:00:00 AM 0.48 32.864 0.083 6.57 3.35 13.18
12/20/2020 9:15:00 AM 0.48 32.864 0.083 6.57 3.33 13.19
12/20/2020 9:30:00 AM 0.49 32.882 0.083 6.57 3.42 13.18
12/20/2020 9:45:00 AM 0.49 32.882 0.083 6.57 3.4 13.19
12/20/2020 10:00:00 AM 0.49 32.882 0.083 6.57 3.38 13.19
12/20/2020 10:15:00 AM 0.5 32.9 0.083 6.57 3.37 13.19
12/20/2020 10:30:00 AM 0.51 32.918 0.083 6.57 3.4 13.19
12/20/2020 10:45:00 AM 0.51 32.918 0.083 6.57 3.28 13.2
12/20/2020 11:00:00 AM 0.52 32.936 0.083 6.57 3.26 13.2
12/20/2020 11:15:00 AM 0.52 32.936 0.083 6.57 3.38 13.21
12/20/2020 11:30:00 AM 0.52 32.936 0.083 6.58 3.38 13.21
12/20/2020 11:45:00 AM 0.53 32.954 0.083 6.58 3.35 13.23
12/20/2020 12:00:00 PM 0.53 32.954 0.083 6.58 3.43 13.24
12/20/2020 12:15:00 PM 0.54 32.972 0.083 6.58 3.54 13.25
12/20/2020 12:30:00 PM 0.55 32.99 0.083 6.58 3.53 13.24
12/20/2020 12:45:00 PM 0.55 32.99 0.083 6.58 3.36 13.26
12/20/2020 1:00:00 PM 0.56 33.008 0.083 6.58 3.66 13.27
12/20/2020 1:15:00 PM 0.57 33.026 0.083 6.58 3.6 13.27
12/20/2020 1:30:00 PM 0.57 33.026 0.084 6.58 3.72 13.27
12/20/2020 1:45:00 PM 0.58 33.044 0.084 6.58 3.55 13.29
12/20/2020 2:00:00 PM 0.59 33.062 0.084 6.58 3.57 13.28
12/20/2020 2:15:00 PM 0.6 33.08 0.084 6.58 3.54 13.29
12/20/2020 2:30:00 PM 0.61 33.098 0.084 6.58 3.71 13.3
12/20/2020 2:45:00 PM 0.62 33.116 0.084 6.59 3.63 13.3
12/20/2020 3:00:00 PM 0.63 33.134 0.085 6.59 3.46 13.31
12/20/2020 3:15:00 PM 0.63 33.134 0.085 6.59 3.65 13.31
12/20/2020 3:30:00 PM 0.64 33.152 0.085 6.6 3.54 13.32
12/20/2020 3:45:00 PM 0.64 33.152 0.085 6.6 3.64 13.32
12/20/2020 4:00:00 PM 0.65 33.17 0.085 6.59 3.69 13.32
12/20/2020 4:15:00 PM 0.66 33.188 0.085 6.59 3.6 13.32
12/20/2020 4:30:00 PM 0.67 33.206 0.085 6.59 3.87 13.32
12/20/2020 4:45:00 PM 0.67 33.206 0.085 6.59 4 13.33
12/20/2020 5:00:00 PM 0.67 33.206 0.085 6.6 3.84 13.34
12/20/2020 5:15:00 PM 0.68 33.224 0.085 6.6 3.76 13.33
12/20/2020 5:30:00 PM 0.68 33.224 0.086 6.6 3.83 13.33
12/20/2020 5:45:00 PM 0.69 33.242 0.086 6.6 3.69 13.33
12/20/2020 6:00:00 PM 0.69 33.242 0.086 6.6 3.9 13.34
12/20/2020 6:15:00 PM 0.69 33.242 0.086 6.6 3.84 13.35
12/20/2020 6:30:00 PM 0.69 33.242 0.086 6.6 4.21 13.35
12/20/2020 6:45:00 PM 0.69 33.242 0.086 6.6 3.86 13.36
12/20/2020 7:00:00 PM 0.7 33.26 0.086 6.6 3.81 13.36
12/20/2020 7:15:00 PM 0.7 33.26 0.086 6.6 3.76 13.36
12/20/2020 7:30:00 PM 0.7 33.26 0.086 6.6 3.63 13.36
12/20/2020 7:45:00 PM 0.7 33.26 0.086 6.6 3.56 13.34
12/20/2020 8:00:00 PM 0.7 33.26 0.086 6.59 4.15 13.35
12/20/2020 8:15:00 PM 0.7 33.26 0.086 6.59 4 13.35
12/20/2020 8:30:00 PM 0.7 33.26 0.086 6.59 3.82 13.34
12/20/2020 8:45:00 PM 0.7 33.26 0.086 6.59 3.86 13.35
12/20/2020 9:00:00 PM 0.7 33.26 0.085 6.59 3.73 13.34
12/20/2020 9:15:00 PM 0.7 33.26 0.085 6.59 3.86 13.34
12/20/2020 9:30:00 PM 0.7 33.26 0.085 6.59 3.85 13.33
12/20/2020 9:45:00 PM 0.69 33.242 0.085 6.59 3.71 13.32
12/20/2020 10:00:00 PM 0.69 33.242 0.085 6.58 3.74 13.31
12/20/2020 10:15:00 PM 0.7 33.26 0.085 6.58 3.74 13.31
12/20/2020 10:30:00 PM 0.69 33.242 0.085 6.58 4.15 13.29
12/20/2020 10:45:00 PM 0.69 33.242 0.085 6.57 3.97 13.28
12/20/2020 11:00:00 PM 0.69 33.242 0.085 6.58 3.93 13.27
12/20/2020 11:15:00 PM 0.69 33.242 0.085 6.58 4.07 13.26
12/20/2020 11:30:00 PM 0.69 33.242 0.085 6.58 3.97 13.24
12/20/2020 11:45:00 PM 0.69 33.242 0.085 6.57 3.76 13.23
12/21/2020 12:00:00 AM 0.68 33.224 0.085 6.57 4.16 13.22
12/21/2020 12:15:00 AM 0.68 33.224 0.085 6.57 3.93 13.21
12/21/2020 12:30:00 AM 0.67 33.206 0.085 6.57 3.9 13.2
12/21/2020 12:45:00 AM 0.67 33.206 0.085 6.57 3.76 13.18
12/21/2020 1:00:00 AM 0.67 33.206 0.085 6.57 3.98 13.17
12/21/2020 1:15:00 AM 0.67 33.206 0.085 6.56 3.87 13.16
12/21/2020 1:30:00 AM 0.66 33.188 0.085 6.56 3.72 13.15
12/21/2020 1:45:00 AM 0.66 33.188 0.085 6.56 3.66 13.13
12/21/2020 2:00:00 AM 0.66 33.188 0.085 6.55 3.68 13.12
12/21/2020 2:15:00 AM 0.65 33.17 0.085 6.55 3.79 13.1
12/21/2020 2:30:00 AM 0.65 33.17 0.085 6.56 3.67 13.1
12/21/2020 2:45:00 AM 0.65 33.17 0.085 6.55 3.66 13.08
12/21/2020 3:00:00 AM 0.65 33.17 0.085 6.55 3.76 13.07
12/21/2020 3:15:00 AM 0.64 33.152 0.085 6.55 3.66 13.06
12/21/2020 3:30:00 AM 0.64 33.152 0.085 6.55 3.73 13.05
12/21/2020 3:45:00 AM 0.64 33.152 0.085 6.54 3.68 13.04
12/21/2020 4:00:00 AM 0.64 33.152 0.085 6.54 3.89 13.01
12/21/2020 4:15:00 AM 0.64 33.152 0.085 6.54 3.7 13.01
12/21/2020 4:30:00 AM 0.64 33.152 0.085 6.54 4.15 13.01
12/21/2020 4:45:00 AM 0.64 33.152 0.085 6.54 3.66 13
12/21/2020 5:00:00 AM 0.64 33.152 0.085 6.54 3.76 12.98
12/21/2020 5:15:00 AM 0.63 33.134 0.084 6.54 3.61 12.97
12/21/2020 5:30:00 AM 0.63 33.134 0.084 6.53 3.62 12.97
12/21/2020 5:45:00 AM 0.63 33.134 0.084 6.54 3.69 12.96
12/21/2020 6:00:00 AM 0.63 33.134 0.084 6.54 3.6 12.96
12/21/2020 6:15:00 AM 0.62 33.116 0.084 6.53 3.65 12.96
12/21/2020 6:30:00 AM 0.62 33.116 0.084 6.53 3.91 12.95
12/21/2020 6:45:00 AM 0.62 33.116 0.084 6.53 3.71 12.95
12/21/2020 7:00:00 AM 0.62 33.116 0.084 6.53 3.63 12.94
12/21/2020 7:15:00 AM 0.62 33.116 0.084 6.53 3.73 12.95
12/21/2020 7:30:00 AM 0.62 33.116 0.084 6.53 3.64 12.94
12/21/2020 7:45:00 AM 0.62 33.116 0.084 6.53 3.62 12.94
12/21/2020 8:00:00 AM 0.62 33.116 0.084 6.52 4.77 12.93
12/21/2020 8:15:00 AM 0.62 33.116 0.084 6.53 3.65 12.94
12/21/2020 8:30:00 AM 0.62 33.116 0.084 6.53 3.45 12.94
12/21/2020 8:45:00 AM 0.62 33.116 0.083 6.53 3.56 12.93
12/21/2020 9:00:00 AM 0.62 33.116 0.083 6.53 3.46 12.95
12/21/2020 9:15:00 AM 0.62 33.116 0.083 6.53 3.63 12.94
12/21/2020 9:30:00 AM 0.62 33.116 0.083 6.53 3.5 12.94
12/21/2020 9:45:00 AM 0.62 33.116 0.083 6.53 3.38 12.95
12/21/2020 10:00:00 AM 0.62 33.116 0.083 6.53 3.43 12.95
12/21/2020 10:15:00 AM 0.63 33.134 0.083 6.53 3.46 12.96
12/21/2020 10:30:00 AM 0.64 33.152 0.083 6.53 3.47 12.97
12/21/2020 10:45:00 AM 0.64 33.152 0.083 6.53 3.37 12.98
12/21/2020 11:00:00 AM 0.64 33.152 0.083 6.53 3.4 12.98
12/21/2020 11:15:00 AM 0.65 33.17 0.083 6.53 3.73 12.99
12/21/2020 11:30:00 AM 0.65 33.17 0.083 6.54 3.41 12.99
12/21/2020 11:45:00 AM 0.65 33.17 0.083 6.54 3.56 13.01
12/21/2020 12:00:00 PM 0.66 33.188 0.083 6.54 3.44 13.03
12/21/2020 12:15:00 PM 0.67 33.206 0.083 6.54 3.41 13.05
12/21/2020 12:30:00 PM 0.68 33.224 0.083 6.54 3.43 13.05
12/21/2020 12:45:00 PM 0.69 33.242 0.083 6.55 3.48 13.09
12/21/2020 1:00:00 PM 0.7 33.26 0.083 6.55 3.41 13.1
12/21/2020 1:15:00 PM 0.7 33.26 0.083 6.55 3.54 13.11
12/21/2020 1:30:00 PM 0.72 33.296 0.083 6.55 3.38 13.12
12/21/2020 1:45:00 PM 0.73 33.314 0.083 6.55 3.34 13.12
12/21/2020 2:00:00 PM 0.74 33.332 0.083 6.55 3.44 13.14
12/21/2020 2:15:00 PM 0.76 33.368 0.083 6.56 3.55 13.15
12/21/2020 2:30:00 PM 0.78 33.404 0.083 6.56 3.35 13.17
12/21/2020 2:45:00 PM 0.79 33.422 0.083 6.56 3.42 13.18
12/21/2020 3:00:00 PM 0.81 33.458 0.083 6.56 3.34 13.18
12/21/2020 3:15:00 PM 0.82 33.476 0.083 6.57 3.36 13.21
12/21/2020 3:30:00 PM 0.84 33.512 0.083 6.56 3.45 13.22
12/21/2020 3:45:00 PM 0.86 33.548 0.083 6.56 3.54 13.24
12/21/2020 4:00:00 PM 0.87 33.566 0.083 6.56 3.55 13.24
12/21/2020 4:15:00 PM 0.89 33.602 0.083 6.56 3.64 13.27
12/21/2020 4:30:00 PM 0.9 33.62 0.083 6.57 3.43 13.27
12/21/2020 4:45:00 PM 0.92 33.656 0.083 6.57 3.39 13.29
12/21/2020 5:00:00 PM 0.94 33.692 0.083 6.57 3.41 13.31
12/21/2020 5:15:00 PM 0.95 33.71 0.083 6.57 3.47 13.32
12/21/2020 5:30:00 PM 0.97 33.746 0.083 6.58 3.46 13.33
12/21/2020 5:45:00 PM 0.98 33.764 0.083 6.58 3.39 13.35
12/21/2020 6:00:00 PM 1 33.8 0.083 6.58 3.45 13.38
12/21/2020 6:15:00 PM 1 33.8 0.083 6.58 3.35 13.39
12/21/2020 6:30:00 PM 1 33.8 0.082 6.59 3.4 13.4
12/21/2020 6:45:00 PM 0.99 33.782 0.082 6.59 3.46 13.43
12/21/2020 7:00:00 PM 0.99 33.782 0.082 6.59 3.42 13.44
12/21/2020 7:15:00 PM 0.99 33.782 0.082 6.59 3.32 13.44
12/21/2020 7:30:00 PM 0.98 33.764 0.082 6.59 3.36 13.45
12/21/2020 7:45:00 PM 0.97 33.746 0.082 6.59 3.72 13.45
12/21/2020 8:00:00 PM 0.98 33.764 0.082 6.59 3.63 13.46
12/21/2020 8:15:00 PM 0.97 33.746 0.082 6.59 3.75 13.46
12/21/2020 8:30:00 PM 0.97 33.746 0.082 6.59 3.81 13.45
12/21/2020 8:45:00 PM 0.97 33.746 0.082 6.59 3.71 13.46
12/21/2020 9:00:00 PM 0.97 33.746 0.082 6.59 3.63 13.46
12/21/2020 9:15:00 PM 0.97 33.746 0.082 6.6 3.61 13.46
12/21/2020 9:30:00 PM 0.97 33.746 0.082 6.59 3.47 13.45
12/21/2020 9:45:00 PM 0.97 33.746 0.082 6.59 3.57 13.44
12/21/2020 10:00:00 PM 0.96 33.728 0.082 6.6 3.4 13.44
12/21/2020 10:15:00 PM 0.96 33.728 0.082 6.59 3.44 13.44
12/21/2020 10:30:00 PM 0.96 33.728 0.082 6.59 3.35 13.43
12/21/2020 10:45:00 PM 0.95 33.71 0.082 6.59 3.37 13.42
12/21/2020 11:00:00 PM 0.94 33.692 0.082 6.59 3.49 13.41
12/21/2020 11:15:00 PM 0.94 33.692 0.082 6.59 3.31 13.4
12/21/2020 11:30:00 PM 0.93 33.674 0.082 6.59 3.53 13.39
12/21/2020 11:45:00 PM 0.93 33.674 0.082 6.59 3.43 13.38
12/22/2020 12:00:00 AM 0.91 33.638 0.083 6.59 3.49 13.36
12/22/2020 12:15:00 AM 0.91 33.638 0.083 6.59 3.91 13.35
12/22/2020 12:30:00 AM 0.9 33.62 0.083 6.58 3.72 13.33
12/22/2020 12:45:00 AM 0.89 33.602 0.083 6.58 3.62 13.32
12/22/2020 1:00:00 AM 0.88 33.584 0.083 6.58 3.53 13.3
12/22/2020 1:15:00 AM 0.88 33.584 0.083 6.57 3.64 13.29
12/22/2020 1:30:00 AM 0.87 33.566 0.083 6.58 3.87 13.27
12/22/2020 1:45:00 AM 0.86 33.548 0.083 6.57 3.82 13.25
12/22/2020 2:00:00 AM 0.85 33.53 0.083 6.57 3.59 13.24
12/22/2020 2:15:00 AM 0.84 33.512 0.083 6.57 3.53 13.22
12/22/2020 2:30:00 AM 0.83 33.494 0.083 6.58 3.49 13.2
12/22/2020 2:45:00 AM 0.82 33.476 0.083 6.57 3.5 13.19
12/22/2020 3:00:00 AM 0.81 33.458 0.083 6.56 3.71 13.16
12/22/2020 3:15:00 AM 0.8 33.44 0.083 6.57 3.73 13.15
12/22/2020 3:30:00 AM 0.79 33.422 0.083 6.56 3.84 13.13
12/22/2020 3:45:00 AM 0.78 33.404 0.083 6.56 3.7 13.11
12/22/2020 4:00:00 AM 0.77 33.386 0.083 6.56 3.9 13.09
12/22/2020 4:15:00 AM 0.76 33.368 0.083 6.56 3.7 13.07
12/22/2020 4:30:00 AM 0.76 33.368 0.083 6.55 3.65 13.06
12/22/2020 4:45:00 AM 0.75 33.35 0.083 6.55 3.77 13.04
12/22/2020 5:00:00 AM 0.74 33.332 0.083 6.55 3.61 13.02
12/22/2020 5:15:00 AM 0.73 33.314 0.083 6.54 3.72 13
12/22/2020 5:30:00 AM 0.72 33.296 0.083 6.54 3.83 12.99
12/22/2020 5:45:00 AM 0.72 33.296 0.083 6.54 3.97 12.97
12/22/2020 6:00:00 AM 0.71 33.278 0.083 6.54 3.74 12.96
12/22/2020 6:15:00 AM 0.71 33.278 0.083 6.54 3.61 12.95
12/22/2020 6:30:00 AM 0.7 33.26 0.083 6.54 3.63 12.94
12/22/2020 6:45:00 AM 0.69 33.242 0.083 6.54 3.82 12.92
12/22/2020 7:00:00 AM 0.69 33.242 0.083 6.54 3.7 12.92
12/22/2020 7:15:00 AM 0.68 33.224 0.083 6.53 3.78 12.91
12/22/2020 7:30:00 AM 0.68 33.224 0.083 6.53 3.63 12.9
12/22/2020 7:45:00 AM 0.67 33.206 0.083 6.53 3.56 12.89
12/22/2020 8:00:00 AM 0.67 33.206 0.083 6.53 3.63 12.88
12/22/2020 8:15:00 AM 0.67 33.206 0.083 6.53 3.72 12.87
12/22/2020 8:30:00 AM 0.67 33.206 0.083 6.53 3.45 12.87
12/22/2020 8:45:00 AM 0.67 33.206 0.083 6.53 4.13 12.87
12/22/2020 9:00:00 AM 0.67 33.206 0.083 6.54 3.71 12.87
12/22/2020 9:15:00 AM 0.67 33.206 0.083 6.53 3.5 12.86
12/22/2020 9:30:00 AM 0.67 33.206 0.083 6.54 3.57 12.87
12/22/2020 9:45:00 AM 0.67 33.206 0.083 6.53 3.43 12.89
12/22/2020 10:00:00 AM 0.67 33.206 0.082 6.54 3.51 12.88
12/22/2020 10:15:00 AM 0.67 33.206 0.082 6.53 3.36 12.89
12/22/2020 10:30:00 AM 0.67 33.206 0.082 6.53 3.44 12.9
12/22/2020 10:45:00 AM 0.67 33.206 0.082 6.53 3.37 12.89
12/22/2020 11:00:00 AM 0.67 33.206 0.082 6.53 3.41 12.9
12/22/2020 11:15:00 AM 0.67 33.206 0.082 6.53 3.4 12.89
12/22/2020 11:30:00 AM 0.68 33.224 0.082 6.54 3.41 12.91
12/22/2020 11:45:00 AM 0.69 33.242 0.082 6.54 3.78 12.93
12/22/2020 12:00:00 PM 0.7 33.26 0.082 6.54 3.4 12.93
12/22/2020 12:15:00 PM 0.72 33.296 0.082 6.54 3.53 12.95
12/22/2020 12:30:00 PM 0.72 33.296 0.082 6.54 3.32 12.94
12/22/2020 12:45:00 PM 0.72 33.296 0.082 6.54 3.43 12.96
12/22/2020 1:00:00 PM 0.72 33.296 0.082 6.54 3.31 12.95
12/22/2020 1:15:00 PM 0.72 33.296 0.082 6.54 3.36 12.96
12/22/2020 1:30:00 PM 0.72 33.296 0.082 6.55 3.31 12.96
12/22/2020 1:45:00 PM 0.72 33.296 0.082 6.54 3.3 12.96
12/22/2020 2:00:00 PM 0.73 33.314 0.082 6.54 3.29 12.97
12/22/2020 2:15:00 PM 0.73 33.314 0.082 6.55 3.43 12.98
12/22/2020 2:30:00 PM 0.74 33.332 0.082 6.55 3.38 13
12/22/2020 2:45:00 PM 0.75 33.35 0.082 6.55 3.46 13.02
12/22/2020 3:00:00 PM 0.76 33.368 0.082 6.56 3.2 13.05
12/22/2020 3:15:00 PM 0.76 33.368 0.082 6.56 3.34 13.06
12/22/2020 3:30:00 PM 0.76 33.368 0.082 6.56 3.37 13.06
12/22/2020 3:45:00 PM 0.76 33.368 0.082 6.56 3.57 13.05
12/22/2020 4:00:00 PM 0.76 33.368 0.082 6.55 3.37 13.08
12/22/2020 4:15:00 PM 0.76 33.368 0.082 6.57 3.46 13.09
12/22/2020 4:30:00 PM 0.75 33.35 0.082 6.58 3.45 13.11
12/22/2020 4:45:00 PM 0.75 33.35 0.082 6.58 3.35 13.11
12/22/2020 5:00:00 PM 0.75 33.35 0.082 6.58 3.35 13.12
12/22/2020 5:15:00 PM 0.75 33.35 0.082 6.58 3.55 13.12
12/22/2020 5:30:00 PM 0.75 33.35 0.082 6.58 3.45 13.13
12/22/2020 5:45:00 PM 0.75 33.35 0.082 6.58 3.38 13.13
12/22/2020 6:00:00 PM 0.75 33.35 0.082 6.58 3.44 13.14
12/22/2020 6:15:00 PM 0.75 33.35 0.082 6.59 3.46 13.16
12/22/2020 6:30:00 PM 0.74 33.332 0.082 6.58 3.46 13.16
12/22/2020 6:45:00 PM 0.74 33.332 0.082 6.59 3.45 13.17
12/22/2020 7:00:00 PM 0.74 33.332 0.082 6.59 3.45 13.18
12/22/2020 7:15:00 PM 0.73 33.314 0.082 6.59 3.47 13.2
12/22/2020 7:30:00 PM 0.73 33.314 0.082 6.6 3.49 13.2
12/22/2020 7:45:00 PM 0.73 33.314 0.082 6.6 3.46 13.19
12/22/2020 8:00:00 PM 0.72 33.296 0.082 6.59 3.39 13.2
12/22/2020 8:15:00 PM 0.72 33.296 0.082 6.6 3.44 13.21
12/22/2020 8:30:00 PM 0.72 33.296 0.082 6.6 3.5 13.21
12/22/2020 8:45:00 PM 0.72 33.296 0.082 6.6 3.7 13.2
12/22/2020 9:00:00 PM 0.71 33.278 0.082 6.6 3.52 13.2
12/22/2020 9:15:00 PM 0.7 33.26 0.082 6.61 3.5 13.22
12/22/2020 9:30:00 PM 0.7 33.26 0.082 6.6 3.77 13.21
12/22/2020 9:45:00 PM 0.69 33.242 0.082 6.6 3.81 13.21
12/22/2020 10:00:00 PM 0.69 33.242 0.082 6.6 3.66 13.22
12/22/2020 10:15:00 PM 0.68 33.224 0.082 6.61 4.15 13.22
12/22/2020 10:30:00 PM 0.68 33.224 0.082 6.61 3.61 13.22
12/22/2020 10:45:00 PM 0.67 33.206 0.082 6.6 3.73 13.21
12/22/2020 11:00:00 PM 0.67 33.206 0.082 6.6 3.77 13.22
12/22/2020 11:15:00 PM 0.66 33.188 0.082 6.61 3.85 13.23
12/22/2020 11:30:00 PM 0.66 33.188 0.082 6.6 3.93 13.22
12/22/2020 11:45:00 PM 0.65 33.17 0.082 6.6 3.71 13.22
12/23/2020 12:00:00 AM 0.65 33.17 0.082 6.6 3.73 13.2
12/23/2020 12:15:00 AM 0.64 33.152 0.082 6.6 3.66 13.2
12/23/2020 12:30:00 AM 0.63 33.134 0.082 6.6 3.61 13.19
12/23/2020 12:45:00 AM 0.62 33.116 0.082 6.6 3.59 13.19
12/23/2020 1:00:00 AM 0.61 33.098 0.082 6.6 3.63 13.19
12/23/2020 1:15:00 AM 0.61 33.098 0.082 6.61 3.71 13.18
12/23/2020 1:30:00 AM 0.6 33.08 0.082 6.6 3.7 13.17
12/23/2020 1:45:00 AM 0.59 33.062 0.082 6.6 3.74 13.17
12/23/2020 2:00:00 AM 0.58 33.044 0.082 6.6 3.7 13.15
12/23/2020 2:15:00 AM 0.57 33.026 0.082 6.59 3.68 13.15
12/23/2020 2:30:00 AM 0.56 33.008 0.082 6.6 3.83 13.14
12/23/2020 2:45:00 AM 0.56 33.008 0.082 6.59 3.65 13.14
12/23/2020 3:00:00 AM 0.55 32.99 0.083 6.59 3.68 13.12
12/23/2020 3:15:00 AM 0.55 32.99 0.083 6.59 3.71 13.12
12/23/2020 3:30:00 AM 0.55 32.99 0.083 6.59 3.69 13.1
12/23/2020 3:45:00 AM 0.54 32.972 0.083 6.59 3.73 13.1
12/23/2020 4:00:00 AM 0.54 32.972 0.083 6.59 3.58 13.1
12/23/2020 4:15:00 AM 0.53 32.954 0.083 6.59 3.61 13.09
12/23/2020 4:30:00 AM 0.52 32.936 0.083 6.58 3.73 13.08
12/23/2020 4:45:00 AM 0.5 32.9 0.083 6.58 3.7 13.07
12/23/2020 5:00:00 AM 0.49 32.882 0.083 6.58 3.55 13.08
12/23/2020 5:15:00 AM 0.47 32.846 0.083 6.58 3.63 13.09
12/23/2020 5:30:00 AM 0.47 32.846 0.083 6.58 3.57 13.07
12/23/2020 5:45:00 AM 0.46 32.828 0.083 6.58 3.65 13.06
12/23/2020 6:00:00 AM 0.47 32.846 0.083 6.58 3.6 13.05
12/23/2020 6:15:00 AM 0.46 32.828 0.083 6.58 3.52 13.05
12/23/2020 6:30:00 AM 0.45 32.81 0.083 6.58 3.5 13.03
12/23/2020 6:45:00 AM 0.44 32.792 0.083 6.57 3.64 13.02
12/23/2020 7:00:00 AM 0.44 32.792 0.083 6.57 3.47 13.01
12/23/2020 7:15:00 AM 0.43 32.774 0.083 6.56 3.68 13
12/23/2020 7:30:00 AM 0.42 32.756 0.083 6.57 3.61 13
12/23/2020 7:45:00 AM 0.42 32.756 0.083 6.56 3.55 13
12/23/2020 8:00:00 AM 0.42 32.756 0.083 6.56 3.45 12.99
12/23/2020 8:15:00 AM 0.41 32.738 0.083 6.57 3.41 13.01
12/23/2020 8:30:00 AM 0.41 32.738 0.083 6.56 3.33 13
12/23/2020 8:45:00 AM 0.41 32.738 0.083 6.56 3.6 13.01
12/23/2020 9:00:00 AM 0.42 32.756 0.083 6.56 3.33 13.01
12/23/2020 9:15:00 AM 0.43 32.774 0.082 6.56 3.34 13.01
12/23/2020 9:30:00 AM 0.44 32.792 0.082 6.56 3.38 13.01
12/23/2020 9:45:00 AM 0.46 32.828 0.082 6.56 3.28 13.01
12/23/2020 10:00:00 AM 0.47 32.846 0.082 6.56 3.36 13.01
12/23/2020 10:15:00 AM 0.49 32.882 0.082 6.56 3.53 13
12/23/2020 10:30:00 AM 0.5 32.9 0.082 6.56 3.36 13.02
12/23/2020 10:45:00 AM 0.51 32.918 0.082 6.56 3.47 13.02
12/23/2020 11:00:00 AM 0.51 32.918 0.082 6.56 3.28 13.03
12/23/2020 11:15:00 AM 0.52 32.936 0.082 6.56 3.44 13.03
12/23/2020 11:30:00 AM 0.53 32.954 0.082 6.56 3.34 13.06
12/23/2020 11:45:00 AM 0.54 32.972 0.082 6.56 3.32 13.07
12/23/2020 12:00:00 PM 0.56 33.008 0.082 6.56 3.34 13.09
12/23/2020 12:15:00 PM 0.58 33.044 0.082 6.56 3.35 13.11
12/23/2020 12:30:00 PM 0.61 33.098 0.082 6.56 3.35 13.13
12/23/2020 12:45:00 PM 0.62 33.116 0.082 6.57 3.29 13.13
12/23/2020 1:00:00 PM 0.64 33.152 0.082 6.57 3.3 13.15
12/23/2020 1:15:00 PM 0.67 33.206 0.082 6.57 3.34 13.16
12/23/2020 1:30:00 PM 0.69 33.242 0.082 6.56 3.26 13.18
12/23/2020 1:45:00 PM 0.71 33.278 0.082 6.56 3.29 13.19
12/23/2020 2:00:00 PM 0.74 33.332 0.082 6.56 3.52 13.2
12/23/2020 2:15:00 PM 0.76 33.368 0.082 6.57 3.32 13.24
12/23/2020 2:30:00 PM 0.79 33.422 0.082 6.57 3.29 13.26
12/23/2020 2:45:00 PM 0.8 33.44 0.082 6.57 3.36 13.28
12/23/2020 3:00:00 PM 0.81 33.458 0.082 6.57 3.33 13.3
12/23/2020 3:15:00 PM 0.86 33.548 0.082 6.58 3.33 13.32
12/23/2020 3:30:00 PM 0.89 33.602 0.081 6.58 3.3 13.35
12/23/2020 3:45:00 PM 0.92 33.656 0.081 6.58 3.33 13.37
12/23/2020 4:00:00 PM 0.94 33.692 0.081 6.59 3.37 13.39
12/23/2020 4:15:00 PM 0.97 33.746 0.081 6.59 3.44 13.42
12/23/2020 4:30:00 PM 0.98 33.764 0.081 6.59 3.34 13.42
12/23/2020 4:45:00 PM 0.99 33.782 0.081 6.59 3.4 13.43
12/23/2020 5:00:00 PM 1.01 33.818 0.081 6.6 3.49 13.45
12/23/2020 5:15:00 PM 1.02 33.836 0.081 6.6 3.54 13.47
12/23/2020 5:30:00 PM 1.04 33.872 0.081 6.6 3.51 13.49
12/23/2020 5:45:00 PM 1.03 33.854 0.081 6.6 3.55 13.5
12/23/2020 6:00:00 PM 1.05 33.89 0.081 6.61 3.46 13.51
12/23/2020 6:15:00 PM 1.05 33.89 0.081 6.61 3.51 13.55
12/23/2020 6:30:00 PM 1.05 33.89 0.081 6.61 3.52 13.56
12/23/2020 6:45:00 PM 1.04 33.872 0.081 6.61 3.76 13.58
12/23/2020 7:00:00 PM 1.03 33.854 0.081 6.61 3.7 13.58
12/23/2020 7:15:00 PM 1.03 33.854 0.081 6.62 3.71 13.61
12/23/2020 7:30:00 PM 1.02 33.836 0.081 6.62 3.58 13.6
12/23/2020 7:45:00 PM 1.01 33.818 0.081 6.62 3.5 13.6
12/23/2020 8:00:00 PM 1 33.8 0.081 6.61 3.59 13.6
12/23/2020 8:15:00 PM 0.99 33.782 0.081 6.61 3.84 13.6
12/23/2020 8:30:00 PM 0.97 33.746 0.081 6.61 3.84 13.57
12/23/2020 8:45:00 PM 0.96 33.728 0.082 6.61 3.6 13.56
12/23/2020 9:00:00 PM 0.96 33.728 0.082 6.61 3.6 13.55
12/23/2020 9:15:00 PM 0.94 33.692 0.082 6.61 3.52 13.54
12/23/2020 9:30:00 PM 0.94 33.692 0.082 6.61 3.66 13.54
12/23/2020 9:45:00 PM 0.93 33.674 0.082 6.61 3.62 13.55
12/23/2020 10:00:00 PM 0.94 33.692 0.081 6.61 3.88 13.52
12/23/2020 10:15:00 PM 0.94 33.692 0.081 6.61 3.93 13.53
12/23/2020 10:30:00 PM 0.92 33.656 0.081 6.61 3.66 13.54
12/23/2020 10:45:00 PM 0.91 33.638 0.082 6.61 3.79 13.52
12/23/2020 11:00:00 PM 0.91 33.638 0.082 6.6 3.71 13.51
12/23/2020 11:15:00 PM 0.91 33.638 0.082 6.6 4.09 13.5
12/23/2020 11:30:00 PM 0.91 33.638 0.082 6.61 4 13.49
12/23/2020 11:45:00 PM 0.9 33.62 0.082 6.6 4.28 13.47
12/24/2020 12:00:00 AM 0.89 33.602 0.082 6.6 4.58 13.45
12/24/2020 12:15:00 AM 0.89 33.602 0.082 6.59 4.04 13.45
12/24/2020 12:30:00 AM 0.88 33.584 0.082 6.6 3.95 13.44
12/24/2020 12:45:00 AM 0.88 33.584 0.082 6.59 3.95 13.42
12/24/2020 1:00:00 AM 0.87 33.566 0.082 6.6 3.68 13.4
12/24/2020 1:15:00 AM 0.87 33.566 0.082 6.59 3.62 13.38
12/24/2020 1:30:00 AM 0.86 33.548 0.082 6.59 3.68 13.37
12/24/2020 1:45:00 AM 0.85 33.53 0.082 6.59 4.74 13.36
12/24/2020 2:00:00 AM 0.84 33.512 0.082 6.59 4.35 13.35
12/24/2020 2:15:00 AM 0.83 33.494 0.082 6.58 4.61 13.33
12/24/2020 2:30:00 AM 0.82 33.476 0.082 6.58 4.14 13.32
12/24/2020 2:45:00 AM 0.82 33.476 0.082 6.58 3.84 13.31
12/24/2020 3:00:00 AM 0.81 33.458 0.082 6.58 3.84 13.29
12/24/2020 3:15:00 AM 0.8 33.44 0.082 6.57 3.66 13.27
12/24/2020 3:30:00 AM 0.79 33.422 0.082 6.58 3.56 13.26
12/24/2020 3:45:00 AM 0.78 33.404 0.082 6.57 3.49 13.25
12/24/2020 4:00:00 AM 0.77 33.386 0.082 6.58 3.54 13.24
12/24/2020 4:15:00 AM 0.76 33.368 0.082 6.58 3.67 13.22
12/24/2020 4:30:00 AM 0.75 33.35 0.082 6.57 3.7 13.2
12/24/2020 4:45:00 AM 0.74 33.332 0.082 6.57 3.99 13.19
12/24/2020 5:00:00 AM 0.73 33.314 0.082 6.57 3.85 13.18
12/24/2020 5:15:00 AM 0.72 33.296 0.082 6.57 3.72 13.15
12/24/2020 5:30:00 AM 0.72 33.296 0.082 6.56 3.68 13.16
12/24/2020 5:45:00 AM 0.71 33.278 0.082 6.57 4.22 13.14
12/24/2020 6:00:00 AM 0.71 33.278 0.082 6.56 3.49 13.12
12/24/2020 6:15:00 AM 0.71 33.278 0.082 6.56 3.54 13.1
12/24/2020 6:30:00 AM 0.7 33.26 0.082 6.56 3.77 13.08
12/24/2020 6:45:00 AM 0.7 33.26 0.082 6.56 3.57 13.06
12/24/2020 7:00:00 AM 0.7 33.26 0.082 6.56 3.6 13.06
12/24/2020 7:15:00 AM 0.7 33.26 0.082 6.56 3.84 13.06
12/24/2020 7:30:00 AM 0.7 33.26 0.082 6.57 3.37 13.05
12/24/2020 7:45:00 AM 0.7 33.26 0.082 6.56 3.51 13.04
12/24/2020 8:00:00 AM 0.71 33.278 0.082 6.56 3.49 13.02
12/24/2020 8:15:00 AM 0.71 33.278 0.082 6.56 3.37 13
12/24/2020 8:30:00 AM 0.72 33.296 0.082 6.56 3.29 12.99
12/24/2020 8:45:00 AM 0.73 33.314 0.083 6.55 3.4 12.97
12/24/2020 9:00:00 AM 0.74 33.332 0.083 6.56 3.45 12.96
12/24/2020 9:15:00 AM 0.74 33.332 0.083 6.55 3.41 12.95
12/24/2020 9:30:00 AM 0.75 33.35 0.083 6.55 3.34 12.96
12/24/2020 9:45:00 AM 0.76 33.368 0.083 6.55 3.44 12.95
12/24/2020 10:00:00 AM 0.77 33.386 0.083 6.55 3.6 12.94
12/24/2020 10:15:00 AM 0.78 33.404 0.083 6.55 3.4 12.93
12/24/2020 10:30:00 AM 0.79 33.422 0.083 6.55 3.45 12.9
12/24/2020 10:45:00 AM 0.79 33.422 0.083 6.55 3.35 12.87
12/24/2020 11:00:00 AM 0.81 33.458 0.083 6.55 3.41 12.86
12/24/2020 11:15:00 AM 0.82 33.476 0.083 6.55 3.33 12.86
12/24/2020 11:30:00 AM 0.85 33.53 0.083 6.55 3.28 12.86
12/24/2020 11:45:00 AM 0.87 33.566 0.083 6.55 3.4 12.84
12/24/2020 12:00:00 PM 0.88 33.584 0.083 6.55 3.37 12.85
12/24/2020 12:15:00 PM 0.9 33.62 0.082 6.55 3.27 12.85
12/24/2020 12:30:00 PM 0.91 33.638 0.082 6.55 3.15 12.87
12/24/2020 12:45:00 PM 0.92 33.656 0.082 6.55 3.18 12.87
12/24/2020 1:00:00 PM 0.94 33.692 0.082 6.55 3.27 12.88
12/24/2020 1:15:00 PM 0.96 33.728 0.082 6.56 3.21 12.88
12/24/2020 1:30:00 PM 0.99 33.782 0.082 6.55 3.21 12.88
12/24/2020 1:45:00 PM 1.02 33.836 0.082 6.56 3.19 12.9
12/24/2020 2:00:00 PM 1.05 33.89 0.082 6.56 3.3 12.91
12/24/2020 2:15:00 PM 1.07 33.926 0.082 6.57 3.24 12.94
12/24/2020 2:30:00 PM 1.09 33.962 0.082 6.56 3.31 12.96
12/24/2020 2:45:00 PM 1.11 33.998 0.082 6.56 3.25 12.96
12/24/2020 3:00:00 PM 1.14 34.052 0.081 6.56 3.24 12.97
12/24/2020 3:15:00 PM 1.16 34.088 0.081 6.56 3.32 12.97
12/24/2020 3:30:00 PM 1.19 34.142 0.081 6.56 3.3 12.99
12/24/2020 3:45:00 PM 1.2 34.16 0.081 6.57 3.34 12.99
12/24/2020 4:00:00 PM 1.23 34.214 0.081 6.57 3.29 12.99
12/24/2020 4:15:00 PM 1.24 34.232 0.081 6.56 3.19 13
12/24/2020 4:30:00 PM 1.26 34.268 0.081 6.56 3.24 12.99
12/24/2020 4:45:00 PM 1.29 34.322 0.081 6.58 3.28 13.02
12/24/2020 5:00:00 PM 1.31 34.358 0.081 6.57 3.22 13.02
12/24/2020 5:15:00 PM 1.34 34.412 0.081 6.57 3.26 13.02
12/24/2020 5:30:00 PM 1.36 34.448 0.081 6.57 3.64 13.03
12/24/2020 5:45:00 PM 1.38 34.484 0.081 6.57 3.31 13.02
12/24/2020 6:00:00 PM 1.39 34.502 0.081 6.57 3.51 13.02
12/24/2020 6:15:00 PM 1.42 34.556 0.081 6.57 3.35 13.02
12/24/2020 6:30:00 PM 1.43 34.574 0.081 6.57 3.26 13.02
12/24/2020 6:45:00 PM 1.45 34.61 0.081 6.57 3.34 13.03
12/24/2020 7:00:00 PM 1.46 34.628 0.081 6.57 3.43 13.02
12/24/2020 7:15:00 PM 1.47 34.646 0.081 6.57 3.31 13.01
12/24/2020 7:30:00 PM 1.49 34.682 0.081 6.57 3.41 13.01
12/24/2020 7:45:00 PM 1.5 34.7 0.081 6.57 3.35 13.01
12/24/2020 8:00:00 PM 1.51 34.718 0.081 6.57 3.35 12.99
12/24/2020 8:15:00 PM 1.52 34.736 0.081 6.57 3.39 12.97
12/24/2020 8:30:00 PM 1.53 34.754 0.081 6.56 3.92 12.96
12/24/2020 8:45:00 PM 1.54 34.772 0.082 6.56 3.49 12.95
12/24/2020 9:00:00 PM 1.55 34.79 0.082 6.56 3.68 12.93
12/24/2020 9:15:00 PM 1.56 34.808 0.082 6.56 3.87 12.91
12/24/2020 9:30:00 PM 1.57 34.826 0.082 6.55 3.62 12.91
12/24/2020 9:45:00 PM 1.57 34.826 0.081 6.56 3.92 12.9
12/24/2020 10:00:00 PM 1.58 34.844 0.082 6.55 3.76 12.88
12/24/2020 10:15:00 PM 1.59 34.862 0.09 6.54 3.79 12.84
12/24/2020 10:30:00 PM 1.6 34.88 0.087 6.53 4.49 12.8
12/24/2020 10:45:00 PM 1.6 34.88 0.083 6.54 3.75 12.8
12/24/2020 11:00:00 PM 1.61 34.898 0.093 6.52 4.72 12.76
12/24/2020 11:15:00 PM 1.62 34.916 0.083 6.53 4.55 12.77
12/24/2020 11:30:00 PM 1.64 34.952 0.086 6.53 5.01 12.74
12/24/2020 11:45:00 PM 1.66 34.988 0.086 6.52 4.88 12.72
12/25/2020 12:00:00 AM 1.69 35.042 0.09 6.52 4.63 12.69
12/25/2020 12:15:00 AM 1.7 35.06 0.089 6.52 4.47 12.67
12/25/2020 12:30:00 AM 1.74 35.132 0.09 6.51 4.2 12.64
12/25/2020 12:45:00 AM 1.79 35.222 0.097 6.5 5.54 12.6
12/25/2020 1:00:00 AM 1.8 35.24 0.098 6.5 5.93 12.56
12/25/2020 1:15:00 AM 1.8 35.24 0.094 6.49 5.34 12.55
12/25/2020 1:30:00 AM 1.8 35.24 0.094 6.48 5.21 12.51
12/25/2020 1:45:00 AM 1.8 35.24 0.092 6.47 5.16 12.45
12/25/2020 2:00:00 AM 1.82 35.276 0.09 6.47 4.49 12.4
12/25/2020 2:15:00 AM 1.85 35.33 0.094 6.46 4.29 12.35
12/25/2020 2:30:00 AM 1.87 35.366 0.095 6.46 4.21 12.31
12/25/2020 2:45:00 AM 1.88 35.384 0.087 6.46 4.62 12.29
12/25/2020 3:00:00 AM 1.93 35.474 0.093 6.46 4.37 12.26
12/25/2020 3:15:00 AM 2 35.6 0.092 6.45 4.57 12.2
12/25/2020 3:30:00 AM 1.96 35.528 0.086 6.45 5.1 12.13
12/25/2020 3:45:00 AM 2.05 35.69 0.103 6.42 7.77 12.04
12/25/2020 4:00:00 AM 1.94 35.492 0.086 6.41 7.19 11.96
12/25/2020 4:15:00 AM 1.9 35.42 0.085 6.4 6.23 11.88
12/25/2020 4:30:00 AM 1.89 35.402 0.085 6.39 6.17 11.8
12/25/2020 4:45:00 AM 1.89 35.402 0.086 6.39 6.03 11.74
12/25/2020 5:00:00 AM 1.89 35.402 0.086 6.37 6.09 11.68
12/25/2020 5:15:00 AM 1.9 35.42 0.086 6.36 5.74 11.63
12/25/2020 5:30:00 AM 1.9 35.42 0.086 6.35 5.79 11.57
12/25/2020 5:45:00 AM 1.9 35.42 0.085 6.35 6.22 11.54
12/25/2020 6:00:00 AM 1.89 35.402 0.085 6.34 5.76 11.51
12/25/2020 6:15:00 AM 1.9 35.42 0.084 6.34 5.75 11.5
12/25/2020 6:30:00 AM 1.91 35.438 0.084 6.34 5.98 11.47
12/25/2020 6:45:00 AM 1.92 35.456 0.083 6.33 6.07 11.45
12/25/2020 7:00:00 AM 1.94 35.492 0.082 6.32 5.91 11.43
12/25/2020 7:15:00 AM 1.99 35.582 0.081 6.32 6.38 11.42
12/25/2020 7:30:00 AM 2.02 35.636 0.081 6.31 5.6 11.41
12/25/2020 7:45:00 AM 2.06 35.708 0.08 6.31 5.44 11.4
12/25/2020 8:00:00 AM 2.08 35.744 0.08 6.3 5.73 11.38
12/25/2020 8:15:00 AM 2.1 35.78 0.079 6.29 5.7 11.34
12/25/2020 8:30:00 AM 2.12 35.816 0.079 6.29 5.61 11.33
12/25/2020 8:45:00 AM 2.15 35.87 0.078 6.29 6.17 11.32
12/25/2020 9:00:00 AM 2.15 35.87 0.078 6.28 5.74 11.3
12/25/2020 9:15:00 AM 2.17 35.906 0.078 6.27 6.02 11.3
12/25/2020 9:30:00 AM 2.18 35.924 0.077 6.26 6.19 11.28
12/25/2020 9:45:00 AM 2.19 35.942 0.076 6.26 7.33 11.27
12/25/2020 10:00:00 AM 2.2 35.96 0.076 6.25 6.72 11.26
12/25/2020 10:15:00 AM 2.2 35.96 0.075 6.25 7.21 11.27
12/25/2020 10:30:00 AM 2.21 35.978 0.074 6.24 7.51 11.28
12/25/2020 10:45:00 AM 2.22 35.996 0.074 6.24 7.64 11.29
12/25/2020 11:00:00 AM 2.22 35.996 0.074 6.23 7.58 11.25
12/25/2020 11:15:00 AM 2.22 35.996 0.074 6.23 7.64 11.23
12/25/2020 11:30:00 AM 2.22 35.996 0.073 6.23 8.06 11.23
12/25/2020 11:45:00 AM 2.23 36.014 0.074 6.23 7.25 11.22
12/25/2020 12:00:00 PM 2.24 36.032 0.074 6.22 7.03 11.2
12/25/2020 12:15:00 PM 2.26 36.068 0.075 6.22 6.8 11.19
12/25/2020 12:30:00 PM 2.28 36.104 0.075 6.22 6.46 11.17
12/25/2020 12:45:00 PM 2.3 36.14 0.076 6.23 6.48 11.16
12/25/2020 1:00:00 PM 2.32 36.176 0.076 6.23 6.79 11.15
12/25/2020 1:15:00 PM 2.33 36.194 0.077 6.23 6.24 11.15
12/25/2020 1:30:00 PM 2.33 36.194 0.077 6.23 5.96 11.12
12/25/2020 1:45:00 PM 2.33 36.194 0.077 6.23 6.12 11.12
12/25/2020 2:00:00 PM 2.34 36.212 0.077 6.23 5.99 11.1
12/25/2020 2:15:00 PM 2.34 36.212 0.077 6.23 6.24 11.1
12/25/2020 2:30:00 PM 2.36 36.248 0.077 6.22 6.2 11.09
12/25/2020 2:45:00 PM 2.36 36.248 0.078 6.22 5.97 11.04
12/25/2020 3:00:00 PM 2.4 36.32 0.078 6.23 7.28 11.02
12/25/2020 3:15:00 PM 2.47 36.446 0.078 6.22 7.9 11.04
12/25/2020 3:30:00 PM 2.5 36.5 0.079 6.2 8.66 10.95
12/25/2020 3:45:00 PM 2.53 36.554 0.079 6.22 16.29 10.87
12/25/2020 4:00:00 PM 2.54 36.572 0.078 6.2 11.63 10.95
12/25/2020 4:15:00 PM 2.37 36.266 0.076 6.2 15.52 11.3
12/25/2020 4:30:00 PM 2.11 35.798 0.073 6.16 20.94 11.73
12/25/2020 4:45:00 PM 1.83 35.294 0.07 6.1 27.32 12.2
12/25/2020 5:00:00 PM 1.64 34.952 0.067 6.09 44.91 12.52
12/25/2020 5:15:00 PM 1.52 34.736 0.065 6.07 37.37 12.73
12/25/2020 5:30:00 PM 1.47 34.646 0.064 6.01 32.91 12.78
12/25/2020 5:45:00 PM 1.42 34.556 0.063 6.06 41.85 12.85
12/25/2020 6:00:00 PM 1.37 34.466 0.063 6.11 34.25 12.87
12/25/2020 6:15:00 PM 1.32 34.376 0.062 6.1 62.01 12.96
12/25/2020 6:30:00 PM 1.28 34.304 0.062 6.08 32.73 12.99
12/25/2020 6:45:00 PM 1.25 34.25 0.062 6.07 40.69 13
12/25/2020 7:00:00 PM 1.22 34.196 0.062 6.04 35.2 12.98
12/25/2020 7:15:00 PM 1.21 34.178 0.061 6.06 31.47 13.02
12/25/2020 7:30:00 PM 1.19 34.142 0.06 6.04 34.77 13.13
12/25/2020 7:45:00 PM 1.16 34.088 0.06 6.02 59.38 13.01
12/25/2020 8:00:00 PM 1.15 34.07 0.058 6.03 45.3 13.12
12/25/2020 8:15:00 PM 1.12 34.016 0.058 6.01 40.62 13.09
12/25/2020 8:30:00 PM 1.12 34.016 0.057 6.01 36.23 13.19
12/25/2020 8:45:00 PM 1.1 33.98 0.057 6.01 46.31 13.19
12/25/2020 9:00:00 PM 1.03 33.854 0.058 5.97 37.86 12.99
12/25/2020 9:15:00 PM 1.09 33.962 0.056 6.05 36.18 13.25
12/25/2020 9:30:00 PM 1.05 33.89 0.056 6.01 30.18 13.22
12/25/2020 9:45:00 PM 1.01 33.818 0.057 6.02 40.62 13.11
12/25/2020 10:00:00 PM 1.04 33.872 0.056 6 37.83 13.21
12/25/2020 10:15:00 PM 1 33.8 0.056 6.02 35.71 13.21
12/25/2020 10:30:00 PM 1.05 33.89 0.055 6.04 29.14 13.36
12/25/2020 10:45:00 PM 1.04 33.872 0.055 6 32.54 13.33
12/25/2020 11:00:00 PM 1.01 33.818 0.055 5.96 24.22 13.16
12/25/2020 11:15:00 PM 1.09 33.962 0.054 6 30.73 13.4
12/25/2020 11:30:00 PM 1.04 33.872 0.054 5.98 31.49 13.31
12/25/2020 11:45:00 PM 1.04 33.872 0.054 5.97 28.93 13.29
12/26/2020 12:00:00 AM 1.07 33.926 0.053 5.99 26.61 13.39
12/26/2020 12:15:00 AM 1.08 33.944 0.053 5.98 26.63 13.4
12/26/2020 12:30:00 AM 1.11 33.998 0.053 5.97 29.37 13.39
12/26/2020 12:45:00 AM 1.1 33.98 0.053 5.96 29.45 13.35
12/26/2020 1:00:00 AM 1.1 33.98 0.053 5.96 28.69 13.3
12/26/2020 1:15:00 AM 1.14 34.052 0.052 5.98 28.41 13.36
12/26/2020 1:30:00 AM 1.16 34.088 0.052 5.96 32.48 13.35
12/26/2020 1:45:00 AM 1.15 34.07 0.052 5.94 32.38 13.33
12/26/2020 2:00:00 AM 1.16 34.088 0.052 5.95 35.85 13.3
12/26/2020 2:15:00 AM 1.17 34.106 0.052 5.95 59.69 13.35
12/26/2020 2:30:00 AM 1.22 34.196 0.051 5.97 27.02 13.43
12/26/2020 2:45:00 AM 1.23 34.214 0.051 5.97 34.28 13.42
12/26/2020 3:00:00 AM 1.19 34.142 0.051 5.95 27.24 13.41
12/26/2020 3:15:00 AM 1.21 34.178 0.051 5.96 28.79 13.41
12/26/2020 3:30:00 AM 1.18 34.124 0.051 5.94 27.2 13.4
12/26/2020 3:45:00 AM 1.21 34.178 0.051 5.96 29.28 13.48
12/26/2020 4:00:00 AM 1.19 34.142 0.051 5.98 31.23 13.47
12/26/2020 4:15:00 AM 1.23 34.214 0.051 5.99 27.08 13.49
12/26/2020 4:30:00 AM 1.22 34.196 0.05 5.97 27.8 13.48
12/26/2020 4:45:00 AM 1.26 34.268 0.05 5.96 25.44 13.51
12/26/2020 5:00:00 AM 1.27 34.286 0.05 5.95 25.18 13.5
12/26/2020 5:15:00 AM 1.26 34.268 0.05 5.93 66.64 13.46
12/26/2020 5:30:00 AM 1.31 34.358 0.049 5.97 66.25 13.52
12/26/2020 5:45:00 AM 1.3 34.34 0.049 5.95 26.31 13.5
12/26/2020 6:00:00 AM 1.32 34.376 0.048 5.95 30.06 13.53
12/26/2020 6:15:00 AM 1.33 34.394 0.048 5.98 34.65 13.52
12/26/2020 6:30:00 AM 1.35 34.43 0.048 5.96 27.51 13.54
12/26/2020 6:45:00 AM 1.34 34.412 0.047 5.95 18.42 13.52
12/26/2020 7:00:00 AM 1.34 34.412 0.047 5.96 27.02 13.52
12/26/2020 7:15:00 AM 1.37 34.466 0.047 5.96 25.91 13.56
12/26/2020 7:30:00 AM 1.36 34.448 0.047 5.95 24.73 13.54
12/26/2020 7:45:00 AM 1.36 34.448 0.047 5.98 33.98 13.52
12/26/2020 8:00:00 AM 1.36 34.448 0.047 6.01 21.09 13.54
12/26/2020 8:15:00 AM 1.36 34.448 0.047 5.95 25.91 13.54
12/26/2020 8:30:00 AM 1.38 34.484 0.046 5.94 26.72 13.57
12/26/2020 8:45:00 AM 1.4 34.52 0.046 5.94 29.99 13.58
12/26/2020 9:00:00 AM 1.4 34.52 0.046 5.91 34.76 13.56
12/26/2020 9:15:00 AM 1.39 34.502 0.046 5.9 27.29 13.54
12/26/2020 9:30:00 AM 1.49 34.682 0.045 5.93 32.64 13.61
12/26/2020 9:45:00 AM 1.57 34.826 0.045 5.92 124.61 13.65
12/26/2020 10:00:00 AM 1.51 34.718 0.046 5.9 35.4 13.58
12/26/2020 10:15:00 AM 1.57 34.826 0.046 5.94 47.82 13.61
12/26/2020 10:30:00 AM 1.6 34.88 0.046 5.93 47.41 13.63
12/26/2020 10:45:00 AM 1.62 34.916 0.046 5.97 43.46 13.61
12/26/2020 11:00:00 AM 1.69 35.042 0.046 5.95 36.29 13.63
12/26/2020 11:15:00 AM 1.73 35.114 0.046 6.04 35.15 13.65
12/26/2020 11:30:00 AM 1.76 35.168 0.027 5.88 36.2 13.66
12/26/2020 11:45:00 AM 1.74 35.132 0.046 5.87 37.91 13.64
12/26/2020 12:00:00 PM 1.73 35.114 0.046 5.92 35.6 13.64
12/26/2020 12:15:00 PM 1.73 35.114 0.047 5.91 32.18 13.67
12/26/2020 12:30:00 PM 1.74 35.132 0.047 5.92 27.12 13.69
12/26/2020 12:45:00 PM 1.67 35.006 0.047 5.92 25.17 13.64
12/26/2020 1:00:00 PM 1.68 35.024 0.047 5.92 31.14 13.68
12/26/2020 1:15:00 PM 1.7 35.06 0.026 5.92 27.18 13.7
12/26/2020 1:30:00 PM 1.69 35.042 0.026 5.98 26.68 13.68
12/26/2020 1:45:00 PM 1.7 35.06 0.032 5.93 34.6 13.72
12/26/2020 2:00:00 PM 1.67 35.006 0.046 5.91 29.72 13.7
12/26/2020 2:15:00 PM 1.68 35.024 0.034 5.88 33.61 13.7
12/26/2020 2:30:00 PM 1.68 35.024 0.03 5.87 29.1 13.7
12/26/2020 2:45:00 PM 1.69 35.042 0.046 5.89 31.83 13.72
12/26/2020 3:00:00 PM 1.68 35.024 0.035 5.89 26.71 13.72
12/26/2020 3:15:00 PM 1.66 34.988 0.046 5.88 28.31 13.7
12/26/2020 3:30:00 PM 1.67 35.006 0.04 5.94 27.94 13.71
12/26/2020 3:45:00 PM 1.64 34.952 0.038 5.92 34.58 13.7
12/26/2020 4:00:00 PM 1.65 34.97 0.035 5.9 26.76 13.72
12/26/2020 4:15:00 PM 1.62 34.916 0.029 5.87 26.37 13.71
12/26/2020 4:30:00 PM 1.64 34.952 0.047 5.88 25.07 13.73
12/26/2020 4:45:00 PM 1.63 34.934 0.036 5.91 27.26 13.74
12/26/2020 5:00:00 PM 1.59 34.862 0.028 5.89 27.66 13.71
12/26/2020 5:15:00 PM 1.6 34.88 0.032 5.89 25.88 13.72
12/26/2020 5:30:00 PM 1.59 34.862 0.028 5.95 27.92 13.72
12/26/2020 5:45:00 PM 1.57 34.826 0.03 5.91 27.64 13.73
12/26/2020 6:00:00 PM 1.55 34.79 0.047 5.91 26.05 13.7
12/26/2020 6:15:00 PM 1.55 34.79 0.037 5.91 30.6 13.71
12/26/2020 6:30:00 PM 1.53 34.754 0.033 5.91 27.63 13.72
12/26/2020 6:45:00 PM 1.51 34.718 0.032 5.9 26.98 13.72
12/26/2020 7:00:00 PM 1.54 34.772 0.029 5.92 27.94 13.76
12/26/2020 7:15:00 PM 1.51 34.718 0.031 5.93 28.37 13.75
12/26/2020 7:30:00 PM 1.51 34.718 0.032 5.93 27.13 13.75
12/26/2020 7:45:00 PM 1.5 34.7 0.031 5.95 22.58 13.76
12/26/2020 8:00:00 PM 1.5 34.7 0.041 5.98 26.13 13.77
12/26/2020 8:15:00 PM 1.47 34.646 0.041 5.95 26.78 13.75
12/26/2020 8:30:00 PM 1.48 34.664 0.041 5.96 24.46 13.79
12/26/2020 8:45:00 PM 1.44 34.592 0.041 5.93 25.39 13.78
12/26/2020 9:00:00 PM 1.43 34.574 0.041 5.94 25.89 13.79
12/26/2020 9:15:00 PM 1.41 34.538 0.041 5.93 28.36 13.78
12/26/2020 9:30:00 PM 1.44 34.592 0.04 6.03 23.2 13.8
12/26/2020 9:45:00 PM 1.44 34.592 0.04 5.97 30.18 13.83
12/26/2020 10:00:00 PM 1.44 34.592 0.039 5.99 29.53 13.83
12/26/2020 10:15:00 PM 1.43 34.574 0.039 5.94 26.25 13.81
12/26/2020 10:30:00 PM 1.42 34.556 0.039 5.95 28.72 13.82
12/26/2020 10:45:00 PM 1.42 34.556 0.038 5.92 26.09 13.83
12/26/2020 11:00:00 PM 1.42 34.556 0.037 5.97 26.42 13.83
12/26/2020 11:15:00 PM 1.43 34.574 0.037 5.97 25.35 13.84
12/26/2020 11:30:00 PM 1.43 34.574 0.037 6 25.96 13.86
12/26/2020 11:45:00 PM 1.4 34.52 0.037 6 26.28 13.85
12/27/2020 12:00:00 AM 1.41 34.538 0.037 5.99 27.89 13.89
12/27/2020 12:15:00 AM 1.39 34.502 0.036 5.99 27.12 13.88
12/27/2020 12:30:00 AM 1.36 34.448 0.036 5.97 25.18 13.88
12/27/2020 12:45:00 AM 1.35 34.43 0.036 5.91 22 13.87
12/27/2020 1:00:00 AM 1.35 34.43 0.036 5.93 23.12 13.87
12/27/2020 1:15:00 AM 1.32 34.376 0.036 5.97 26.77 13.87
12/27/2020 1:30:00 AM 1.34 34.412 0.035 5.96 22.67 13.88
12/27/2020 1:45:00 AM 1.33 34.394 0.035 5.96 23.51 13.89
12/27/2020 2:00:00 AM 1.31 34.358 0.034 5.91 22.1 13.89
12/27/2020 2:15:00 AM 1.31 34.358 0.034 5.97 34.97 13.91
12/27/2020 2:30:00 AM 1.3 34.34 0.034 5.98 41.53 13.89
12/27/2020 2:45:00 AM 1.29 34.322 0.033 6.03 29.26 13.89
12/27/2020 3:00:00 AM 1.28 34.304 0.033 5.95 24.92 13.91
12/27/2020 3:15:00 AM 1.28 34.304 0.033 6.01 24.66 13.91
12/27/2020 3:30:00 AM 1.3 34.34 0.033 6.02 23.49 13.94
12/27/2020 3:45:00 AM 1.27 34.286 0.033 5.98 36.25 13.93
12/27/2020 4:00:00 AM 1.28 34.304 0.032 5.98 23.14 13.94
12/27/2020 4:15:00 AM 1.27 34.286 0.032 5.98 21.78 13.95
12/27/2020 4:30:00 AM 1.26 34.268 0.031 6.01 21.53 13.96
12/27/2020 4:45:00 AM 1.25 34.25 0.031 6 20.94 13.94
12/27/2020 5:00:00 AM 1.26 34.268 0.03 6.03 27.11 13.95
12/27/2020 5:15:00 AM 1.25 34.25 0.03 6.03 23.53 13.98
12/27/2020 5:30:00 AM 1.24 34.232 0.03 6.03 36.82 13.99
12/27/2020 5:45:00 AM 1.23 34.214 0.03 6.05 38.63 13.98
12/27/2020 6:00:00 AM 1.25 34.25 0.03 6.03 36.65 14
12/27/2020 6:15:00 AM 1.22 34.196 0.03 6.02 51.78 13.97
12/27/2020 6:30:00 AM 1.23 34.214 0.029 6.01 41.19 14
12/27/2020 6:45:00 AM 1.23 34.214 0.029 6 47.15 14
12/27/2020 7:00:00 AM 1.22 34.196 0.03 6.1 35.63 13.99
12/27/2020 7:15:00 AM 1.2 34.16 0.029 6 56.12 14.01
12/27/2020 7:30:00 AM 1.2 34.16 0.029 6.01 47.65 14.02
12/27/2020 7:45:00 AM 1.19 34.142 0.028 6.02 42.78 13.99
12/27/2020 8:00:00 AM 1.21 34.178 0.028 6.01 55.03 14.01
12/27/2020 8:15:00 AM 1.2 34.16 0.028 6.03 35.61 14.06
12/27/2020 8:30:00 AM 1.2 34.16 0.028 6.08 104.61 14.04
12/27/2020 8:45:00 AM 1.18 34.124 0.027 6.04 37.62 14.04
12/27/2020 9:00:00 AM 1.2 34.16 0.028 6.05 24.76 14.04
12/27/2020 9:15:00 AM 1.2 34.16 0.028 6.02 25.29 14.04
12/27/2020 9:30:00 AM 1.21 34.178 0.028 6.04 40.16 14.05
12/27/2020 9:45:00 AM 1.24 34.232 0.028 6.05 38.65 14.07
12/27/2020 10:00:00 AM 1.25 34.25 0.028 6.05 40.2 14.09
12/27/2020 10:15:00 AM 1.28 34.304 0.029 6.06 45.25 14.08
12/27/2020 10:30:00 AM 1.32 34.376 0.031 6.1 39.11 14.12
12/27/2020 10:45:00 AM 1.34 34.412 0.031 6.13 41.48 14.09
12/27/2020 11:00:00 AM 1.37 34.466 0.032 6.19 133.46 14.12
12/27/2020 11:15:00 AM 1.4 34.52 0.033 6.14 48.02 14.1
12/27/2020 11:30:00 AM 1.41 34.538 0.035 6.03 48.83 14.1
12/27/2020 11:45:00 AM 1.44 34.592 0.046 6.2 48.66 14.12
12/27/2020 12:00:00 PM 1.46 34.628 0.046 6.13 45.97 14.13
12/27/2020 12:15:00 PM 1.46 34.628 0.046 6.17 88.18 14.11
12/27/2020 12:30:00 PM 1.49 34.682 0.046 6.22 53.94 14.09
12/27/2020 12:45:00 PM 1.51 34.718 0.047 6.22 171.71 14.12
12/27/2020 1:00:00 PM 1.52 34.736 0.047 6.21 262.55 14.12
12/27/2020 1:15:00 PM 1.53 34.754 0.047 6.21 335.26 14.13
12/27/2020 1:30:00 PM 1.54 34.772 0.047 6.18 395.67 14.1
12/27/2020 1:45:00 PM 1.55 34.79 0.047 6.18 630.01 14.12
12/27/2020 2:00:00 PM 1.54 34.772 0.047 6.24 1774.54 14.1
12/27/2020 2:15:00 PM 1.55 34.79 0.047 6.18 18.28 14.14
12/27/2020 2:30:00 PM 1.52 34.736 0.048 6.16 90.32 14.06
12/27/2020 2:45:00 PM 1.52 34.736 0.048 6.1 6.64 13.99
12/27/2020 3:00:00 PM 1.51 34.718 0.049 6.11 310.2 13.77
12/27/2020 3:15:00 PM 1.49 34.682 0.049 6.06 88.68 13.79
12/27/2020 3:30:00 PM 1.48 34.664 0.049 6.13 124.59 13.89
12/27/2020 3:45:00 PM 1.45 34.61 0.049 6.17 215.69 13.88
12/27/2020 4:00:00 PM 1.43 34.574 0.049 6.11 72.64 13.65
12/27/2020 4:15:00 PM 1.4 34.52 0.049 6.14 49.34 13.78
12/27/2020 4:30:00 PM 1.37 34.466 0.049 6.17 18.37 13.64
12/27/2020 4:45:00 PM 1.35 34.43 0.049 6.18 9.91 13.7
12/27/2020 5:00:00 PM 1.32 34.376 0.049 6.23 12.95 13.69
12/27/2020 5:15:00 PM 1.29 34.322 0.049 6.23 13.89 13.77
12/27/2020 5:30:00 PM 1.27 34.286 0.049 6.21 17.45 13.89
12/27/2020 5:45:00 PM 1.25 34.25 0.049 6.18 26.36 13.89
12/27/2020 6:00:00 PM 1.23 34.214 0.049 6.13 27.19 13.84
12/27/2020 6:15:00 PM 1.21 34.178 0.049 6.13 19.06 13.77
12/27/2020 6:30:00 PM 1.19 34.142 0.049 6.13 15.38 13.78
12/27/2020 6:45:00 PM 1.17 34.106 0.049 6.11 10.31 13.92
12/27/2020 7:00:00 PM 1.15 34.07 0.05 6.12 9.35 13.97
12/27/2020 7:15:00 PM 1.13 34.034 0.05 6.14 20.15 13.94
12/27/2020 7:30:00 PM 1.11 33.998 0.05 6.14 33.12 13.99
12/27/2020 7:45:00 PM 1.1 33.98 0.05 6.19 25.24 13.96
12/27/2020 8:00:00 PM 1.08 33.944 0.05 6.22 32.67 13.95
12/27/2020 8:15:00 PM 1.07 33.926 0.053 6.07 51.26 13.91
12/27/2020 8:30:00 PM 1.06 33.908 0.052 6.12 79.86 13.94
12/27/2020 8:45:00 PM 1.07 33.926 0.06 6.09 46.15 13.97
12/27/2020 9:00:00 PM 1.06 33.908 0.056 6.09 51.69 13.97
12/27/2020 9:15:00 PM 1.05 33.89 0.052 6.22 46.18 13.99
12/27/2020 9:30:00 PM 1.04 33.872 0.051 6.25 65.78 14.03
12/27/2020 9:45:00 PM 1.03 33.854 0.05 6.25 227.68 14.01
12/27/2020 10:00:00 PM 1.03 33.854 0.05 6.24 251.29 13.89
12/27/2020 10:15:00 PM 1.03 33.854 0.05 6.23 300.66 13.88
12/27/2020 10:30:00 PM 1.02 33.836 0.05 6.22 276.61 13.84
12/27/2020 10:45:00 PM 1.03 33.854 0.05 6.22 246.02 13.84
12/27/2020 11:00:00 PM 1.02 33.836 0.05 6.22 108.28 13.85
12/27/2020 11:15:00 PM 1.02 33.836 0.051 6.01 211.25 13.96
12/27/2020 11:30:00 PM 1.02 33.836 0.051 6.16 40.64 13.96
12/27/2020 11:45:00 PM 1.02 33.836 0.051 6.18 99.03 13.91
12/28/2020 12:00:00 AM 1.03 33.854 0.051 6.22 65.72 13.91
12/28/2020 12:15:00 AM 1.03 33.854 0.052 6.23 58.33 13.92
12/28/2020 12:30:00 AM 1.02 33.836 0.054 6.24 56.34 13.99
12/28/2020 12:45:00 AM 1.03 33.854 0.054 6.23 71.49 13.92
12/28/2020 1:00:00 AM 1.03 33.854 0.052 6.14 366.29 13.85
12/28/2020 1:15:00 AM 1.02 33.836 0.052 6.22 322.48 13.88
12/28/2020 1:30:00 AM 1.05 33.89 0.056 6.21 319.44 13.94
12/28/2020 1:45:00 AM 1.05 33.89 0.055 6.18 372.14 13.91
12/28/2020 2:00:00 AM 1.04 33.872 0.058 6.19 71.12 13.95
12/28/2020 2:15:00 AM 1.05 33.89 0.054 6.22 37.63 13.92
12/28/2020 2:30:00 AM 1.07 33.926 0.055 6.22 36.47 13.94
12/28/2020 2:45:00 AM 1.06 33.908 0.063 6.22 32.7 13.97
12/28/2020 3:00:00 AM 1.06 33.908 0.07 6.16 34.61 13.99
12/28/2020 3:15:00 AM 1.07 33.926 0.12 6.15 35.2 14
12/28/2020 3:30:00 AM 1.08 33.944 0.136 6.11 34.44 14.01
12/28/2020 3:45:00 AM 1.06 33.908 0.068 6.12 36.23 14
12/28/2020 4:00:00 AM 1.06 33.908 0.066 6.12 35.85 13.99
12/28/2020 4:15:00 AM 1.07 33.926 0.079 6.09 36.64 14.02
12/28/2020 4:30:00 AM 1.06 33.908 0.078 6.04 36.27 13.99
12/28/2020 4:45:00 AM 1.07 33.926 0.096 6.1 36.83 14
12/28/2020 5:00:00 AM 1.09 33.962 0.078 6.11 37.67 14.03
12/28/2020 5:15:00 AM 1.08 33.944 0.096 6.14 38.03 14.03
12/28/2020 5:30:00 AM 1.09 33.962 0.065 6.15 39.07 14.05
12/28/2020 5:45:00 AM 1.1 33.98 0.069 6.13 40.97 14.04
12/28/2020 6:00:00 AM 1.11 33.998 0.07 6.12 41.48 14.04
12/28/2020 6:15:00 AM 1.1 33.98 0.067 6.11 42.09 14.03
12/28/2020 6:30:00 AM 1.13 34.034 0.073 6.1 41.24 14.05
12/28/2020 6:45:00 AM 1.13 34.034 0.074 6.13 41.23 13.98
12/28/2020 7:00:00 AM 1.14 34.052 0.075 6.11 39.84 13.98
12/28/2020 7:15:00 AM 1.14 34.052 0.074 6.12 41.86 13.94
12/28/2020 7:30:00 AM 1.14 34.052 0.077 6.16 43.14 13.98
12/28/2020 7:45:00 AM 1.11 33.998 0.073 6.12 43.39 13.95
12/28/2020 8:00:00 AM 1.09 33.962 0.092 6.17 44.39 13.96
12/28/2020 8:15:00 AM 1.09 33.962 0.077 6.18 45.31 13.98
12/28/2020 8:30:00 AM 1.09 33.962 0.077 6.18 46 13.96
12/28/2020 8:45:00 AM 1.11 33.998 0.086 6.21 47.57 13.93
12/28/2020 9:00:00 AM 1.12 34.016 0.068 6.2 48.01 13.94
12/2